Provisional Data: Sing Sing Creek near Big Flats, NY


Please select a monitoring station.
Please select start date.
Please select start date.

Toggle Unit: C/F Toggle Unit: C/F
Sample Time Temperature (C) Temperature (F) Specific Conductivity (mS/cm) pH   Turbidity (NTU+) DO (mg/L)
9/6/2021 12:00:00 AM 16.88 62.384 0.61 7.83 34.61 7.97
9/6/2021 12:15:00 AM 16.81 62.258 0.611 7.79 36.92 7.9
9/6/2021 12:30:00 AM 16.76 62.168 0.61 7.78 38.02 7.85
9/6/2021 12:45:00 AM 16.73 62.114 0.611 7.75 37.09 7.83
9/6/2021 1:00:00 AM 16.69 62.042 0.611 7.75 34.57 7.76
9/6/2021 1:15:00 AM 16.63 61.934 0.612 7.79 37.17 7.83
9/6/2021 1:30:00 AM 16.59 61.862 0.611 7.73 35.78 7.78
9/6/2021 1:45:00 AM 16.55 61.79 0.612 7.77 37.56 7.58
9/6/2021 2:00:00 AM 16.51 61.718 0.611 7.72 39.88 7.66
9/6/2021 2:15:00 AM 16.48 61.664 0.611 7.76 36.27 7.67
9/6/2021 2:30:00 AM 16.44 61.592 0.611 7.75 35.07 7.53
9/6/2021 2:45:00 AM 16.41 61.538 0.611 7.75 35.19 7.4
9/6/2021 3:00:00 AM 16.37 61.466 0.611 7.71 35.6 7.49
9/6/2021 3:15:00 AM 16.34 61.412 0.611 7.73 39.82 7.47
9/6/2021 3:30:00 AM 16.31 61.358 0.611 7.74 39.11 7.46
9/6/2021 3:45:00 AM 16.27 61.286 0.611 7.72 39.99 7.52
9/6/2021 4:00:00 AM 16.23 61.214 0.611 7.72 34.63 7.6
9/6/2021 4:15:00 AM 16.2 61.16 0.611 7.72 37.76 7.58
9/6/2021 4:30:00 AM 16.16 61.088 0.61 7.72 34.72 7.6
9/6/2021 4:45:00 AM 16.13 61.034 0.61 7.7 34.12 7.58
9/6/2021 5:00:00 AM 16.08 60.944 0.611 7.73 34.67 7.67
9/6/2021 5:15:00 AM 16.02 60.836 0.61 7.73 36.5 7.8
9/6/2021 5:30:00 AM 15.99 60.782 0.61 7.73 36.34 7.84
9/6/2021 5:45:00 AM 15.95 60.71 0.611 7.73 45.62 7.79
9/6/2021 6:00:00 AM 15.91 60.638 0.611 7.72 54.23 7.77
9/6/2021 6:15:00 AM 15.88 60.584 0.611 7.69 38.17 7.77
9/6/2021 6:30:00 AM 15.84 60.512 0.611 7.73 223.36 7.69
9/6/2021 6:45:00 AM 15.79 60.422 0.611 7.69 44.07 7.68
9/6/2021 7:00:00 AM 15.75 60.35 0.611 7.74 41.23 7.72
9/6/2021 7:15:00 AM 15.71 60.278 0.611 7.74 36.28 7.86
9/6/2021 7:30:00 AM 15.67 60.206 0.612 7.74 37.15 7.92
9/6/2021 7:45:00 AM 15.63 60.134 0.612 7.74 36.34 7.91
9/6/2021 8:00:00 AM 15.59 60.062 0.613 7.74 36.07 8.02
9/6/2021 8:15:00 AM 15.56 60.008 0.614 7.73 38 7.96
9/6/2021 8:30:00 AM 15.53 59.954 0.614 7.74 34.27 7.97
9/6/2021 8:45:00 AM 15.54 59.972 0.614 7.76 35.52 8.27
9/6/2021 9:00:00 AM 15.55 59.99 0.615 7.76 35.22 8.26
9/6/2021 9:15:00 AM 15.56 60.008 0.616 7.74 34.94 8.33
9/6/2021 9:30:00 AM 15.59 60.062 0.615 7.77 692.83 8.49
9/6/2021 9:45:00 AM 15.62 60.116 0.616 7.78 51.37 8.71
9/6/2021 10:00:00 AM 15.65 60.17 0.615 7.74 41.75 8.8
9/6/2021 10:15:00 AM 15.7 60.26 0.615 7.76 37.42 8.88
9/6/2021 10:30:00 AM 15.77 60.386 0.616 7.77 38.67 8.98
9/6/2021 10:45:00 AM 15.84 60.512 0.615 7.81 34.93 9.17
9/6/2021 11:00:00 AM 15.93 60.674 0.615 7.78 36.82 9.22
9/6/2021 11:15:00 AM 16.04 60.872 0.614 7.84 41.75 9.44
9/6/2021 11:30:00 AM 16.15 61.07 0.614 7.81 40.6 9.62
9/6/2021 11:45:00 AM 16.27 61.286 0.613 7.82 37.35 9.77
9/6/2021 12:00:00 PM 16.3 61.34 0.612 7.83 35.68 9.76
9/6/2021 12:15:00 PM 16.39 61.502 0.612 7.88 38.29 9.91
9/6/2021 12:30:00 PM 16.5 61.7 0.611 7.86 35.31 10.1
9/6/2021 12:45:00 PM 16.58 61.844 0.609 7.9 34.95 10.19
9/6/2021 1:00:00 PM 16.53 61.754 0.603 7.86 36.34 10.15
9/6/2021 1:15:00 PM 16.67 62.006 0.605 7.92 37.57 10.3
9/6/2021 1:30:00 PM 16.89 62.402 0.604 7.9 37.07 10.35
9/6/2021 1:45:00 PM 17.02 62.636 0.603 7.95 35.16 10.65
9/6/2021 2:00:00 PM 17.07 62.726 0.603 7.93 36.33 10.62
9/6/2021 2:15:00 PM 17.25 63.05 0.602 7.98 34.72 10.71
9/6/2021 2:30:00 PM 17.47 63.446 0.601 8 34.88 10.97
9/6/2021 2:45:00 PM 17.63 63.734 0.6 8.01 35.01 11.11
9/6/2021 3:00:00 PM 17.8 64.04 0.599 8.02 35.14 11.18
9/6/2021 3:15:00 PM 17.92 64.256 0.598 8.01 34.86 11.3
9/6/2021 3:30:00 PM 18 64.4 0.598 8.05 34.6 11.39
9/6/2021 3:45:00 PM 18.05 64.49 0.597 8.01 38.3 11.41
9/6/2021 4:00:00 PM 18.16 64.688 0.596 8.07 33.73 11.42
9/6/2021 4:15:00 PM 18.19 64.742 0.595 8.04 33.98 11.3
9/6/2021 4:30:00 PM 18.29 64.922 0.595 8.08 33.76 11.51
9/6/2021 4:45:00 PM 18.38 65.084 0.594 8.1 33.77 11.36
9/6/2021 5:00:00 PM 18.48 65.264 0.593 8.11 34.62 11.25
9/6/2021 5:15:00 PM 18.56 65.408 0.593 8.12 36.93 11.49
9/6/2021 5:30:00 PM 18.59 65.462 0.593 8.11 32.53 11.32
9/6/2021 5:45:00 PM 18.59 65.462 0.592 8.08 34.1 11.32
9/6/2021 6:00:00 PM 18.59 65.462 0.592 8.09 37.06 11.13
9/6/2021 6:15:00 PM 18.57 65.426 0.591 8.09 34.75 11
9/6/2021 6:30:00 PM 18.53 65.354 0.591 8.06 36.28 10.81
9/6/2021 6:45:00 PM 18.48 65.264 0.591 8.07 36.32 10.66
9/6/2021 7:00:00 PM 18.42 65.156 0.591 8.06 36.32 10.72
9/6/2021 7:15:00 PM 18.35 65.03 0.591 8.06 36.4 10.65
9/6/2021 7:30:00 PM 18.29 64.922 0.591 8.02 34.19 10.51
9/6/2021 7:45:00 PM 18.22 64.796 0.591 8.01 36.52 10.37
9/6/2021 8:00:00 PM 18.16 64.688 0.591 8 39.28 10.21
9/6/2021 8:15:00 PM 18.08 64.544 0.591 7.99 36.7 10.05
9/6/2021 8:30:00 PM 18.02 64.436 0.591 8 33.67 9.89
9/6/2021 8:45:00 PM 17.94 64.292 0.592 7.95 34.99 9.77
9/6/2021 9:00:00 PM 17.88 64.184 0.592 7.96 36.78 9.13
9/6/2021 9:15:00 PM 17.82 64.076 0.591 7.94 37.69 9.16
9/6/2021 9:30:00 PM 17.73 63.914 0.592 7.94 34.64 9.04
9/6/2021 9:45:00 PM 17.66 63.788 0.591 7.91 37.27 8.89
9/6/2021 10:00:00 PM 17.59 63.662 0.591 7.9 34.65 8.93
9/6/2021 10:15:00 PM 17.51 63.518 0.592 7.91 35.52 8.86
9/6/2021 10:30:00 PM 17.43 63.374 0.592 7.9 35.34 8.64
9/6/2021 10:45:00 PM 17.36 63.248 0.592 7.9 37.21 8.53
9/6/2021 11:00:00 PM 17.3 63.14 0.592 7.89 34.35 8.34
9/6/2021 11:15:00 PM 17.23 63.014 0.592 7.85 34.35 8.53
9/6/2021 11:30:00 PM 17.16 62.888 0.592 7.84 35.3 7.89
9/6/2021 11:45:00 PM 17.1 62.78 0.592 7.8 35.37 8.32
9/7/2021 12:00:00 AM 17.03 62.654 0.592 7.8 35.07 7.75
9/7/2021 12:15:00 AM 16.97 62.546 0.592 7.78 38.85 7.73
9/7/2021 12:30:00 AM 16.91 62.438 0.592 7.83 35.26 7.78
9/7/2021 12:45:00 AM 16.83 62.294 0.592 7.82 35.65 7.65
9/7/2021 1:00:00 AM 16.76 62.168 0.591 7.76 35.01 7.78
9/7/2021 1:15:00 AM 16.67 62.006 0.592 7.75 35.48 7.46
9/7/2021 1:30:00 AM 16.6 61.88 0.592 7.76 34.81 7.99
9/7/2021 1:45:00 AM 16.52 61.736 0.591 7.74 34.88 7.6
9/7/2021 2:00:00 AM 16.44 61.592 0.592 7.74 35.13 8.01
9/7/2021 2:15:00 AM 16.36 61.448 0.591 7.77 36.41 7.78
9/7/2021 2:30:00 AM 16.28 61.304 0.591 7.75 36.92 7.84
9/7/2021 2:45:00 AM 16.2 61.16 0.591 7.72 35.54 7.82
9/7/2021 3:00:00 AM 16.13 61.034 0.591 7.76 36.14 7.22
9/7/2021 3:15:00 AM 16.07 60.926 0.591 7.73 34.7 7.6
9/7/2021 3:30:00 AM 15.99 60.782 0.591 7.71 35.16 7.42
9/7/2021 3:45:00 AM 15.92 60.656 0.591 7.74 35.05 7.59
9/7/2021 4:00:00 AM 15.88 60.584 0.591 7.75 35.37 7.52
9/7/2021 4:15:00 AM 15.8 60.44 0.59 7.71 34.48 7.9
9/7/2021 4:30:00 AM 15.75 60.35 0.59 7.71 35.27 7.85
9/7/2021 4:45:00 AM 15.69 60.242 0.591 7.72 34.84 8.04
9/7/2021 5:00:00 AM 15.64 60.152 0.59 7.72 34.22 8.04
9/7/2021 5:15:00 AM 15.57 60.026 0.59 7.75 35.96 8.05
9/7/2021 5:30:00 AM 15.51 59.918 0.589 7.74 37.6 8.1
9/7/2021 5:45:00 AM 15.46 59.828 0.589 7.71 34.47 8.08
9/7/2021 6:00:00 AM 15.4 59.72 0.589 7.7 37.8 8.15
9/7/2021 6:15:00 AM 15.34 59.612 0.589 7.73 79.25 7.61
9/7/2021 6:30:00 AM 15.3 59.54 0.589 7.74 41.04 8.09
9/7/2021 6:45:00 AM 15.24 59.432 0.589 7.75 36.98 8.22
9/7/2021 7:00:00 AM 15.19 59.342 0.588 7.72 36.52 8.19
9/7/2021 7:15:00 AM 15.14 59.252 0.588 7.73 90.59 8.01
9/7/2021 7:30:00 AM 15.08 59.144 0.589 7.73 143.44 7.64
9/7/2021 7:45:00 AM 15.04 59.072 0.588 7.71 38.91 8.2
9/7/2021 8:00:00 AM 15 59 0.589 7.74 39.96 8.27
9/7/2021 8:15:00 AM 14.95 58.91 0.589 7.73 35.78 8.26
9/7/2021 8:30:00 AM 14.89 58.802 0.588 7.75 35.37 8.23
9/7/2021 8:45:00 AM 14.84 58.712 0.588 7.7 36.89 8.35
9/7/2021 9:00:00 AM 14.79 58.622 0.589 7.75 36.02 8.22
9/7/2021 9:15:00 AM 14.76 58.568 0.589 7.75 36.54 8.26
9/7/2021 9:30:00 AM 14.73 58.514 0.589 7.77 35.78 8.2
9/7/2021 9:45:00 AM 14.72 58.496 0.59 7.76 35.56 8.3
9/7/2021 10:00:00 AM 14.72 58.496 0.59 7.77 35.51 8.27
9/7/2021 10:15:00 AM 14.76 58.568 0.59 7.73 34.74 8.17
9/7/2021 10:30:00 AM 14.81 58.658 0.59 7.79 35.2 8.26
9/7/2021 10:45:00 AM 14.85 58.73 0.59 7.79 35.52 8.51
9/7/2021 11:00:00 AM 14.91 58.838 0.59 7.81 37.03 8.68
9/7/2021 11:15:00 AM 14.99 58.982 0.59 7.81 36.7 9.12
9/7/2021 11:30:00 AM 15.11 59.198 0.589 7.81 34.71 9.37
9/7/2021 11:45:00 AM 15.23 59.414 0.588 7.83 34.55 9.47
9/7/2021 12:00:00 PM 15.36 59.648 0.588 7.85 36.17 9.71
9/7/2021 12:15:00 PM 15.5 59.9 0.588 7.86 36.13 9.76
9/7/2021 12:30:00 PM 15.64 60.152 0.587 7.83 34.88 9.97
9/7/2021 12:45:00 PM 15.83 60.494 0.586 7.87 38.13 10.2
9/7/2021 1:00:00 PM 16.03 60.854 0.585 7.86 34.86 10.35
9/7/2021 1:15:00 PM 16.26 61.268 0.584 7.87 37.52 10.56
9/7/2021 1:30:00 PM 16.48 61.664 0.584 7.86 34.33 10.67
9/7/2021 1:45:00 PM 16.77 62.186 0.583 7.95 35.8 10.71
9/7/2021 2:00:00 PM 16.98 62.564 0.582 7.97 37.16 11.05
9/7/2021 2:15:00 PM 17.15 62.87 0.582 7.95 34.55 11.02
9/7/2021 2:30:00 PM 17.36 63.248 0.581 7.96 37.29 11.26
9/7/2021 2:45:00 PM 17.53 63.554 0.581 7.97 37.93 11.29
9/7/2021 3:00:00 PM 17.7 63.86 0.581 8 34.57 11.19
9/7/2021 3:15:00 PM 17.84 64.112 0.58 8.03 34.54 11.39
9/7/2021 3:30:00 PM 17.99 64.382 0.579 8.05 34.58 11.28
9/7/2021 3:45:00 PM 18.09 64.562 0.579 8.06 35.39 11.52
9/7/2021 4:00:00 PM 18.17 64.706 0.579 8.06 37.45 11.4
9/7/2021 4:15:00 PM 18.27 64.886 0.578 8.08 35.9 11.58
9/7/2021 4:30:00 PM 18.36 65.048 0.579 8.08 35.19 11.59
9/7/2021 4:45:00 PM 18.46 65.228 0.578 8.08 34.83 11.16
9/7/2021 5:00:00 PM 18.53 65.354 0.579 8.05 37.57 10.87
9/7/2021 5:15:00 PM 18.61 65.498 0.578 8.08 35.01 10.92
9/7/2021 5:30:00 PM 18.66 65.588 0.578 8.09 38.13 11.25
9/7/2021 5:45:00 PM 18.69 65.642 0.579 8.09 38.84 10.88
9/7/2021 6:00:00 PM 18.71 65.67799 0.579 8.08 35.56 10.86
9/7/2021 6:15:00 PM 18.74 65.732 0.578 8.08 35.69 10.63
9/7/2021 6:30:00 PM 18.73 65.714 0.579 8.07 34.61 10.73
9/7/2021 6:45:00 PM 18.7 65.66 0.58 8.06 35.32 10.28
9/7/2021 7:00:00 PM 18.66 65.588 0.58 8.03 34.63 10.22
9/7/2021 7:15:00 PM 18.61 65.498 0.581 8.04 34.83 10.24
9/7/2021 7:30:00 PM 18.56 65.408 0.582 8.01 35.2 9.88
9/7/2021 7:45:00 PM 18.5 65.3 0.582 8.01 34.94 9.36
9/7/2021 8:00:00 PM 18.45 65.21 0.582 8.01 35 9.4
9/7/2021 8:15:00 PM 18.38 65.084 0.583 7.99 34.43 9.63
9/7/2021 8:30:00 PM 18.32 64.976 0.583 7.96 34.61 8.9
9/7/2021 8:45:00 PM 18.25 64.85 0.584 7.98 35.34 8.94
9/7/2021 9:00:00 PM 18.19 64.742 0.585 7.94 36.43 8.9
9/7/2021 9:15:00 PM 18.13 64.634 0.586 7.95 34.62 8.56
9/7/2021 9:30:00 PM 18.06 64.508 0.587 7.92 34.49 8.38
9/7/2021 9:45:00 PM 18 64.4 0.587 7.89 34.54 8.59
9/7/2021 10:00:00 PM 17.94 64.292 0.588 7.91 34.71 8.19
9/7/2021 10:15:00 PM 17.87 64.166 0.589 7.91 40 8.38
9/7/2021 10:30:00 PM 17.81 64.058 0.59 7.89 34.84 8.26
9/7/2021 10:45:00 PM 17.75 63.95 0.59 7.87 39.47 7.86
9/7/2021 11:00:00 PM 17.69 63.842 0.591 7.84 35.12 7.97
9/7/2021 11:15:00 PM 17.63 63.734 0.591 7.83 36.13 7.89
9/7/2021 11:30:00 PM 17.58 63.644 0.592 7.81 34.66 8.13
9/7/2021 11:45:00 PM 17.53 63.554 0.592 7.82 39.41 8.17
9/8/2021 12:00:00 AM 17.48 63.464 0.593 7.81 36.09 7.83
9/8/2021 12:15:00 AM 17.44 63.392 0.593 7.8 35.8 8.01
9/8/2021 12:30:00 AM 17.4 63.32 0.594 7.83 39.95 7.66
9/8/2021 12:45:00 AM 17.36 63.248 0.594 7.82 35 7.49
9/8/2021 1:00:00 AM 17.32 63.176 0.595 7.78 35.02 7.31
9/8/2021 1:15:00 AM 17.28 63.104 0.595 7.78 43.19 7.3
9/8/2021 1:30:00 AM 17.24 63.032 0.595 7.79 37.32 7.21
9/8/2021 1:45:00 AM 17.2 62.96 0.595 7.76 35.69 7.39
9/8/2021 2:00:00 AM 17.16 62.888 0.596 7.76 39.09 7.26
9/8/2021 2:15:00 AM 17.12 62.816 0.596 7.78 37.5 7.1
9/8/2021 2:30:00 AM 17.08 62.744 0.597 7.77 36.86 7.17
9/8/2021 2:45:00 AM 17.05 62.69 0.598 7.74 35.05 6.97
9/8/2021 3:00:00 AM 17.01 62.618 0.598 7.75 36.59 7.09
9/8/2021 3:15:00 AM 16.96 62.528 0.598 7.77 35.54 7.32
9/8/2021 3:30:00 AM 16.92 62.456 0.598 7.75 35.78 7.1
9/8/2021 3:45:00 AM 16.89 62.402 0.598 7.76 35.63 6.91
9/8/2021 4:00:00 AM 16.84 62.312 0.598 7.76 38.66 7.01
9/8/2021 4:15:00 AM 16.8 62.24 0.598 7.74 35.19 7.14
9/8/2021 4:30:00 AM 16.77 62.186 0.598 7.74 35 6.98
9/8/2021 4:45:00 AM 16.72 62.096 0.599 7.73 35.49 7.15
9/8/2021 5:00:00 AM 16.69 62.042 0.598 7.75 36.87 7.17
9/8/2021 5:15:00 AM 16.64 61.952 0.599 7.75 35.43 6.99
9/8/2021 5:30:00 AM 16.61 61.898 0.599 7.72 35.26 6.84
9/8/2021 5:45:00 AM 16.57 61.826 0.599 7.73 34.61 6.86
9/8/2021 6:00:00 AM 16.53 61.754 0.599 7.72 40.28 6.9
9/8/2021 6:15:00 AM 16.49 61.682 0.599 7.73 39.1 7.05
9/8/2021 6:30:00 AM 16.45 61.61 0.599 7.74 35.55 7
9/8/2021 6:45:00 AM 16.42 61.556 0.599 7.7 35.14 7.06
9/8/2021 7:00:00 AM 16.38 61.484 0.599 7.74 38.21 7.1
9/8/2021 7:15:00 AM 16.34 61.412 0.6 7.73 35.85 7.32
9/8/2021 7:30:00 AM 16.31 61.358 0.6 7.73 35.67 7.04
9/8/2021 7:45:00 AM 16.29 61.322 0.6 7.73 36.76 7.11
9/8/2021 8:00:00 AM 16.29 61.322 0.6 7.73 36.45 7.34
9/8/2021 8:15:00 AM 16.28 61.304 0.6 7.75 53.16 7.44
9/8/2021 8:30:00 AM 16.27 61.286 0.6 7.74 37.91 7.6
9/8/2021 8:45:00 AM 16.27 61.286 0.6 7.75 35.37 7.28
9/8/2021 9:00:00 AM 16.26 61.268 0.6 7.74 43.91 7.5
9/8/2021 9:15:00 AM 16.27 61.286 0.6 7.74 36.92 7.54
9/8/2021 9:30:00 AM 16.28 61.304 0.6 7.75 38.59 7.53
9/8/2021 9:45:00 AM 16.31 61.358 0.6 7.76 44.01 7.77
9/8/2021 10:00:00 AM 16.33 61.394 0.6 7.79 41.12 7.87
9/8/2021 10:15:00 AM 16.38 61.484 0.601 7.79 35.58 8.01
9/8/2021 10:30:00 AM 16.4 61.52 0.601 7.79 35.36 8.21
9/8/2021 10:45:00 AM 16.44 61.592 0.6 7.8 35.98 8.36
9/8/2021 11:00:00 AM 16.47 61.646 0.601 7.78 35.38 8.54
9/8/2021 11:15:00 AM 16.55 61.79 0.601 7.82 35.8 8.65
9/8/2021 11:30:00 AM 16.63 61.934 0.601 7.84 35.05 8.85
9/8/2021 11:45:00 AM 16.7 62.06 0.601 7.84 34.54 8.97
9/8/2021 12:00:00 PM 16.75 62.15 0.601 7.85 34.28 9.08
9/8/2021 12:15:00 PM 16.82 62.276 0.601 7.89 34.39 9.31
9/8/2021 12:30:00 PM 16.85 62.33 0.601 7.9 34.27 9.38
9/8/2021 12:45:00 PM 16.88 62.384 0.602 7.91 34.37 9.29
9/8/2021 1:00:00 PM 16.9 62.42 0.602 7.91 33.66 9.46
9/8/2021 1:15:00 PM 16.97 62.546 0.603 7.93 34.23 9.48
9/8/2021 1:30:00 PM 17.01 62.618 0.603 7.94 33.57 9.77
9/8/2021 1:45:00 PM 17.01 62.618 0.603 7.92 33.51 9.77
9/8/2021 2:00:00 PM 17.01 62.618 0.604 7.94 36.32 9.86
9/8/2021 2:15:00 PM 17 62.6 0.602 7.94 36.74 9.98
9/8/2021 2:30:00 PM 17 62.6 0.602 7.92 34.19 9.86
9/8/2021 2:45:00 PM 17.01 62.618 0.591 7.93 36.98 9.6
9/8/2021 3:00:00 PM 17.21 62.978 0.559 7.93 58.82 9.89
9/8/2021 3:15:00 PM 17.11 62.798 0.577 7.93 51.29 9.59
9/8/2021 3:30:00 PM 17.1 62.78 0.583 7.97 46.92 10.02
9/8/2021 3:45:00 PM 17.09 62.762 0.585 7.96 47.04 9.53
9/8/2021 4:00:00 PM 17.1 62.78 0.584 7.94 46.52 9.49
9/8/2021 4:15:00 PM 17.13 62.834 0.579 7.95 47.53 9.4
9/8/2021 4:30:00 PM 17.17 62.906 0.578 7.95 51.56 9.53
9/8/2021 4:45:00 PM 17.19 62.942 0.579 7.95 47.7 9.24
9/8/2021 5:00:00 PM 17.2 62.96 0.58 7.95 45.8 9.29
9/8/2021 5:15:00 PM 17.22 62.996 0.58 7.93 45 9.13
9/8/2021 5:30:00 PM 17.22 62.996 0.577 7.95 46.83 8.81
9/8/2021 5:45:00 PM 17.23 63.014 0.577 7.94 46.68 8.97
9/8/2021 6:00:00 PM 17.24 63.032 0.577 7.95 46.18 9.5
9/8/2021 6:15:00 PM 17.25 63.05 0.577 7.94 46.18 9.43
9/8/2021 6:30:00 PM 17.27 63.086 0.577 7.94 43.32 9.41
9/8/2021 6:45:00 PM 17.27 63.086 0.574 7.95 42.84 9.3
9/8/2021 7:00:00 PM 17.26 63.068 0.57 7.94 45.33 9.11
9/8/2021 7:15:00 PM 17.23 63.014 0.568 7.92 49.1 9.01
9/8/2021 7:30:00 PM 17.19 62.942 0.569 7.89 44.75 8.84
9/8/2021 7:45:00 PM 17.14 62.852 0.57 7.9 44.96 8.76
9/8/2021 8:00:00 PM 17.09 62.762 0.571 7.87 43.63 8.75
9/8/2021 8:15:00 PM 17.04 62.672 0.572 7.88 42.1 8.78
9/8/2021 8:30:00 PM 17 62.6 0.573 7.85 43.29 8.69
9/8/2021 8:45:00 PM 16.96 62.528 0.574 7.84 41.47 8.7
9/8/2021 9:00:00 PM 16.93 62.474 0.574 7.85 42.02 8.66
9/8/2021 9:15:00 PM 16.9 62.42 0.573 7.84 41.77 8.5
9/8/2021 9:30:00 PM 16.87 62.366 0.571 7.8 40.78 8.53
9/8/2021 9:45:00 PM 16.84 62.312 0.568 7.82 41.79 8.55
9/8/2021 10:00:00 PM 16.83 62.294 0.562 7.84 41.74 8.54
9/8/2021 10:15:00 PM 16.84 62.312 0.553 7.84 46.9 8.45
9/8/2021 10:30:00 PM 16.85 62.33 0.544 7.83 48.72 8.42
9/8/2021 10:45:00 PM 16.84 62.312 0.538 7.82 53.98 8.34
9/8/2021 11:00:00 PM 16.81 62.258 0.531 7.8 54.18 8.35
9/8/2021 11:15:00 PM 16.81 62.258 0.515 7.8 49.89 8.32
9/8/2021 11:30:00 PM 16.85 62.33 0.492 7.77 51.12 8.4
9/8/2021 11:45:00 PM 16.94 62.492 0.469 7.75 50.62 8.38
9/9/2021 12:00:00 AM 17.02 62.636 0.453 7.74 48.04 8.33
9/9/2021 12:15:00 AM 17.07 62.726 0.446 7.73 47.72 8.29
9/9/2021 12:30:00 AM 17.09 62.762 0.446 7.72 46.31 8.22
9/9/2021 12:45:00 AM 17.08 62.744 0.447 7.71 44.92 8.25
9/9/2021 1:00:00 AM 17.1 62.78 0.44 7.68 44.49 8.12
9/9/2021 1:15:00 AM 17.15 62.87 0.424 7.68 43.6 8.16
9/9/2021 1:30:00 AM 17.25 63.05 0.403 7.65 44.61 8.11
9/9/2021 1:45:00 AM 17.35 63.23 0.385 7.64 41.87 8.07
9/9/2021 2:00:00 AM 17.44 63.392 0.372 7.64 43.55 8.05
9/9/2021 2:15:00 AM 17.5 63.5 0.366 7.63 41.64 8
9/9/2021 2:30:00 AM 17.52 63.536 0.364 7.61 43.73 8.04
9/9/2021 2:45:00 AM 17.5 63.5 0.364 7.6 40.65 8.13
9/9/2021 3:00:00 AM 17.45 63.41 0.367 7.63 40.34 8.16
9/9/2021 3:15:00 AM 17.39 63.302 0.368 7.63 40.77 8.16
9/9/2021 3:30:00 AM 17.31 63.158 0.37 7.6 40.81 8.23
9/9/2021 3:45:00 AM 17.24 63.032 0.369 7.63 41.74 8.24
9/9/2021 4:00:00 AM 17.16 62.888 0.369 7.59 41.08 8.27
9/9/2021 4:15:00 AM 17.09 62.762 0.367 7.62 43.34 8.25
9/9/2021 4:30:00 AM 17.03 62.654 0.365 7.61 41.47 8.26
9/9/2021 4:45:00 AM 16.97 62.546 0.362 7.6 42.45 8.19
9/9/2021 5:00:00 AM 16.93 62.474 0.362 7.61 41.91 8.25
9/9/2021 5:15:00 AM 16.89 62.402 0.354 7.6 43.18 8.26
9/9/2021 5:30:00 AM 16.85 62.33 0.352 7.62 42.96 8.22
9/9/2021 5:45:00 AM 16.82 62.276 0.35 7.58 44.68 8.18
9/9/2021 6:00:00 AM 16.79 62.222 0.347 7.61 44.72 8.23
9/9/2021 6:15:00 AM 16.76 62.168 0.346 7.59 44.51 8.28
9/9/2021 6:30:00 AM 16.74 62.132 0.346 7.59 45.52 8.28
9/9/2021 6:45:00 AM 16.71 62.078 0.346 7.59 46.57 8.16
9/9/2021 7:00:00 AM 16.67 62.006 0.345 7.57 47 8.22
9/9/2021 7:15:00 AM 16.64 61.952 0.346 7.59 46.71 8.24
9/9/2021 7:30:00 AM 16.6 61.88 0.346 7.56 45.81 8.25
9/9/2021 7:45:00 AM 16.58 61.844 0.348 7.59 45.97 8.23
9/9/2021 8:00:00 AM 16.55 61.79 0.349 7.58 44.84 8.26
9/9/2021 8:15:00 AM 16.53 61.754 0.35 7.6 45.81 8.24
9/9/2021 8:30:00 AM 16.52 61.736 0.351 7.58 45.78 8.36
9/9/2021 8:45:00 AM 16.52 61.736 0.353 7.59 45.43 8.37
9/9/2021 9:00:00 AM 16.52 61.736 0.355 7.58 47.96 8.16
9/9/2021 9:15:00 AM 16.52 61.736 0.357 7.62 45.37 8.15
9/9/2021 9:30:00 AM 16.54 61.772 0.359 7.64 47.19 8.45
9/9/2021 9:45:00 AM 16.57 61.826 0.366 7.61 45.92 8.71
9/9/2021 10:00:00 AM 16.59 61.862 0.365 7.61 44.85 8.58
9/9/2021 10:15:00 AM 16.61 61.898 0.367 7.66 45.11 8.73
9/9/2021 10:30:00 AM 16.63 61.934 0.369 7.66 48.81 8.95
9/9/2021 10:45:00 AM 16.66 61.988 0.371 7.67 43.95 8.99
9/9/2021 11:00:00 AM 16.71 62.078 0.372 7.68 43.6 9.13
9/9/2021 11:15:00 AM 16.78 62.204 0.374 7.7 44.25 9.01
9/9/2021 11:30:00 AM 16.88 62.384 0.376 7.72 43.75 9.29
9/9/2021 11:45:00 AM 16.97 62.546 0.378 7.73 42.94 9.44
9/9/2021 12:00:00 PM 17.07 62.726 0.38 7.75 42.52 9.62
9/9/2021 12:15:00 PM 17.13 62.834 0.382 7.74 42.62 9.71
9/9/2021 12:30:00 PM 17.19 62.942 0.384 7.78 44.25 9.8
9/9/2021 12:45:00 PM 17.26 63.068 0.386 7.8 43.21 9.87
9/9/2021 1:00:00 PM 17.36 63.248 0.388 7.83 41.53 9.98
9/9/2021 1:15:00 PM 17.5 63.5 0.389 7.84 40.75 10.08
9/9/2021 1:30:00 PM 17.57 63.626 0.391 7.85 40.75 10.25
9/9/2021 1:45:00 PM 17.65 63.77 0.393 7.85 41.16 10.38
9/9/2021 2:00:00 PM 17.82 64.076 0.395 7.91 39.74 10.27
9/9/2021 2:15:00 PM 17.97 64.346 0.396 7.95 43.79 10.47
9/9/2021 2:30:00 PM 18.08 64.544 0.398 7.95 41.04 10.83
9/9/2021 2:45:00 PM 18.23 64.814 0.4 7.95 39.3 10.68
9/9/2021 3:00:00 PM 18.3 64.94 0.402 7.99 40.57 10.66
9/9/2021 3:15:00 PM 18.44 65.192 0.404 7.98 42.35 10.75
9/9/2021 3:30:00 PM 18.53 65.354 0.406 8 38.43 10.77
9/9/2021 3:45:00 PM 18.61 65.498 0.407 8 39.5 10.93
9/9/2021 4:00:00 PM 18.68 65.624 0.409 8.04 40.07 10.89
9/9/2021 4:15:00 PM 18.78 65.804 0.411 8.06 37.94 10.66
9/9/2021 4:30:00 PM 18.8 65.84 0.413 8.05 39.17 10.82
9/9/2021 4:45:00 PM 18.86 65.948 0.414 8.05 38.94 10.87
9/9/2021 5:00:00 PM 18.89 66.002 0.416 8.04 39.93 10.52
9/9/2021 5:15:00 PM 18.94 66.092 0.418 8.03 42.42 10.57
9/9/2021 5:30:00 PM 18.91 66.038 0.42 8 40.02 10.56
9/9/2021 5:45:00 PM 18.88 65.984 0.422 8.02 39.78 10.46
9/9/2021 6:00:00 PM 18.86 65.948 0.423 8 39.96 10.26
9/9/2021 6:15:00 PM 18.83 65.894 0.425 7.95 40.91 10.33
9/9/2021 6:30:00 PM 18.79 65.82201 0.426 7.94 39.34 10.13
9/9/2021 6:45:00 PM 18.76 65.768 0.428 7.95 39.29 10.04
9/9/2021 7:00:00 PM 18.72 65.696 0.429 7.95 40.21 9.98
9/9/2021 7:15:00 PM 18.69 65.642 0.43 7.96 39.05 9.81
9/9/2021 7:30:00 PM 18.66 65.588 0.432 7.95 41.59 9.63
9/9/2021 7:45:00 PM 18.61 65.498 0.434 7.94 44.32 9.55
9/9/2021 8:00:00 PM 18.57 65.426 0.435 7.92 43.85 9.31
9/9/2021 8:15:00 PM 18.5 65.3 0.437 7.91 38.88 9.29
9/9/2021 8:30:00 PM 18.44 65.192 0.438 7.88 39.2 9.18
9/9/2021 8:45:00 PM 18.36 65.048 0.44 7.83 40.76 8.81
9/9/2021 9:00:00 PM 18.31 64.958 0.442 7.84 48.46 8.87
9/9/2021 9:15:00 PM 18.22 64.796 0.443 7.82 43.79 8.78
9/9/2021 9:30:00 PM 18.17 64.706 0.444 7.82 43.06 8.54
9/9/2021 9:45:00 PM 18.1 64.58 0.446 7.82 40.84 8.52
9/9/2021 10:00:00 PM 18.03 64.454 0.447 7.82 41.63 8.5
9/9/2021 10:15:00 PM 17.96 64.328 0.448 7.76 40.82 8.24
9/9/2021 10:30:00 PM 17.88 64.184 0.45 7.75 39.62 8.36
9/9/2021 10:45:00 PM 17.82 64.076 0.451 7.75 40.63 8.21
9/9/2021 11:00:00 PM 17.75 63.95 0.452 7.77 38.64 8.24
9/9/2021 11:15:00 PM 17.68 63.824 0.453 7.76 38.68 8.17
9/9/2021 11:30:00 PM 17.61 63.698 0.454 7.74 40.39 8.15
9/9/2021 11:45:00 PM 17.54 63.572 0.455 7.73 40.36 8.03
9/10/2021 12:00:00 AM 17.47 63.446 0.456 7.69 39.44 8.03
9/10/2021 12:15:00 AM 17.42 63.356 0.458 7.72 42.26 7.92
9/10/2021 12:30:00 AM 17.34 63.212 0.459 7.67 40.14 7.97
9/10/2021 12:45:00 AM 17.27 63.086 0.46 7.69 44.73 8.07
9/10/2021 1:00:00 AM 17.24 63.032 0.461 7.66 39.31 7.87
9/10/2021 1:15:00 AM 17.19 62.942 0.462 7.69 39.76 7.8
9/10/2021 1:30:00 AM 17.12 62.816 0.463 7.68 38.71 7.61
9/10/2021 1:45:00 AM 17.08 62.744 0.464 7.68 38.41 7.59
9/10/2021 2:00:00 AM 17.03 62.654 0.466 7.63 38.53 7.57
9/10/2021 2:15:00 AM 17 62.6 0.467 7.7 38.58 7.77
9/10/2021 2:30:00 AM 16.96 62.528 0.468 7.68 38.18 7.41
9/10/2021 2:45:00 AM 16.94 62.492 0.469 7.69 42.08 7.43
9/10/2021 3:00:00 AM 16.89 62.402 0.47 7.66 39.1 7.46
9/10/2021 3:15:00 AM 16.86 62.348 0.471 7.66 38.14 7.4
9/10/2021 3:30:00 AM 16.83 62.294 0.472 7.66 37.56 7.73
9/10/2021 3:45:00 AM 16.79 62.222 0.473 7.62 38.45 7.59
9/10/2021 4:00:00 AM 16.74 62.132 0.474 7.66 41.79 7.81
9/10/2021 4:15:00 AM 16.7 62.06 0.475 7.67 38.49 7.74
9/10/2021 4:30:00 AM 16.67 62.006 0.476 7.66 39.5 7.64
9/10/2021 4:45:00 AM 16.62 61.916 0.477 7.66 38.26 7.81
9/10/2021 5:00:00 AM 16.59 61.862 0.478 7.66 41.17 7.73
9/10/2021 5:15:00 AM 16.55 61.79 0.479 7.67 39.14 7.86
9/10/2021 5:30:00 AM 16.51 61.718 0.48 7.65 38.87 7.77
9/10/2021 5:45:00 AM 16.46 61.628 0.481 7.63 37.43 7.8
9/10/2021 6:00:00 AM 16.41 61.538 0.482 7.66 37.64 7.82
9/10/2021 6:15:00 AM 16.35 61.43 0.483 7.66 37.69 7.96
9/10/2021 6:30:00 AM 16.31 61.358 0.484 7.65 38.72 7.92
9/10/2021 6:45:00 AM 16.27 61.286 0.485 7.68 38.58 7.79
9/10/2021 7:00:00 AM 16.22 61.196 0.486 7.64 37.44 7.81
9/10/2021 7:15:00 AM 16.17 61.106 0.488 7.65 38.14 7.46
9/10/2021 7:30:00 AM 16.13 61.034 0.489 7.64 104.69 7.74
9/10/2021 7:45:00 AM 16.08 60.944 0.49 7.65 44.58 7.42
9/10/2021 8:00:00 AM 16.04 60.872 0.491 7.55 44.08 7.69
9/10/2021 8:15:00 AM 16 60.8 0.492 7.64 50.05 7.88
9/10/2021 8:30:00 AM 15.97 60.746 0.493 7.66 47.11 7.94
9/10/2021 8:45:00 AM 15.94 60.692 0.493 7.66 45.86 8.02
9/10/2021 9:00:00 AM 15.92 60.656 0.494 7.65 46.05 8.04
9/10/2021 9:15:00 AM 15.9 60.62 0.495 7.67 45.65 8.41
9/10/2021 9:30:00 AM 15.9 60.62 0.496 7.69 47.51 8.25
9/10/2021 9:45:00 AM 15.89 60.602 0.497 7.68 42.99 8.24
9/10/2021 10:00:00 AM 15.89 60.602 0.497 7.69 43.61 8.19
9/10/2021 10:15:00 AM 15.95 60.71 0.499 7.72 98.47 8.51
9/10/2021 10:30:00 AM 15.99 60.782 0.499 7.73 44.27 8.78
9/10/2021 10:45:00 AM 16.01 60.818 0.5 7.7 45.66 8.59
9/10/2021 11:00:00 AM 16 60.8 0.501 7.71 90.2 8.76
9/10/2021 11:15:00 AM 16.05 60.89 0.502 7.71 45.46 8.78
9/10/2021 11:30:00 AM 16.13 61.034 0.504 7.73 175.46 7.78
9/10/2021 11:45:00 AM 16.25 61.25 0.505 7.76 45.57 8.8
9/10/2021 12:00:00 PM 16.36 61.448 0.505 7.78 42.08 9.2
9/10/2021 12:15:00 PM 16.41 61.538 0.507 7.82 43.04 9.42
9/10/2021 12:30:00 PM 16.52 61.736 0.507 7.83 42.18 9.28
9/10/2021 12:45:00 PM 16.51 61.718 0.508 7.85 40.72 9.41
9/10/2021 1:00:00 PM 16.67 62.006 0.509 7.85 44.61 9.54
9/10/2021 1:15:00 PM 16.69 62.042 0.51 7.86 150.5 9.9
9/10/2021 1:30:00 PM 16.85 62.33 0.511 7.86 50.5 9.79
9/10/2021 1:45:00 PM 17.01 62.618 0.512 7.85 46.99 9.71
9/10/2021 2:00:00 PM 17.18 62.924 0.513 7.89 81 10.04
9/10/2021 2:15:00 PM 17.27 63.086 0.514 7.93 44.19 10.48
9/10/2021 2:30:00 PM 17.33 63.194 0.514 7.91 46.14 10.55
9/10/2021 2:45:00 PM 17.32 63.176 0.514 7.95 44.9 10.6
9/10/2021 3:00:00 PM 17.33 63.194 0.515 7.89 42.31 10.25
9/10/2021 3:15:00 PM 17.43 63.374 0.516 7.94 44.63 10.46
9/10/2021 3:30:00 PM 17.54 63.572 0.516 7.98 40.93 10.49
9/10/2021 3:45:00 PM 17.63 63.734 0.516 7.98 42.43 10.93
9/10/2021 4:00:00 PM 17.73 63.914 0.517 8.02 46.62 10.83
9/10/2021 4:15:00 PM 17.82 64.076 0.517 8.01 38.53 10.68
9/10/2021 4:30:00 PM 17.87 64.166 0.518 8.03 42.27 10.76
9/10/2021 4:45:00 PM 17.91 64.238 0.518 8.04 39.1 10.7
9/10/2021 5:00:00 PM 17.96 64.328 0.519 8.07 38.55 10.72
9/10/2021 5:15:00 PM 18.01 64.418 0.519 8.08 36.7 10.75
9/10/2021 5:30:00 PM 18 64.4 0.52 8.09 37.26 10.79
9/10/2021 5:45:00 PM 17.98 64.364 0.52 8.05 40.99 10.54
9/10/2021 6:00:00 PM 17.95 64.31 0.521 8.05 38.85 10.94
9/10/2021 6:15:00 PM 17.92 64.256 0.522 8.05 38.9 10.84
9/10/2021 6:30:00 PM 17.9 64.22 0.523 8.04 39.1 10.47
9/10/2021 6:45:00 PM 17.87 64.166 0.523 8.03 38.87 10.45
9/10/2021 7:00:00 PM 17.84 64.112 0.525 8.02 36.87 9.98
9/10/2021 7:15:00 PM 17.79 64.022 0.525 8.05 38.48 10.2
9/10/2021 7:30:00 PM 17.72 63.896 0.526 8.04 38.83 9.91
9/10/2021 7:45:00 PM 17.65 63.77 0.527 8.01 39.73 9.89
9/10/2021 8:00:00 PM 17.59 63.662 0.528 7.98 38.63 9.86
9/10/2021 8:15:00 PM 17.51 63.518 0.529 8.01 35.7 9.63
9/10/2021 8:30:00 PM 17.41 63.338 0.53 7.95 39.3 9.51
9/10/2021 8:45:00 PM 17.32 63.176 0.532 7.99 35.69 9.15
9/10/2021 9:00:00 PM 17.24 63.032 0.532 7.98 38.76 8.94
9/10/2021 9:15:00 PM 17.16 62.888 0.533 7.93 39.28 8.85
9/10/2021 9:30:00 PM 17.08 62.744 0.534 7.95 36.47 8.91
9/10/2021 9:45:00 PM 17.01 62.618 0.535 7.95 38.42 8.79
9/10/2021 10:00:00 PM 16.95 62.51 0.536 7.9 38.85 8.52
9/10/2021 10:15:00 PM 16.86 62.348 0.537 7.94 38.91 8.6
9/10/2021 10:30:00 PM 16.78 62.204 0.538 7.93 36.23 8.29
9/10/2021 10:45:00 PM 16.71 62.078 0.539 7.91 36.77 8.41
9/10/2021 11:00:00 PM 16.64 61.952 0.54 7.89 39.69 8.26
9/10/2021 11:15:00 PM 16.57 61.826 0.541 7.85 39.26 8.23
9/10/2021 11:30:00 PM 16.51 61.718 0.541 7.88 36.77 8.45
9/10/2021 11:45:00 PM 16.42 61.556 0.542 7.86 41.79 8.38
9/11/2021 12:00:00 AM 16.35 61.43 0.543 7.84 36.62 8.21
9/11/2021 12:15:00 AM 16.29 61.322 0.543 7.85 36.91 8.42
9/11/2021 12:30:00 AM 16.23 61.214 0.543 7.81 39.15 8.07
9/11/2021 12:45:00 AM 16.16 61.088 0.544 7.83 38.26 8.04
9/11/2021 1:00:00 AM 16.1 60.98 0.544 7.79 37.02 8.29
9/11/2021 1:15:00 AM 16.03 60.854 0.544 7.8 40.23 8.21
9/11/2021 1:30:00 AM 15.94 60.692 0.545 7.81 38.33 8.03
9/11/2021 1:45:00 AM 15.87 60.566 0.545 7.8 35.97 8.06
9/11/2021 2:00:00 AM 15.81 60.458 0.546 7.77 38.03 8.05
9/11/2021 2:15:00 AM 15.74 60.332 0.546 7.78 39.65 8.27
9/11/2021 2:30:00 AM 15.67 60.206 0.546 7.78 39.13 8.15
9/11/2021 2:45:00 AM 15.6 60.08 0.547 7.76 36.08 7.85
9/11/2021 3:00:00 AM 15.53 59.954 0.547 7.77 36.2 7.89
9/11/2021 3:15:00 AM 15.46 59.828 0.547 7.75 38.03 7.59
9/11/2021 3:30:00 AM 15.42 59.756 0.548 7.7 39.24 8.28
9/11/2021 3:45:00 AM 15.37 59.666 0.548 7.72 37.3 8.26
9/11/2021 4:00:00 AM 15.29 59.522 0.548 7.72 39.48 8.28
9/11/2021 4:15:00 AM 15.25 59.45 0.549 7.74 37.48 8.25
9/11/2021 4:30:00 AM 15.19 59.342 0.549 7.73 38.36 8.26
9/11/2021 4:45:00 AM 15.13 59.234 0.549 7.74 38.01 8.13
9/11/2021 5:00:00 AM 15.07 59.126 0.55 7.71 37 8.23
9/11/2021 5:15:00 AM 14.99 58.982 0.55 7.72 37.3 8.36
9/11/2021 5:30:00 AM 14.94 58.892 0.55 7.73 37.57 8.32
9/11/2021 5:45:00 AM 14.88 58.784 0.551 7.72 37.59 8.32
9/11/2021 6:00:00 AM 14.84 58.712 0.551 7.73 38.27 8.28
9/11/2021 6:15:00 AM 14.78 58.604 0.551 7.73 38.46 8.27
9/11/2021 6:30:00 AM 14.71 58.478 0.552 7.73 38.91 8.37
9/11/2021 6:45:00 AM 14.67 58.406 0.552 7.68 38.28 8.42
9/11/2021 7:00:00 AM 14.63 58.334 0.553 7.74 37.84 8.44
9/11/2021 7:15:00 AM 14.58 58.244 0.554 7.7 38.55 8.41
9/11/2021 7:30:00 AM 14.55 58.19 0.553 7.72 34.99 8.36
9/11/2021 7:45:00 AM 14.52 58.136 0.553 7.69 187.43 8.41
9/11/2021 8:00:00 AM 14.47 58.046 0.554 7.75 43.71 8.59
9/11/2021 8:15:00 AM 14.45 58.01 0.555 7.75 40.55 8.62
9/11/2021 8:30:00 AM 14.43 57.974 0.555 7.74 44.31 8.65
9/11/2021 8:45:00 AM 14.4 57.92 0.555 7.71 175.17 8.7
9/11/2021 9:00:00 AM 14.39 57.902 0.556 7.74 37.39 8.79
9/11/2021 9:15:00 AM 14.37 57.866 0.556 7.76 38.8 8.82
9/11/2021 9:30:00 AM 14.34 57.812 0.556 7.77 37.46 8.78
9/11/2021 9:45:00 AM 14.32 57.776 0.557 7.76 39.55 8.72
9/11/2021 10:00:00 AM 14.31 57.758 0.558 7.75 37.86 8.91
9/11/2021 10:15:00 AM 14.34 57.812 0.558 7.73 56.7 9.19
9/11/2021 10:30:00 AM 14.39 57.902 0.559 7.8 40.38 9.09
9/11/2021 10:45:00 AM 14.44 57.992 0.559 7.79 38.31 9.12
9/11/2021 11:00:00 AM 14.48 58.064 0.559 7.83 39.88 9.26
9/11/2021 11:15:00 AM 14.53 58.154 0.56 7.79 45.48 9.56
9/11/2021 11:30:00 AM 14.63 58.334 0.56 7.82 37.1 9.63
9/11/2021 11:45:00 AM 14.73 58.514 0.561 7.84 39 9.67
9/11/2021 12:00:00 PM 14.88 58.784 0.561 7.88 38.65 9.94
9/11/2021 12:15:00 PM 14.99 58.982 0.562 7.85 36.16 9.84
9/11/2021 12:30:00 PM 15.16 59.288 0.562 7.87 38.64 9.91
9/11/2021 12:45:00 PM 15.35 59.63 0.562 7.93 37.33 10.39
9/11/2021 1:00:00 PM 15.53 59.954 0.562 7.93 36.81 10.57
9/11/2021 1:15:00 PM 15.72 60.296 0.563 7.96 38.17 10.72
9/11/2021 1:30:00 PM 15.94 60.692 0.563 7.96 38 10.8
9/11/2021 1:45:00 PM 16.19 61.142 0.563 7.96 38.62 10.82
9/11/2021 2:00:00 PM 16.4 61.52 0.564 8 36.24 10.98
9/11/2021 2:15:00 PM 16.52 61.736 0.565 8.02 38.33 11.48
9/11/2021 2:30:00 PM 16.68 62.024 0.564 7.99 37.58 11.47
9/11/2021 2:45:00 PM 16.92 62.456 0.564 8.02 37.45 11.54
9/11/2021 3:00:00 PM 17.03 62.654 0.564 8.05 38.34 11.79
9/11/2021 3:15:00 PM 17.13 62.834 0.565 8.07 38.05 11.78
9/11/2021 3:30:00 PM 17.26 63.068 0.565 8.1 35.28 11.47
9/11/2021 3:45:00 PM 17.37 63.266 0.566 8.08 36.5 11.61
9/11/2021 4:00:00 PM 17.46 63.428 0.565 8.09 36.04 11.83
9/11/2021 4:15:00 PM 17.55 63.59 0.566 8.11 36.89 11.91
9/11/2021 4:30:00 PM 17.65 63.77 0.567 8.1 38.07 11.8
9/11/2021 4:45:00 PM 17.76 63.968 0.567 8.14 38.45 11.7
9/11/2021 5:00:00 PM 17.82 64.076 0.567 8.12 37.77 11.69
9/11/2021 5:15:00 PM 17.92 64.256 0.567 8.16 40.91 11.88
9/11/2021 5:30:00 PM 17.97 64.346 0.567 8.15 40.87 11.54
9/11/2021 5:45:00 PM 18.02 64.436 0.568 8.14 36.76 11.57
9/11/2021 6:00:00 PM 18.04 64.472 0.568 8.12 39.26 11.58
9/11/2021 6:15:00 PM 18.06 64.508 0.568 8.14 38.71 11.37
9/11/2021 6:30:00 PM 18.07 64.526 0.569 8.13 37.84 11.34
9/11/2021 6:45:00 PM 18.06 64.508 0.569 8.14 37.43 11.35
9/11/2021 7:00:00 PM 18.04 64.472 0.569 8.1 38.92 10.97
9/11/2021 7:15:00 PM 18.01 64.418 0.569 8.1 39.12 11.03
9/11/2021 7:30:00 PM 17.98 64.364 0.57 8.09 35.72 10.75
9/11/2021 7:45:00 PM 17.94 64.292 0.57 8.05 37.5 10.65
9/11/2021 8:00:00 PM 17.89 64.202 0.571 8.04 38.41 10.45
9/11/2021 8:15:00 PM 17.84 64.112 0.572 8.06 37.86 10.38
9/11/2021 8:30:00 PM 17.78 64.004 0.572 8.01 38.12 10.16
9/11/2021 8:45:00 PM 17.72 63.896 0.572 8.05 38.13 10.01
9/11/2021 9:00:00 PM 17.64 63.752 0.574 8.02 38.73 10.01
9/11/2021 9:15:00 PM 17.57 63.626 0.574 8.03 38.07 9.83
9/11/2021 9:30:00 PM 17.52 63.536 0.575 7.99 38.59 9.71
9/11/2021 9:45:00 PM 17.45 63.41 0.575 7.99 37.32 9.64
9/11/2021 10:00:00 PM 17.4 63.32 0.576 8 39.52 9.36
9/11/2021 10:15:00 PM 17.33 63.194 0.577 7.95 38.25 9.26
9/11/2021 10:30:00 PM 17.26 63.068 0.577 7.93 38.96 9.21
9/11/2021 10:45:00 PM 17.2 62.96 0.577 7.96 38.5 9.08
9/11/2021 11:00:00 PM 17.11 62.798 0.578 7.91 36.82 9.05
9/11/2021 11:15:00 PM 17.04 62.672 0.579 7.9 37.41 8.9
9/11/2021 11:30:00 PM 16.99 62.582 0.579 7.93 39.17 8.8
9/11/2021 11:45:00 PM 16.92 62.456 0.58 7.93 36.6 8.77
9/12/2021 12:00:00 AM 16.86 62.348 0.58 7.91 37.04 8.64
9/12/2021 12:15:00 AM 16.81 62.258 0.58 7.86 37.23 8.49
9/12/2021 12:30:00 AM 16.73 62.114 0.582 7.85 35.99 8.59
9/12/2021 12:45:00 AM 16.69 62.042 0.582 7.89 39.23 8.5
9/12/2021 1:00:00 AM 16.65 61.97 0.582 7.88 36.75 8.37
9/12/2021 1:15:00 AM 16.59 61.862 0.582 7.82 38.64 8.4
9/12/2021 1:30:00 AM 16.55 61.79 0.583 7.86 38.79 8.38
9/12/2021 1:45:00 AM 16.5 61.7 0.583 7.8 39.93 8.24
9/12/2021 2:00:00 AM 16.46 61.628 0.584 7.8 37.59 8.17
9/12/2021 2:15:00 AM 16.41 61.538 0.584 7.83 38.08 8.15
9/12/2021 2:30:00 AM 16.37 61.466 0.584 7.82 37.74 8.08
9/12/2021 2:45:00 AM 16.33 61.394 0.585 7.79 42.72 8.07
9/12/2021 3:00:00 AM 16.29 61.322 0.586 7.79 36.57 8.04
9/12/2021 3:15:00 AM 16.25 61.25 0.586 7.76 39 8.04
9/12/2021 3:30:00 AM 16.21 61.178 0.586 7.79 38.71 7.99
9/12/2021 3:45:00 AM 16.18 61.124 0.587 7.79 38.29 8.01
9/12/2021 4:00:00 AM 16.14 61.052 0.587 7.78 39.51 7.98
9/12/2021 4:15:00 AM 16.11 60.998 0.587 7.76 37.7 7.98
9/12/2021 4:30:00 AM 16.09 60.962 0.587 7.77 37.59 7.95
9/12/2021 4:45:00 AM 16.05 60.89 0.587 7.77 38.77 7.91
9/12/2021 5:00:00 AM 16.02 60.836 0.588 7.73 42.58 7.93
9/12/2021 5:15:00 AM 15.99 60.782 0.588 7.75 41.1 7.88
9/12/2021 5:30:00 AM 15.97 60.746 0.588 7.76 40.32 7.98
9/12/2021 5:45:00 AM 15.94 60.692 0.588 7.72 39.19 7.93
9/12/2021 6:00:00 AM 15.92 60.656 0.588 7.75 33.3 7.82
9/12/2021 6:15:00 AM 15.88 60.584 0.588 7.72 35.93 7.88
9/12/2021 6:30:00 AM 15.85 60.53 0.588 7.72 38.71 7.89
9/12/2021 6:45:00 AM 15.82 60.476 0.589 7.73 39.54 7.84
9/12/2021 7:00:00 AM 15.79 60.422 0.588 7.68 38.86 7.78
9/12/2021 7:15:00 AM 15.77 60.386 0.588 7.74 38.18 7.49
9/12/2021 7:30:00 AM 15.74 60.332 0.589 7.73 39.3 7.66
9/12/2021 7:45:00 AM 15.72 60.296 0.589 7.68 38.77 7.71
9/12/2021 8:00:00 AM 15.7 60.26 0.589 7.7 37.19 7.96
9/12/2021 8:15:00 AM 15.68 60.224 0.589 7.72 40.28 7.92
9/12/2021 8:30:00 AM 15.66 60.188 0.589 7.71 36.7 8.1
9/12/2021 8:45:00 AM 15.66 60.188 0.59 7.74 37.15 8.05
9/12/2021 9:00:00 AM 15.66 60.188 0.589 7.76 37.6 8.07
9/12/2021 9:15:00 AM 15.68 60.224 0.589 7.74 37.27 8.51
9/12/2021 9:30:00 AM 15.69 60.242 0.589 7.77 38.17 8.31
9/12/2021 9:45:00 AM 15.7 60.26 0.589 7.8 37.31 8.64
9/12/2021 10:00:00 AM 15.72 60.296 0.589 7.8 37.62 8.68
9/12/2021 10:15:00 AM 15.75 60.35 0.589 7.8 84.92 8.72
9/12/2021 10:30:00 AM 15.78 60.404 0.589 7.8 37.67 8.75
9/12/2021 10:45:00 AM 15.82 60.476 0.589 7.81 38.38 8.91
9/12/2021 11:00:00 AM 15.9 60.62 0.59 7.79 82.46 8.98
9/12/2021 11:15:00 AM 15.99 60.782 0.59 7.84 40.46 9.36
9/12/2021 11:30:00 AM 16.08 60.944 0.589 7.88 38.25 9.83
9/12/2021 11:45:00 AM 16.08 60.944 0.59 7.85 37.06 9.37
9/12/2021 12:00:00 PM 16.14 61.052 0.589 7.82 38.39 9.77
9/12/2021 12:15:00 PM 16.23 61.214 0.589 7.87 38.16 10.19
9/12/2021 12:30:00 PM 16.29 61.322 0.589 7.93 37.96 10.33
9/12/2021 12:45:00 PM 16.32 61.376 0.59 7.92 37.74 10.33
9/12/2021 1:00:00 PM 16.36 61.448 0.59 7.89 37.54 10.27
9/12/2021 1:15:00 PM 16.48 61.664 0.59 7.97 66.39 10.67
9/12/2021 1:30:00 PM 16.52 61.736 0.59 7.98 47.25 10.55
9/12/2021 1:45:00 PM 16.62 61.916 0.59 7.96 43.92 10.84
9/12/2021 2:00:00 PM 16.63 61.934 0.591 7.96 41.37 10.38
9/12/2021 2:15:00 PM 16.7 62.06 0.591 7.95 39.26 10.79
9/12/2021 2:30:00 PM 16.85 62.33 0.591 8.03 41.44 11.26
9/12/2021 2:45:00 PM 16.97 62.546 0.591 8 38.87 11.42
9/12/2021 3:00:00 PM 17.08 62.744 0.592 8.05 39.8 11.53
9/12/2021 3:15:00 PM 17.2 62.96 0.591 8 37.46 11.57
9/12/2021 3:30:00 PM 17.33 63.194 0.592 8.05 38.92 11.61
9/12/2021 3:45:00 PM 17.48 63.464 0.59 8.07 1463.51 11.5
9/12/2021 4:00:00 PM 17.5 63.5 0.591 8.09 79.49 11.87
9/12/2021 4:15:00 PM 17.56 63.608 0.592 8.08 53.52 11.9
9/12/2021 4:30:00 PM 17.62 63.716 0.592 8.13 57.73 11.95
9/12/2021 4:45:00 PM 17.66 63.788 0.592 8.09 43.4 11.88
9/12/2021 5:00:00 PM 17.73 63.914 0.592 8.14 43.22 11.93
9/12/2021 5:15:00 PM 17.77 63.986 0.592 8.14 42.11 11.94
9/12/2021 5:30:00 PM 17.8 64.04 0.592 8.11 39.72 11.73
9/12/2021 5:45:00 PM 17.83 64.094 0.592 8.13 43.4 11.74
9/12/2021 6:00:00 PM 17.85 64.13 0.592 8.12 42.14 11.44
9/12/2021 6:15:00 PM 17.87 64.166 0.593 8.13 42.73 11.41
9/12/2021 6:30:00 PM 17.87 64.166 0.593 8.05 101.42 11.09
9/12/2021 6:45:00 PM 17.89 64.202 0.592 8.11 42.35 11.18
9/12/2021 7:00:00 PM 17.89 64.202 0.592 8.11 43.37 11
9/12/2021 7:15:00 PM 17.87 64.166 0.593 8.05 39.88 10.79
9/12/2021 7:30:00 PM 17.86 64.148 0.593 8.03 41.59 10.59
9/12/2021 7:45:00 PM 17.84 64.112 0.594 8.03 42.22 10.36
9/12/2021 8:00:00 PM 17.82 64.076 0.594 8.02 40.73 10.18
9/12/2021 8:15:00 PM 17.81 64.058 0.594 8.02 38.29 10
9/12/2021 8:30:00 PM 17.78 64.004 0.595 7.96 43.24 9.45
9/12/2021 8:45:00 PM 17.77 63.986 0.596 7.99 40.55 9.48
9/12/2021 9:00:00 PM 17.76 63.968 0.596 7.96 42.73 9.5
9/12/2021 9:15:00 PM 17.74 63.932 0.597 7.98 40.95 9.27
9/12/2021 9:30:00 PM 17.73 63.914 0.597 7.96 39.86 9.26
9/12/2021 9:45:00 PM 17.72 63.896 0.597 7.96 40.1 9.31
9/12/2021 10:00:00 PM 17.7 63.86 0.597 7.94 41.8 8.59
9/12/2021 10:15:00 PM 17.69 63.842 0.598 7.95 40.92 8.79
9/12/2021 10:30:00 PM 17.67 63.806 0.598 7.92 37.82 8.95
9/12/2021 10:45:00 PM 17.65 63.77 0.599 7.9 40.28 8.35
9/12/2021 11:00:00 PM 17.63 63.734 0.599 7.89 36.39 8.3
9/12/2021 11:15:00 PM 17.6 63.68 0.6 7.89 40.05 8.14
9/12/2021 11:30:00 PM 17.57 63.626 0.601 7.88 39.71 8.18
9/12/2021 11:45:00 PM 17.55 63.59 0.601 7.89 39.93 8.28
9/13/2021 12:00:00 AM 17.52 63.536 0.601 7.88 39.56 8.16
9/13/2021 12:15:00 AM 17.5 63.5 0.602 7.87 41.21 7.87
9/13/2021 12:30:00 AM 17.47 63.446 0.602 7.83 40.06 7.84
9/13/2021 12:45:00 AM 17.44 63.392 0.603 7.81 40.12 8.14
9/13/2021 1:00:00 AM 17.42 63.356 0.603 7.81 11.77 7.54
9/13/2021 1:15:00 AM 17.39 63.302 0.603 7.82 41.3 7.72
9/13/2021 1:30:00 AM 17.35 63.23 0.603 7.81 43.03 7.73
9/13/2021 1:45:00 AM 17.33 63.194 0.603 7.78 39.79 7.19
9/13/2021 2:00:00 AM 17.31 63.158 0.602 7.79 40.21 7.44
9/13/2021 2:15:00 AM 17.29 63.122 0.603 7.76 40.21 7.34
9/13/2021 2:30:00 AM 17.27 63.086 0.604 7.73 37.06 7.21
9/13/2021 2:45:00 AM 17.24 63.032 0.604 7.75 45.18 7.48
9/13/2021 3:00:00 AM 17.22 62.996 0.604 7.75 41.69 7.4
9/13/2021 3:15:00 AM 17.19 62.942 0.604 7.75 38.68 7.2
9/13/2021 3:30:00 AM 17.16 62.888 0.604 7.72 41.09 7.47
9/13/2021 3:45:00 AM 17.15 62.87 0.604 7.76 41.03 7.3
9/13/2021 4:00:00 AM 17.13 62.834 0.604 7.72 41.54 7.26
9/13/2021 4:15:00 AM 17.1 62.78 0.604 7.7 38.25 7.32
9/13/2021 4:30:00 AM 17.08 62.744 0.604 7.73 43.68 7.43
9/13/2021 4:45:00 AM 17.06 62.708 0.604 7.7 38.09 7.3
9/13/2021 5:00:00 AM 17.03 62.654 0.604 7.7 38.07 7.29
9/13/2021 5:15:00 AM 17.02 62.636 0.604 7.72 26.9 7.2
9/13/2021 5:30:00 AM 16.99 62.582 0.604 7.7 39.88 7.31
9/13/2021 5:45:00 AM 16.97 62.546 0.604 7.71 40.25 7.41
9/13/2021 6:00:00 AM 16.96 62.528 0.604 7.73 42.44 7.21
9/13/2021 6:15:00 AM 16.94 62.492 0.604 7.72 37.62 7.3
9/13/2021 6:30:00 AM 16.92 62.456 0.604 7.72 37.38 7.28
9/13/2021 6:45:00 AM 16.9 62.42 0.605 7.69 40.87 7.27
9/13/2021 7:00:00 AM 16.87 62.366 0.605 7.69 39.86 7.24
9/13/2021 7:15:00 AM 16.85 62.33 0.606 7.71 37.6 7.26
9/13/2021 7:30:00 AM 16.83 62.294 0.605 7.7 38.34 7.48
9/13/2021 7:45:00 AM 16.81 62.258 0.605 7.69 41.04 7.47
9/13/2021 8:00:00 AM 16.78 62.204 0.604 7.69 64.25 7.32
9/13/2021 8:15:00 AM 16.76 62.168 0.604 7.69 38.95 7.53
9/13/2021 8:30:00 AM 16.75 62.15 0.604 7.71 40.4 7.68
9/13/2021 8:45:00 AM 16.75 62.15 0.603 7.7 62.03 7.65
9/13/2021 9:00:00 AM 16.74 62.132 0.604 7.74 41.07 7.89
9/13/2021 9:15:00 AM 16.74 62.132 0.604 7.72 48.93 7.89
9/13/2021 9:30:00 AM 16.74 62.132 0.604 7.7 39.23 7.91
9/13/2021 9:45:00 AM 16.75 62.15 0.604 7.71 39.55 8
9/13/2021 10:00:00 AM 16.75 62.15 0.604 7.72 39.83 7.9
9/13/2021 10:15:00 AM 16.74 62.132 0.604 7.76 38.68 8.15
9/13/2021 10:30:00 AM 16.74 62.132 0.604 7.73 36.4 8.27
9/13/2021 10:45:00 AM 16.76 62.168 0.605 7.78 39.72 8.39
9/13/2021 11:00:00 AM 16.77 62.186 0.604 7.78 39.36 8.25
9/13/2021 11:15:00 AM 16.78 62.204 0.604 7.77 38.86 8.37
9/13/2021 11:30:00 AM 16.82 62.276 0.605 7.81 40.21 8.81
9/13/2021 11:45:00 AM 16.89 62.402 0.605 7.83 39 8.92
9/13/2021 12:00:00 PM 16.94 62.492 0.605 7.8 39.11 9.25
9/13/2021 12:15:00 PM 17.05 62.69 0.605 7.85 39.95 9.42
9/13/2021 12:30:00 PM 17.28 63.104 0.604 7.89 46.22 9.72
9/13/2021 12:45:00 PM 17.38 63.284 0.605 7.86 40.51 9.77
9/13/2021 1:00:00 PM 17.42 63.356 0.605 7.89 43.97 10
9/13/2021 1:15:00 PM 17.47 63.446 0.605 7.87 39.43 9.91
9/13/2021 1:30:00 PM 17.63 63.734 0.604 7.91 39.16 10.22
9/13/2021 1:45:00 PM 17.82 64.076 0.604 7.89 36.36 10.66
9/13/2021 2:00:00 PM 17.85 64.13 0.603 7.89 38.4 10.25
9/13/2021 2:15:00 PM 17.9 64.22 0.604 7.91 39.37 10.66
9/13/2021 2:30:00 PM 17.93 64.274 0.604 7.91 39.04 10.52
9/13/2021 2:45:00 PM 18.03 64.454 0.604 8 38.73 10.83
9/13/2021 3:00:00 PM 18.16 64.688 0.604 8.03 41.08 10.99
9/13/2021 3:15:00 PM 18.22 64.796 0.604 8.05 39.37 11.22
9/13/2021 3:30:00 PM 18.29 64.922 0.604 8.04 38.75 11.35
9/13/2021 3:45:00 PM 18.41 65.138 0.602 8.05 37.29 11.57
9/13/2021 4:00:00 PM 18.48 65.264 0.602 8.09 37.96 11.59
9/13/2021 4:15:00 PM 18.52 65.336 0.602 8.04 36 11.52
9/13/2021 4:30:00 PM 18.57 65.426 0.603 8.01 39.05 11.24
9/13/2021 4:45:00 PM 18.66 65.588 0.602 8.09 35.42 11.7
9/13/2021 5:00:00 PM 18.69 65.642 0.602 8.06 37.36 11.37
9/13/2021 5:15:00 PM 18.74 65.732 0.602 8.07 38.51 11.45
9/13/2021 5:30:00 PM 18.81 65.858 0.601 8.09 36.28 11.57
9/13/2021 5:45:00 PM 18.82 65.876 0.601 8.11 35.8 11.53
9/13/2021 6:00:00 PM 18.82 65.876 0.601 8.13 35.42 11.27
9/13/2021 6:15:00 PM 18.82 65.876 0.601 8.07 35.59 11.22
9/13/2021 6:30:00 PM 18.81 65.858 0.6 8.07 36.99 11.33
9/13/2021 6:45:00 PM 18.8 65.84 0.6 8.07 38.16 11.11
9/13/2021 7:00:00 PM 18.79 65.82201 0.599 8.07 39.8 11.07
9/13/2021 7:15:00 PM 18.76 65.768 0.599 8.05 38.92 10.75
9/13/2021 7:30:00 PM 18.74 65.732 0.598 8.05 39.01 10.68
9/13/2021 7:45:00 PM 18.72 65.696 0.597 8.06 38.49 10.57
9/13/2021 8:00:00 PM 18.7 65.66 0.596 8.08 38.97 10.23
9/13/2021 8:15:00 PM 18.68 65.624 0.596 8.05 35.92 10.08
9/13/2021 8:30:00 PM 18.67 65.606 0.595 8.03 39.7 9.97
9/13/2021 8:45:00 PM 18.65 65.57 0.594 8.04 35.97 9.78
9/13/2021 9:00:00 PM 18.63 65.534 0.594 8.03 41.7 9.64
9/13/2021 9:15:00 PM 18.6 65.48 0.594 7.99 38.33 9.56
9/13/2021 9:30:00 PM 18.58 65.444 0.594 8 38.52 9.39
9/13/2021 9:45:00 PM 18.55 65.39 0.593 7.96 35.7 9.22
9/13/2021 10:00:00 PM 18.51 65.318 0.593 7.97 36.66 9.17
9/13/2021 10:15:00 PM 18.47 65.246 0.594 7.98 38.98 9.07
9/13/2021 10:30:00 PM 18.42 65.156 0.594 7.93 35.3 8.88
9/13/2021 10:45:00 PM 18.38 65.084 0.595 7.9 35.61 8.77
9/13/2021 11:00:00 PM 18.32 64.976 0.595 7.94 40.6 8.55
9/13/2021 11:15:00 PM 18.28 64.904 0.596 7.9 35.99 8.69
9/13/2021 11:30:00 PM 18.24 64.832 0.597 7.92 39.49 8.28
9/13/2021 11:45:00 PM 18.19 64.742 0.597 7.91 39.3 8.54
9/14/2021 12:00:00 AM 18.16 64.688 0.595 7.88 39.46 8.39
9/14/2021 12:15:00 AM 18.1 64.58 0.595 7.87 37.05 8.44
9/14/2021 12:30:00 AM 18.06 64.508 0.595 7.89 36.78 8.31
9/14/2021 12:45:00 AM 18.02 64.436 0.596 7.86 39.83 8.26
9/14/2021 1:00:00 AM 17.98 64.364 0.597 7.85 40.41 8.06
9/14/2021 1:15:00 AM 17.94 64.292 0.597 7.85 40.59 8.11
9/14/2021 1:30:00 AM 17.9 64.22 0.598 7.83 45.49 7.98
9/14/2021 1:45:00 AM 17.87 64.166 0.599 7.85 36.92 7.92
9/14/2021 2:00:00 AM 17.82 64.076 0.595 7.82 37.1 7.9
9/14/2021 2:15:00 AM 17.77 63.986 0.597 7.84 41.29 7.89
9/14/2021 2:30:00 AM 17.72 63.896 0.597 7.8 42.85 7.79
9/14/2021 2:45:00 AM 17.69 63.842 0.597 7.78 39.01 7.73
9/14/2021 3:00:00 AM 17.65 63.77 0.598 7.82 38.86 7.69
9/14/2021 3:15:00 AM 17.61 63.698 0.598 7.77 38.14 7.69
9/14/2021 3:30:00 AM 17.56 63.608 0.599 7.76 39.12 7.66
9/14/2021 3:45:00 AM 17.53 63.554 0.599 7.75 40.85 7.47
9/14/2021 4:00:00 AM 17.49 63.482 0.599 7.74 40.49 7.49
9/14/2021 4:15:00 AM 17.44 63.392 0.601 7.75 37.49 7.57
9/14/2021 4:30:00 AM 17.4 63.32 0.602 7.73 40.27 7.52
9/14/2021 4:45:00 AM 17.36 63.248 0.604 7.74 40.58 7.55
9/14/2021 5:00:00 AM 17.35 63.23 0.604 7.72 41.12 7.46
9/14/2021 5:15:00 AM 17.3 63.14 0.605 7.74 39.78 7.49
9/14/2021 5:30:00 AM 17.29 63.122 0.605 7.76 40.17 7.47
9/14/2021 5:45:00 AM 17.25 63.05 0.605 7.76 39.21 7.51
9/14/2021 6:00:00 AM 17.22 62.996 0.605 7.76 42.22 7.56
9/14/2021 6:15:00 AM 17.2 62.96 0.605 7.74 41.4 7.59
9/14/2021 6:30:00 AM 17.17 62.906 0.605 7.74 40.31 7.67
9/14/2021 6:45:00 AM 17.14 62.852 0.605 7.73 37.25 7.64
9/14/2021 7:00:00 AM 17.12 62.816 0.604 7.75 38.06 7.72
9/14/2021 7:15:00 AM 17.1 62.78 0.604 7.72 39.95 7.74
9/14/2021 7:30:00 AM 17.07 62.726 0.603 7.74 36.43 7.75
9/14/2021 7:45:00 AM 17.05 62.69 0.602 7.72 36.94 7.72
9/14/2021 8:00:00 AM 17.03 62.654 0.6 7.76 40.03 7.7
9/14/2021 8:15:00 AM 17.01 62.618 0.6 7.72 37.98 7.82
9/14/2021 8:30:00 AM 17 62.6 0.599 7.74 39.1 7.92
9/14/2021 8:45:00 AM 17 62.6 0.599 7.76 38.17 7.86
9/14/2021 9:00:00 AM 17 62.6 0.598 7.77 35.71 8.01
9/14/2021 9:15:00 AM 17 62.6 0.597 7.74 35.71 7.92
9/14/2021 9:30:00 AM 17.01 62.618 0.596 7.77 35.75 8.08
9/14/2021 9:45:00 AM 17.02 62.636 0.596 7.75 39.03 8.2
9/14/2021 10:00:00 AM 17.05 62.69 0.594 7.79 35.89 8.28
9/14/2021 10:15:00 AM 17.08 62.744 0.594 7.76 39.38 8.34
9/14/2021 10:30:00 AM 17.12 62.816 0.592 7.8 36.35 8.51
9/14/2021 10:45:00 AM 17.17 62.906 0.591 7.77 38.14 8.68
9/14/2021 11:00:00 AM 17.21 62.978 0.591 7.78 37.24 8.83
9/14/2021 11:15:00 AM 17.26 63.068 0.59 7.83 36.22 8.97
9/14/2021 11:30:00 AM 17.3 63.14 0.589 7.8 37.83 9
9/14/2021 11:45:00 AM 17.42 63.356 0.589 7.78 40.11 9.13
9/14/2021 12:00:00 PM 17.56 63.608 0.588 7.82 38 9.6
9/14/2021 12:15:00 PM 17.69 63.842 0.587 7.84 37.17 9.46
9/14/2021 12:30:00 PM 17.83 64.094 0.587 7.89 37.84 9.88
9/14/2021 12:45:00 PM 17.96 64.328 0.586 7.91 37.42 9.83
9/14/2021 1:00:00 PM 18.15 64.67 0.586 7.93 35.87 10.51
9/14/2021 1:15:00 PM 18.34 65.012 0.585 7.98 36.45 10.72
9/14/2021 1:30:00 PM 18.44 65.192 0.584 7.96 36.67 10.84
9/14/2021 1:45:00 PM 18.53 65.354 0.584 7.98 36.51 10.88
9/14/2021 2:00:00 PM 18.71 65.67799 0.583 7.99 41.82 11.12
9/14/2021 2:15:00 PM 18.82 65.876 0.583 8.01 39.75 10.76
9/14/2021 2:30:00 PM 18.91 66.038 0.582 8 40.31 11.19
9/14/2021 2:45:00 PM 19.05 66.29 0.582 8.03 36.04 11.3
9/14/2021 3:00:00 PM 19.2 66.56 0.581 8.06 39.2 11.61
9/14/2021 3:15:00 PM 19.31 66.758 0.58 8.09 36.26 11.64
9/14/2021 3:30:00 PM 19.39 66.902 0.58 8.09 36.62 11.57
9/14/2021 3:45:00 PM 19.5 67.1 0.579 8.08 38.6 11.74
9/14/2021 4:00:00 PM 19.56 67.208 0.578 8.07 36.83 11.65
9/14/2021 4:15:00 PM 19.63 67.334 0.576 8.1 37.7 11.7
9/14/2021 4:30:00 PM 19.7 67.46 0.575 8.12 36.65 11.79
9/14/2021 4:45:00 PM 19.75 67.55 0.572 8.13 35.58 11.64
9/14/2021 5:00:00 PM 19.8 67.64 0.569 8.13 35.66 11.74
9/14/2021 5:15:00 PM 19.85 67.73 0.567 8.1 37.78 11.66
9/14/2021 5:30:00 PM 19.9 67.82 0.566 8.14 36.23 11.58
9/14/2021 5:45:00 PM 19.95 67.91 0.564 8.14 36.8 11.55
9/14/2021 6:00:00 PM 20.01 68.018 0.562 8.11 38.38 11.5
9/14/2021 6:15:00 PM 20.04 68.07201 0.56 8.09 40.97 11.18
9/14/2021 6:30:00 PM 20.07 68.126 0.587 8.11 254.78 10.76
9/14/2021 6:45:00 PM 20.09 68.162 0.558 8.07 49.53 10.91
9/14/2021 7:00:00 PM 20.09 68.162 0.558 8.05 43.81 10.85
9/14/2021 7:15:00 PM 20.09 68.162 0.557 8.09 40.31 10.74
9/14/2021 7:30:00 PM 20.08 68.144 0.556 8.1 37.12 10.59
9/14/2021 7:45:00 PM 20.06 68.108 0.555 8.06 38.4 10.34
9/14/2021 8:00:00 PM 20.04 68.07201 0.556 8 38.35 10.05
9/14/2021 8:15:00 PM 20.02 68.036 0.556 7.99 37.39 9.9
9/14/2021 8:30:00 PM 19.99 67.982 0.556 8.03 38.22 9.85
9/14/2021 8:45:00 PM 19.96 67.92799 0.556 8.01 37.17 9.69
9/14/2021 9:00:00 PM 19.92 67.856 0.559 7.99 37.62 9.47
9/14/2021 9:15:00 PM 19.89 67.802 0.56 7.94 36.97 9.18
9/14/2021 9:30:00 PM 19.85 67.73 0.561 7.92 40.86 9.1
9/14/2021 9:45:00 PM 19.81 67.658 0.563 7.91 38.57 8.93
9/14/2021 10:00:00 PM 19.77 67.586 0.565 7.91 39.68 8.82
9/14/2021 10:15:00 PM 19.73 67.514 0.567 7.91 40.22 8.64
9/14/2021 10:30:00 PM 19.68 67.424 0.57 7.91 39.21 8.53
9/14/2021 10:45:00 PM 19.64 67.352 0.572 7.88 36.7 8.38
9/14/2021 11:00:00 PM 19.59 67.262 0.574 7.9 39.39 8.23
9/14/2021 11:15:00 PM 19.54 67.172 0.577 7.85 37.7 8.02
9/14/2021 11:30:00 PM 19.5 67.1 0.579 7.85 38.76 8.14
9/14/2021 11:45:00 PM 19.45 67.01 0.581 7.86 39.54 7.95
9/15/2021 12:00:00 AM 19.41 66.938 0.582 7.83 36.89 7.82
9/15/2021 12:15:00 AM 19.36 66.848 0.585 7.85 39.06 7.77
9/15/2021 12:30:00 AM 19.32 66.776 0.587 7.82 39.54 7.48
9/15/2021 12:45:00 AM 19.27 66.686 0.588 7.82 36.63 7.56
9/15/2021 1:00:00 AM 19.24 66.632 0.59 7.82 36.51 7.13
9/15/2021 1:15:00 AM 19.21 66.578 0.591 7.81 38.75 7.29
9/15/2021 1:30:00 AM 19.17 66.506 0.592 7.82 36.01 7.28
9/15/2021 1:45:00 AM 19.14 66.452 0.593 7.83 37.9 7.29
9/15/2021 2:00:00 AM 19.1 66.38 0.595 7.79 35.43 7.4
9/15/2021 2:15:00 AM 19.06 66.308 0.595 7.8 36.22 7.43
9/15/2021 2:30:00 AM 19.02 66.236 0.596 7.79 38.35 7.42
9/15/2021 2:45:00 AM 18.99 66.182 0.597 7.8 38.27 7.33
9/15/2021 3:00:00 AM 18.96 66.128 0.597 7.8 37.62 7.17
9/15/2021 3:15:00 AM 18.92 66.056 0.597 7.77 34.23 7.21
9/15/2021 3:30:00 AM 18.88 65.984 0.598 7.77 37.11 7.16
9/15/2021 3:45:00 AM 18.84 65.912 0.598 7.77 37.09 7.14
9/15/2021 4:00:00 AM 18.82 65.876 0.598 7.77 34.53 6.99
9/15/2021 4:15:00 AM 18.79 65.82201 0.598 7.76 34.95 6.97
9/15/2021 4:30:00 AM 18.75 65.75 0.598 7.74 38 7.07
9/15/2021 4:45:00 AM 18.73 65.714 0.598 7.73 36.93 6.92
9/15/2021 5:00:00 AM 18.7 65.66 0.598 7.72 34.6 6.96
9/15/2021 5:15:00 AM 18.68 65.624 0.597 7.74 35.94 6.87
9/15/2021 5:30:00 AM 18.65 65.57 0.597 7.71 35.04 6.95
9/15/2021 5:45:00 AM 18.63 65.534 0.597 7.73 37.46 6.85
9/15/2021 6:00:00 AM 18.6 65.48 0.597 7.7 35.76 6.8
9/15/2021 6:15:00 AM 18.56 65.408 0.597 7.71 34.14 6.66
9/15/2021 6:30:00 AM 18.54 65.372 0.596 7.7 35.44 6.81
9/15/2021 6:45:00 AM 18.51 65.318 0.596 7.69 37.43 6.54
9/15/2021 7:00:00 AM 18.48 65.264 0.596 7.71 34.45 6.71
9/15/2021 7:15:00 AM 18.45 65.21 0.595 7.7 36.81 6.59
9/15/2021 7:30:00 AM 18.43 65.174 0.594 7.68 35.48 6.69
9/15/2021 7:45:00 AM 18.4 65.12 0.595 7.69 38.11 6.75
9/15/2021 8:00:00 AM 18.39 65.102 0.595 7.7 37.11 6.47
9/15/2021 8:15:00 AM 18.38 65.084 0.595 7.7 34.23 6.75
9/15/2021 8:30:00 AM 18.38 65.084 0.595 7.72 35.99 6.65
9/15/2021 8:45:00 AM 18.37 65.066 0.595 7.72 36.53 6.9
9/15/2021 9:00:00 AM 18.37 65.066 0.594 7.73 37.76 7.4
9/15/2021 9:15:00 AM 18.38 65.084 0.594 7.71 36.95 7.32
9/15/2021 9:30:00 AM 18.39 65.102 0.594 7.74 36.38 7.28
9/15/2021 9:45:00 AM 18.4 65.12 0.594 7.73 34.54 7.09
9/15/2021 10:00:00 AM 18.43 65.174 0.594 7.77 36 7.6
9/15/2021 10:15:00 AM 18.46 65.228 0.594 7.77 36.33 7.76
9/15/2021 10:30:00 AM 18.51 65.318 0.594 7.8 34.92 7.94
9/15/2021 10:45:00 AM 18.57 65.426 0.594 7.78 35.68 8.12
9/15/2021 11:00:00 AM 18.63 65.534 0.594 7.83 36.23 8.36
9/15/2021 11:15:00 AM 18.63 65.534 0.594 7.82 33.07 8.63
9/15/2021 11:30:00 AM 18.63 65.534 0.594 7.82 35.95 8.41
9/15/2021 11:45:00 AM 18.62 65.516 0.594 7.83 36.13 8.5
9/15/2021 12:00:00 PM 18.62 65.516 0.594 7.84 35.65 8.53
9/15/2021 12:15:00 PM 18.6 65.48 0.594 7.83 36.8 8.56
9/15/2021 12:30:00 PM 18.6 65.48 0.594 7.82 34.28 9.01
9/15/2021 12:45:00 PM 18.62 65.516 0.594 7.87 36.17 9.08
9/15/2021 1:00:00 PM 18.64 65.552 0.594 7.87 35.71 9.23
9/15/2021 1:15:00 PM 18.65 65.57 0.594 7.88 35.84 9.4
9/15/2021 1:30:00 PM 18.67 65.606 0.594 7.91 38.7 9.45
9/15/2021 1:45:00 PM 18.71 65.67799 0.595 7.93 34.84 9.54
9/15/2021 2:00:00 PM 18.72 65.696 0.595 7.92 35.17 9.49
9/15/2021 2:15:00 PM 18.74 65.732 0.595 7.93 35.19 9.54
9/15/2021 2:30:00 PM 18.76 65.768 0.595 7.94 36.03 9.69
9/15/2021 2:45:00 PM 18.77 65.786 0.595 7.96 36.45 9.86
9/15/2021 3:00:00 PM 18.77 65.786 0.595 7.92 34.73 9.9
9/15/2021 3:15:00 PM 18.74 65.732 0.595 7.97 35.04 10
9/15/2021 3:30:00 PM 18.71 65.67799 0.593 7.97 35.87 9.81
9/15/2021 3:45:00 PM 18.67 65.606 0.593 7.97 38.24 9.9
9/15/2021 4:00:00 PM 18.64 65.552 0.593 7.95 37.37 9.96
9/15/2021 4:15:00 PM 18.62 65.516 0.594 7.98 36.28 9.96
9/15/2021 4:30:00 PM 18.61 65.498 0.594 7.96 34.13 9.96
9/15/2021 4:45:00 PM 18.6 65.48 0.593 8 36.79 9.97
9/15/2021 5:00:00 PM 18.59 65.462 0.593 7.96 37.61 9.73
9/15/2021 5:15:00 PM 18.57 65.426 0.593 7.98 36.8 9.67
9/15/2021 5:30:00 PM 18.55 65.39 0.593 7.94 37.03 9.53
9/15/2021 5:45:00 PM 18.53 65.354 0.593 7.95 37.4 9.51
9/15/2021 6:00:00 PM 18.52 65.336 0.594 7.99 36.99 9.51
9/15/2021 6:15:00 PM 18.49 65.282 0.593 7.97 37.97 9.37
9/15/2021 6:30:00 PM 18.45 65.21 0.593 7.99 37.38 9.57
9/15/2021 6:45:00 PM 18.43 65.174 0.593 7.97 36.4 9.21
9/15/2021 7:00:00 PM 18.38 65.084 0.593 7.96 36.43 9.32
9/15/2021 7:15:00 PM 18.35 65.03 0.594 7.94 36.41 9.05
9/15/2021 7:30:00 PM 18.29 64.922 0.593 7.95 36.91 9.17
9/15/2021 7:45:00 PM 18.27 64.886 0.594 7.93 37.29 8.85
9/15/2021 8:00:00 PM 18.22 64.796 0.595 7.95 37.35 8.99
9/15/2021 8:15:00 PM 18.21 64.778 0.595 7.94 36.45 8.53
9/15/2021 8:30:00 PM 18.17 64.706 0.595 7.91 35.28 8.68
9/15/2021 8:45:00 PM 18.12 64.616 0.596 7.93 36.99 8.78
9/15/2021 9:00:00 PM 18.1 64.58 0.596 7.93 35.37 8.57
9/15/2021 9:15:00 PM 18.05 64.49 0.596 7.91 35.11 8.49
9/15/2021 9:30:00 PM 18.01 64.418 0.597 7.91 34.49 8.29
9/15/2021 9:45:00 PM 17.97 64.346 0.598 7.85 37.08 8.34
9/15/2021 10:00:00 PM 17.92 64.256 0.598 7.89 34.52 8.28
9/15/2021 10:15:00 PM 17.86 64.148 0.599 7.9 36.08 8.28
9/15/2021 10:30:00 PM 17.8 64.04 0.599 7.84 34.55 8.27
9/15/2021 10:45:00 PM 17.75 63.95 0.599 7.87 36.81 8.13
9/15/2021 11:00:00 PM 17.7 63.86 0.599 7.83 36.27 8.06
9/15/2021 11:15:00 PM 17.63 63.734 0.6 7.87 35.81 8.16
9/15/2021 11:30:00 PM 17.58 63.644 0.6 7.88 35.56 8.09
9/15/2021 11:45:00 PM 17.52 63.536 0.6 7.84 33.55 8.08
9/16/2021 12:00:00 AM 17.49 63.482 0.6 7.83 36.17 7.96
9/16/2021 12:15:00 AM 17.42 63.356 0.601 7.85 35.01 8.04
9/16/2021 12:30:00 AM 17.39 63.302 0.6 7.85 36.13 7.9
9/16/2021 12:45:00 AM 17.35 63.23 0.601 7.82 35.7 7.85
9/16/2021 1:00:00 AM 17.29 63.122 0.602 7.82 34.7 7.94
9/16/2021 1:15:00 AM 17.24 63.032 0.602 7.84 39.1 7.88
9/16/2021 1:30:00 AM 17.19 62.942 0.603 7.81 36.47 7.67
9/16/2021 1:45:00 AM 17.15 62.87 0.603 7.82 33.79 7.79
9/16/2021 2:00:00 AM 17.11 62.798 0.603 7.82 34.71 7.77
9/16/2021 2:15:00 AM 17.07 62.726 0.603 7.78 35.56 7.75
9/16/2021 2:30:00 AM 17.04 62.672 0.604 7.8 38.62 7.74
9/16/2021 2:45:00 AM 17.01 62.618 0.604 7.77 35.92 7.67
9/16/2021 3:00:00 AM 16.97 62.546 0.604 7.79 36.17 7.65
9/16/2021 3:15:00 AM 16.94 62.492 0.604 7.76 35.52 7.64
9/16/2021 3:30:00 AM 16.9 62.42 0.604 7.78 35.83 7.71
9/16/2021 3:45:00 AM 16.86 62.348 0.605 7.79 34.98 7.74
9/16/2021 4:00:00 AM 16.83 62.294 0.604 7.79 35.73 7.68
9/16/2021 4:15:00 AM 16.8 62.24 0.603 7.78 35.28 7.68
9/16/2021 4:30:00 AM 16.77 62.186 0.603 7.79 35.8 7.55
9/16/2021 4:45:00 AM 16.74 62.132 0.603 7.77 36.24 7.53
9/16/2021 5:00:00 AM 16.7 62.06 0.603 7.79 34.42 7.77
9/16/2021 5:15:00 AM 16.68 62.024 0.602 7.78 35.57 7.63
9/16/2021 5:30:00 AM 16.65 61.97 0.602 7.78 35.98 7.47
9/16/2021 5:45:00 AM 16.63 61.934 0.601 7.78 34.9 7.34
9/16/2021 6:00:00 AM 16.6 61.88 0.601 7.76 34.28 7.59
9/16/2021 6:15:00 AM 16.57 61.826 0.601 7.77 35.77 7.44
9/16/2021 6:30:00 AM 16.54 61.772 0.601 7.77 35.89 7.26
9/16/2021 6:45:00 AM 16.51 61.718 0.601 7.77 34.97 7.23
9/16/2021 7:00:00 AM 16.48 61.664 0.6 7.77 33.75 7.38
9/16/2021 7:15:00 AM 16.46 61.628 0.6 7.78 36.77 7.58
9/16/2021 7:30:00 AM 16.42 61.556 0.599 7.76 36.59 7.8
9/16/2021 7:45:00 AM 16.4 61.52 0.599 7.75 36.53 7.85
9/16/2021 8:00:00 AM 16.37 61.466 0.599 7.79 35.71 7.8
9/16/2021 8:15:00 AM 16.36 61.448 0.598 7.79 35.21 7.81
9/16/2021 8:30:00 AM 16.33 61.394 0.597 7.8 37.39 8.01
9/16/2021 8:45:00 AM 16.33 61.394 0.596 7.82 36.71 8.07
9/16/2021 9:00:00 AM 16.33 61.394 0.596 7.79 36.31 8.18
9/16/2021 9:15:00 AM 16.33 61.394 0.595 7.8 39.31 8.31
9/16/2021 9:30:00 AM 16.34 61.412 0.593 7.83 41.17 8.4
9/16/2021 9:45:00 AM 16.35 61.43 0.592 7.8 38.55 8.49
9/16/2021 10:00:00 AM 16.37 61.466 0.591 7.84 37.71 8.56
9/16/2021 10:15:00 AM 16.39 61.502 0.589 7.81 36.43 8.71
9/16/2021 10:30:00 AM 16.43 61.574 0.588 7.86 38.32 8.86
9/16/2021 10:45:00 AM 16.51 61.718 0.586 7.86 60.13 9.11
9/16/2021 11:00:00 AM 16.53 61.754 0.585 7.87 85.45 9.17
9/16/2021 11:15:00 AM 16.56 61.808 0.583 7.83 57.29 9.26
9/16/2021 11:30:00 AM 16.59 61.862 0.581 7.84 41.51 9.46
9/16/2021 11:45:00 AM 16.69 62.042 0.579 7.87 40.4 9.52
9/16/2021 12:00:00 PM 16.74 62.132 0.577 7.92 37.6 9.75
9/16/2021 12:15:00 PM 16.91 62.438 0.577 7.93 39.08 9.98
9/16/2021 12:30:00 PM 17.09 62.762 0.575 7.93 37.12 10.22
9/16/2021 12:45:00 PM 17.22 62.996 0.576 7.92 36.62 10.4
9/16/2021 1:00:00 PM 17.4 63.32 0.575 8.01 36.99 10.63
9/16/2021 1:15:00 PM 17.5 63.5 0.575 7.98 38.7 10.61
9/16/2021 1:30:00 PM 17.69 63.842 0.575 8 35.05 10.79
9/16/2021 1:45:00 PM 17.84 64.112 0.576 7.99 35.61 10.82
9/16/2021 2:00:00 PM 18.01 64.418 0.577 8.06 35.73 11.17
9/16/2021 2:15:00 PM 18.18 64.724 0.577 8.06 35.27 11.28
9/16/2021 2:30:00 PM 18.3 64.94 0.578 8.1 37.38 11.43
9/16/2021 2:45:00 PM 18.41 65.138 0.579 8.05 36.85 11.37
9/16/2021 3:00:00 PM 18.54 65.372 0.58 8.06 37.51 11.43
9/16/2021 3:15:00 PM 18.61 65.498 0.58 8.12 37.66 11.63
9/16/2021 3:30:00 PM 18.65 65.57 0.581 8.08 35.37 11.48
9/16/2021 3:45:00 PM 18.69 65.642 0.581 8.1 34.93 11.56
9/16/2021 4:00:00 PM 18.71 65.67799 0.581 8.1 37.08 11.53
9/16/2021 4:15:00 PM 18.74 65.732 0.581 8.1 37.41 11.37
9/16/2021 4:30:00 PM 18.79 65.82201 0.58 8.15 37.52 11.45
9/16/2021 4:45:00 PM 18.8 65.84 0.579 8.16 36.56 11.48
9/16/2021 5:00:00 PM 18.82 65.876 0.577 8.16 37.65 11.51
9/16/2021 5:15:00 PM 18.82 65.876 0.576 8.15 36.63 11.43
9/16/2021 5:30:00 PM 18.82 65.876 0.573 8.14 34.8 11.23
9/16/2021 5:45:00 PM 18.8 65.84 0.57 8.15 34.64 11.18
9/16/2021 6:00:00 PM 18.79 65.82201 0.567 8.14 34.77 11.14
9/16/2021 6:15:00 PM 18.77 65.786 0.564 8.12 35.51 11.04
9/16/2021 6:30:00 PM 18.76 65.768 0.561 8.13 35.06 11.01
9/16/2021 6:45:00 PM 18.74 65.732 0.558 8.1 36.91 10.82
9/16/2021 7:00:00 PM 18.72 65.696 0.555 8.05 36.14 10.48
9/16/2021 7:15:00 PM 18.71 65.67799 0.553 8.05 35.18 10.37
9/16/2021 7:30:00 PM 18.7 65.66 0.55 8.04 34.87 10.15
9/16/2021 7:45:00 PM 18.7 65.66 0.548 8 33.82 10.08
9/16/2021 8:00:00 PM 18.71 65.67799 0.546 8.03 37.11 9.97
9/16/2021 8:15:00 PM 18.71 65.67799 0.545 8.02 37.32 9.86
9/16/2021 8:30:00 PM 18.71 65.67799 0.544 7.99 34.47 9.74
9/16/2021 8:45:00 PM 18.72 65.696 0.543 7.93 37.33 9.56
9/16/2021 9:00:00 PM 18.71 65.67799 0.543 7.94 35.67 9.4
9/16/2021 9:15:00 PM 18.7 65.66 0.542 7.92 36.27 9.22
9/16/2021 9:30:00 PM 18.69 65.642 0.542 7.94 35.71 8.95
9/16/2021 9:45:00 PM 18.67 65.606 0.542 7.9 37.29 8.76
9/16/2021 10:00:00 PM 18.65 65.57 0.542 7.88 34.65 8.72
9/16/2021 10:15:00 PM 18.62 65.516 0.543 7.85 37.05 8.39
9/16/2021 10:30:00 PM 18.59 65.462 0.543 7.85 35.61 8.47
9/16/2021 10:45:00 PM 18.55 65.39 0.544 7.87 36.97 8.3
9/16/2021 11:00:00 PM 18.52 65.336 0.544 7.85 37.93 8.19
9/16/2021 11:15:00 PM 18.47 65.246 0.545 7.87 36.22 8.23
9/16/2021 11:30:00 PM 18.42 65.156 0.545 7.81 36.19 8.05
9/16/2021 11:45:00 PM 18.37 65.066 0.546 7.82 35.16 7.89
9/17/2021 12:00:00 AM 18.31 64.958 0.547 7.79 38.24 7.81
9/17/2021 12:15:00 AM 18.26 64.868 0.547 7.82 37.06 8.02
9/17/2021 12:30:00 AM 18.21 64.778 0.548 7.8 36.39 7.63
9/17/2021 12:45:00 AM 18.17 64.706 0.548 7.78 35.26 7.87
9/17/2021 1:00:00 AM 18.13 64.634 0.549 7.81 34.67 7.62
9/17/2021 1:15:00 AM 18.08 64.544 0.549 7.81 34.82 7.59
9/17/2021 1:30:00 AM 18.04 64.472 0.55 7.79 33.87 7.55
9/17/2021 1:45:00 AM 18 64.4 0.55 7.8 36.01 7.37
9/17/2021 2:00:00 AM 17.93 64.274 0.551 7.74 37.15 7.49
9/17/2021 2:15:00 AM 17.88 64.184 0.551 7.73 35.53 7.47
9/17/2021 2:30:00 AM 17.84 64.112 0.551 7.78 36.04 7.4
9/17/2021 2:45:00 AM 17.79 64.022 0.552 7.75 36.56 7.37
9/17/2021 3:00:00 AM 17.74 63.932 0.552 7.76 36.82 7.52
9/17/2021 3:15:00 AM 17.69 63.842 0.553 7.75 36.19 7.37
9/17/2021 3:30:00 AM 17.65 63.77 0.554 7.7 35.89 7.37
9/17/2021 3:45:00 AM 17.62 63.716 0.553 7.68 35.97 7.26
9/17/2021 4:00:00 AM 17.57 63.626 0.554 7.7 37.21 7.42
9/17/2021 4:15:00 AM 17.53 63.554 0.554 7.68 37.13 7.36
9/17/2021 4:30:00 AM 17.5 63.5 0.554 7.7 36.18 7.39
9/17/2021 4:45:00 AM 17.47 63.446 0.555 7.74 36.87 7.27
9/17/2021 5:00:00 AM 17.44 63.392 0.555 7.73 37.65 7.29
9/17/2021 5:15:00 AM 17.41 63.338 0.555 7.72 37.62 7.22
9/17/2021 5:30:00 AM 17.38 63.284 0.555 7.72 37.99 7.25
9/17/2021 5:45:00 AM 17.34 63.212 0.555 7.73 38.5 7.33
9/17/2021 6:00:00 AM 17.32 63.176 0.556 7.72 37.64 7.24
9/17/2021 6:15:00 AM 17.3 63.14 0.556 7.68 37.94 7.13
9/17/2021 6:30:00 AM 17.27 63.086 0.556 7.69 36.63 7.31
9/17/2021 6:45:00 AM 17.23 63.014 0.557 7.67 36.88 7.25
9/17/2021 7:00:00 AM 17.21 62.978 0.557 7.68 37.61 7.26
9/17/2021 7:15:00 AM 17.19 62.942 0.558 7.7 35.57 7.19
9/17/2021 7:30:00 AM 17.16 62.888 0.558 7.67 37.6 7.03
9/17/2021 7:45:00 AM 17.15 62.87 0.558 7.71 34.65 7.27
9/17/2021 8:00:00 AM 17.13 62.834 0.558 7.67 34.54 7.21
9/17/2021 8:15:00 AM 17.12 62.816 0.559 7.68 33.87 7.48
9/17/2021 8:30:00 AM 17.11 62.798 0.559 7.71 36.72 7.33
9/17/2021 8:45:00 AM 17.1 62.78 0.559 7.66 35.27 7.41
9/17/2021 9:00:00 AM 17.09 62.762 0.559 7.67 36.72 7.55
9/17/2021 9:15:00 AM 17.09 62.762 0.56 7.69 36.55 7.55
9/17/2021 9:30:00 AM 17.1 62.78 0.561 7.71 36.34 7.41
9/17/2021 9:45:00 AM 17.1 62.78 0.561 7.69 35.44 7.71
9/17/2021 10:00:00 AM 17.12 62.816 0.562 7.74 33.63 7.62
9/17/2021 10:15:00 AM 17.16 62.888 0.562 7.71 33.05 7.84
9/17/2021 10:30:00 AM 17.2 62.96 0.563 7.74 34.03 7.86
9/17/2021 10:45:00 AM 17.25 63.05 0.563 7.75 36.99 8.23
9/17/2021 11:00:00 AM 17.29 63.122 0.564 7.79 34.95 8.51
9/17/2021 11:15:00 AM 17.31 63.158 0.565 7.73 37.31 8.43
9/17/2021 11:30:00 AM 17.36 63.248 0.564 7.76 33.89 8.67
9/17/2021 11:45:00 AM 17.46 63.428 0.565 7.77 36.67 9.2
9/17/2021 12:00:00 PM 17.56 63.608 0.566 7.79 34.09 9.24
9/17/2021 12:15:00 PM 17.64 63.752 0.566 7.79 34.59 9.37
9/17/2021 12:30:00 PM 17.73 63.914 0.567 7.86 37.88 9.72
9/17/2021 12:45:00 PM 17.76 63.968 0.567 7.82 35.34 9.68
9/17/2021 1:00:00 PM 17.81 64.058 0.567 7.89 35.83 9.8
9/17/2021 1:15:00 PM 17.84 64.112 0.568 7.87 37.25 9.96
9/17/2021 1:30:00 PM 17.91 64.238 0.568 7.86 38.06 10.21
9/17/2021 1:45:00 PM 17.96 64.328 0.569 7.88 38.16 10.2
9/17/2021 2:00:00 PM 18.08 64.544 0.569 7.92 37.43 10.46
9/17/2021 2:15:00 PM 18.19 64.742 0.57 7.95 34.64 10.45
9/17/2021 2:30:00 PM 18.28 64.904 0.57 7.95 37.72 10.47
9/17/2021 2:45:00 PM 18.39 65.102 0.571 7.97 33.99 10.88
9/17/2021 3:00:00 PM 18.42 65.156 0.571 7.96 33.31 10.66
9/17/2021 3:15:00 PM 18.53 65.354 0.571 7.99 33.71 10.75
9/17/2021 3:30:00 PM 18.6 65.48 0.572 8.03 34.87 11.08
9/17/2021 3:45:00 PM 18.71 65.67799 0.573 8.05 33.64 11.13
9/17/2021 4:00:00 PM 18.78 65.804 0.573 8.02 36.63 11.14
9/17/2021 4:15:00 PM 18.84 65.912 0.573 8.03 38.69 11.18
9/17/2021 4:30:00 PM 18.84 65.912 0.574 8 34.96 10.98
9/17/2021 4:45:00 PM 18.88 65.984 0.574 8.01 35.07 11.03
9/17/2021 5:00:00 PM 18.94 66.092 0.575 8.07 34.93 11.33
9/17/2021 5:15:00 PM 18.96 66.128 0.575 8.04 38.09 11.26
9/17/2021 5:30:00 PM 18.99 66.182 0.576 8.03 37.47 10.94
9/17/2021 5:45:00 PM 19.06 66.308 0.576 8.06 39.13 11.21
9/17/2021 6:00:00 PM 19.08 66.344 0.576 8.09 35.22 10.9
9/17/2021 6:15:00 PM 19.07 66.326 0.577 8 34.39 10.78
9/17/2021 6:30:00 PM 19.09 66.362 0.577 8.03 36.83 10.74
9/17/2021 6:45:00 PM 19.15 66.47 0.577 8.08 39.41 10.97
9/17/2021 7:00:00 PM 19.14 66.452 0.577 8.12 38.33 10.83
9/17/2021 7:15:00 PM 19.12 66.416 0.578 8.09 34.39 10.78
9/17/2021 7:30:00 PM 19.09 66.362 0.578 8.07 37.65 10.56
9/17/2021 7:45:00 PM 19.05 66.29 0.578 8.06 33.34 9.97
9/17/2021 8:00:00 PM 19.02 66.236 0.579 8.05 36.93 9.8
9/17/2021 8:15:00 PM 18.97 66.146 0.579 8.05 38.87 9.86
9/17/2021 8:30:00 PM 18.94 66.092 0.58 8.01 37.82 9.59
9/17/2021 8:45:00 PM 18.9 66.02 0.58 8.01 37.5 9.43
9/17/2021 9:00:00 PM 18.87 65.966 0.581 8.02 37.1 9.19
9/17/2021 9:15:00 PM 18.84 65.912 0.581 7.99 33.8 9.09
9/17/2021 9:30:00 PM 18.81 65.858 0.582 7.96 36.67 8.96
9/17/2021 9:45:00 PM 18.77 65.786 0.582 7.94 37.3 8.61
9/17/2021 10:00:00 PM 18.75 65.75 0.583 7.92 34.42 8.55
9/17/2021 10:15:00 PM 18.71 65.67799 0.583 7.92 37.06 8.46
9/17/2021 10:30:00 PM 18.68 65.624 0.583 7.91 36.53 8.43
9/17/2021 10:45:00 PM 18.64 65.552 0.584 7.9 35.13 8.33
9/17/2021 11:00:00 PM 18.61 65.498 0.585 7.93 35.55 8.4
9/17/2021 11:15:00 PM 18.56 65.408 0.586 7.88 35.59 8.08
9/17/2021 11:30:00 PM 18.52 65.336 0.586 7.87 36.12 7.96
9/17/2021 11:45:00 PM 18.49 65.282 0.587 7.88 36.42 7.85
9/18/2021 12:00:00 AM 18.45 65.21 0.586 7.91 21.15 7.93
9/18/2021 12:15:00 AM 18.41 65.138 0.475 7.86 31.61 7.74
9/18/2021 12:30:00 AM 18.36 65.048 0.588 7.89 37.17 7.7
9/18/2021 12:45:00 AM 18.33 64.994 0.588 7.83 35.77 7.78
9/18/2021 1:00:00 AM 18.29 64.922 0.589 7.86 35.63 7.59
9/18/2021 1:15:00 AM 18.26 64.868 0.59 7.85 35.01 7.53
9/18/2021 1:30:00 AM 18.22 64.796 0.59 7.86 33.65 7.52
9/18/2021 1:45:00 AM 18.19 64.742 0.59 7.77 35.23 7.31
9/18/2021 2:00:00 AM 18.16 64.688 0.591 7.79 37.48 7.22
9/18/2021 2:15:00 AM 18.13 64.634 0.592 7.8 35.89 7.01
9/18/2021 2:30:00 AM 18.1 64.58 0.592 7.81 33.3 7
9/18/2021 2:45:00 AM 18.07 64.526 0.592 7.76 36.49 7.35
9/18/2021 3:00:00 AM 18.04 64.472 0.594 7.8 35.53 7.09
9/18/2021 3:15:00 AM 18.01 64.418 0.594 7.79 35.42 7.08
9/18/2021 3:30:00 AM 17.98 64.364 0.594 7.79 35.53 7.2
9/18/2021 3:45:00 AM 17.96 64.328 0.595 7.73 34.63 6.79
9/18/2021 4:00:00 AM 17.92 64.256 0.595 7.76 35.73 6.86
9/18/2021 4:15:00 AM 17.89 64.202 0.595 7.75 36.62 6.91
9/18/2021 4:30:00 AM 17.85 64.13 0.596 7.77 37.3 7.34
9/18/2021 4:45:00 AM 17.8 64.04 0.596 7.76 37.35 7.27
9/18/2021 5:00:00 AM 17.77 63.986 0.596 7.74 38.65 7.1
9/18/2021 5:15:00 AM 17.74 63.932 0.597 7.74 37.8 7.2
9/18/2021 5:30:00 AM 17.7 63.86 0.597 7.72 36.94 7.3
9/18/2021 5:45:00 AM 17.66 63.788 0.598 7.72 35.09 7.18
9/18/2021 6:00:00 AM 17.63 63.734 0.597 7.73 34.29 6.7
9/18/2021 6:15:00 AM 17.59 63.662 0.598 7.7 37.08 7.27
9/18/2021 6:30:00 AM 17.56 63.608 0.598 7.71 35.72 7.15
9/18/2021 6:45:00 AM 17.52 63.536 0.598 7.71 34.6 7.16
9/18/2021 7:00:00 AM 17.5 63.5 0.598 7.73 37.13 6.77
9/18/2021 7:15:00 AM 17.48 63.464 0.598 7.72 37.39 7
9/18/2021 7:30:00 AM 17.46 63.428 0.599 7.7 35.57 7.13
9/18/2021 7:45:00 AM 17.44 63.392 0.599 7.69 35.33 7.31
9/18/2021 8:00:00 AM 17.42 63.356 0.599 7.74 36.28 7.16
9/18/2021 8:15:00 AM 17.41 63.338 0.599 7.73 35.79 7.18
9/18/2021 8:30:00 AM 17.41 63.338 0.599 7.73 34.01 7.16
9/18/2021 8:45:00 AM 17.4 63.32 0.599 7.75 35.51 7.4
9/18/2021 9:00:00 AM 17.4 63.32 0.599 7.73 37.15 7.38
9/18/2021 9:15:00 AM 17.41 63.338 0.599 7.76 33.45 7.4
9/18/2021 9:30:00 AM 17.41 63.338 0.6 7.74 33.56 7.5
9/18/2021 9:45:00 AM 17.43 63.374 0.6 7.76 35.66 7.73
9/18/2021 10:00:00 AM 17.42 63.356 0.6 7.76 36.63 7.78
9/18/2021 10:15:00 AM 17.45 63.41 0.6 7.75 33.35 8.08
9/18/2021 10:30:00 AM 17.48 63.464 0.6 7.78 32.7 7.94
9/18/2021 10:45:00 AM 17.52 63.536 0.6 7.78 36.08 8.02
9/18/2021 11:00:00 AM 17.58 63.644 0.6 7.8 105.15 8.3
9/18/2021 11:15:00 AM 17.66 63.788 0.6 7.82 49.91 8.54
9/18/2021 11:30:00 AM 17.71 63.878 0.6 7.78 39.83 8.54
9/18/2021 11:45:00 AM 17.82 64.076 0.6 7.8 39.93 8.49
9/18/2021 12:00:00 PM 17.95 64.31 0.599 7.81 37.02 9.04
9/18/2021 12:15:00 PM 17.96 64.328 0.598 7.86 51.68 9.12
9/18/2021 12:30:00 PM 18 64.4 0.599 7.87 41.54 9.39
9/18/2021 12:45:00 PM 18.06 64.508 0.599 7.87 38.12 9.56
9/18/2021 1:00:00 PM 18.11 64.598 0.598 7.85 42.05 9.46
9/18/2021 1:15:00 PM 18.11 64.598 0.6 7.89 35.77 9.55
9/18/2021 1:30:00 PM 18.13 64.634 0.599 7.89 36.12 9.67
9/18/2021 1:45:00 PM 18.16 64.688 0.599 7.91 35.4 9.81
9/18/2021 2:00:00 PM 18.26 64.868 0.599 7.92 44.07 9.85
9/18/2021 2:15:00 PM 18.43 65.174 0.599 7.94 34.31 10.29
9/18/2021 2:30:00 PM 18.59 65.462 0.599 7.96 39.59 10.45
9/18/2021 2:45:00 PM 18.73 65.714 0.599 7.98 34.79 10.72
9/18/2021 3:00:00 PM 18.83 65.894 0.599 7.99 10.55 10.69
9/18/2021 3:15:00 PM 18.85 65.93 0.599 7.97 214.15 10.68
9/18/2021 3:30:00 PM 18.94 66.092 0.6 8.04 42.69 10.93
9/18/2021 3:45:00 PM 19 66.2 0.599 8.03 83.79 10.9
9/18/2021 4:00:00 PM 19.03 66.254 0.599 8.05 40.38 10.97
9/18/2021 4:15:00 PM 19.03 66.254 0.6 8.05 42.07 10.77
9/18/2021 4:30:00 PM 19.05 66.29 0.6 8.03 39.1 10.98
9/18/2021 4:45:00 PM 19.04 66.272 0.601 8.03 38.29 10.88
9/18/2021 5:00:00 PM 19.05 66.29 0.601 7.99 58.27 10.77
9/18/2021 5:15:00 PM 19.04 66.272 0.601 8.02 37.99 10.74
9/18/2021 5:30:00 PM 19.06 66.308 0.601 8.06 38.84 10.8
9/18/2021 5:45:00 PM 19.08 66.344 0.601 8.08 40.29 10.81
9/18/2021 6:00:00 PM 19.07 66.326 0.601 8.06 37.55 10.64
9/18/2021 6:15:00 PM 19.06 66.308 0.601 8.07 36.65 10.67
9/18/2021 6:30:00 PM 19.05 66.29 0.6 8.1 37.9 10.66
9/18/2021 6:45:00 PM 19.04 66.272 0.6 8.08 37.27 10.53
9/18/2021 7:00:00 PM 19.02 66.236 0.6 8.06 37.1 10.3
9/18/2021 7:15:00 PM 18.99 66.182 0.599 8.07 85.38 10.16
9/18/2021 7:30:00 PM 18.96 66.128 0.599 8.06 39.22 10.15
9/18/2021 7:45:00 PM 18.92 66.056 0.599 8.09 36.31 10.02
9/18/2021 8:00:00 PM 18.88 65.984 0.598 8.08 38.51 9.89
9/18/2021 8:15:00 PM 18.83 65.894 0.599 8.06 36.26 9.8
9/18/2021 8:30:00 PM 18.79 65.82201 0.599 8.05 36.69 9.65
9/18/2021 8:45:00 PM 18.76 65.768 0.6 8.04 37.94 9.46
9/18/2021 9:00:00 PM 18.72 65.696 0.599 8 36.71 9.38
9/18/2021 9:15:00 PM 18.68 65.624 0.601 8.02 36.67 9.22
9/18/2021 9:30:00 PM 18.63 65.534 0.601 7.97 36.89 9.13
9/18/2021 9:45:00 PM 18.58 65.444 0.602 7.96 35.94 9.03
9/18/2021 10:00:00 PM 18.54 65.372 0.602 7.98 38.5 8.89
9/18/2021 10:15:00 PM 18.49 65.282 0.603 7.95 36.28 8.61
9/18/2021 10:30:00 PM 18.42 65.156 0.603 7.97 37.19 8.69
9/18/2021 10:45:00 PM 18.36 65.048 0.604 7.97 39.93 8.49
9/18/2021 11:00:00 PM 18.31 64.958 0.604 7.94 36.75 8.47
9/18/2021 11:15:00 PM 18.25 64.85 0.604 7.96 36.43 8.32
9/18/2021 11:30:00 PM 18.18 64.724 0.605 7.93 36.97 8.28
9/18/2021 11:45:00 PM 18.13 64.634 0.605 7.94 34.59 8.1
9/19/2021 12:00:00 AM 18.06 64.508 0.605 7.93 41.46 8
9/19/2021 12:15:00 AM 18 64.4 0.605 7.93 36.54 8.16
9/19/2021 12:30:00 AM 17.93 64.274 0.604 7.88 33.86 8.08
9/19/2021 12:45:00 AM 17.87 64.166 0.605 7.89 34.7 7.99
9/19/2021 1:00:00 AM 17.8 64.04 0.605 7.91 55.92 7.95
9/19/2021 1:15:00 AM 17.73 63.914 0.603 7.9 36.68 8.01
9/19/2021 1:30:00 AM 17.67 63.806 0.604 7.9 36.85 7.87
9/19/2021 1:45:00 AM 17.58 63.644 0.604 7.86 36.55 8.01
9/19/2021 2:00:00 AM 17.55 63.59 0.603 7.85 34 7.65
9/19/2021 2:15:00 AM 17.49 63.482 0.604 7.88 37.36 7.8
9/19/2021 2:30:00 AM 17.46 63.428 0.604 7.84 36.31 7.7
9/19/2021 2:45:00 AM 17.4 63.32 0.604 7.87 39.25 7.81
9/19/2021 3:00:00 AM 17.35 63.23 0.604 7.83 36.99 7.81
9/19/2021 3:15:00 AM 17.31 63.158 0.604 7.82 37.58 7.67
9/19/2021 3:30:00 AM 17.29 63.122 0.604 7.81 36.34 7.53
9/19/2021 3:45:00 AM 17.24 63.032 0.604 7.81 37.23 7.5
9/19/2021 4:00:00 AM 17.18 62.924 0.604 7.84 104.4 7.64
9/19/2021 4:15:00 AM 17.15 62.87 0.603 7.78 51.42 7.57
9/19/2021 4:30:00 AM 17.1 62.78 0.603 7.79 43.56 7.54
9/19/2021 4:45:00 AM 17.04 62.672 0.603 7.82 43.54 7.76
9/19/2021 5:00:00 AM 17.01 62.618 0.602 7.83 42.78 7.55
9/19/2021 5:15:00 AM 16.97 62.546 0.601 7.82 42.82 7.5
9/19/2021 5:30:00 AM 16.94 62.492 0.6 7.8 41.01 7.44
9/19/2021 5:45:00 AM 16.91 62.438 0.599 7.81 41.98 7.56
9/19/2021 6:00:00 AM 16.88 62.384 0.598 7.81 41.1 7.49
9/19/2021 6:15:00 AM 16.86 62.348 0.596 7.8 10.42 7.53
9/19/2021 6:30:00 AM 16.81 62.258 0.594 7.81 38.99 7.57
9/19/2021 6:45:00 AM 16.77 62.186 0.592 7.79 39.74 7.56
9/19/2021 7:00:00 AM 16.75 62.15 0.59 7.75 40.3 7.5
9/19/2021 7:15:00 AM 16.73 62.114 0.588 7.79 42.73 7.62
9/19/2021 7:30:00 AM 16.7 62.06 0.585 7.75 43.62 7.64
9/19/2021 7:45:00 AM 16.69 62.042 0.586 7.78 39.85 7.52
9/19/2021 8:00:00 AM 16.67 62.006 0.582 7.78 70.18 7.64
9/19/2021 8:15:00 AM 16.65 61.97 0.58 7.75 39.9 7.23
9/19/2021 8:30:00 AM 16.64 61.952 0.578 7.76 38.1 7.82
9/19/2021 8:45:00 AM 16.64 61.952 0.577 7.8 127.12 7.92
9/19/2021 9:00:00 AM 16.64 61.952 0.576 7.77 38.62 7.98
9/19/2021 9:15:00 AM 16.6 61.88 0.575 7.78 40.06 8.11
9/19/2021 9:30:00 AM 16.58 61.844 0.574 7.75 39.62 8.12
9/19/2021 9:45:00 AM 16.55 61.79 0.574 7.77 37.57 8.08
9/19/2021 10:00:00 AM 16.55 61.79 0.574 7.74 36.47 8.13
9/19/2021 10:15:00 AM 16.58 61.844 0.575 7.8 38.82 8.4
9/19/2021 10:30:00 AM 16.62 61.916 0.575 7.83 37.09 8.47
9/19/2021 10:45:00 AM 16.65 61.97 0.575 7.82 38.57 8.53
9/19/2021 11:00:00 AM 16.69 62.042 0.575 7.82 38.81 8.74
9/19/2021 11:15:00 AM 16.76 62.168 0.576 7.8 38.07 8.7
9/19/2021 11:30:00 AM 16.83 62.294 0.576 7.83 36.9 8.95
9/19/2021 11:45:00 AM 16.94 62.492 0.577 7.88 37.49 9.14
9/19/2021 12:00:00 PM 17.02 62.636 0.577 7.85 37.72 9.22
9/19/2021 12:15:00 PM 17.15 62.87 0.577 7.89 37.49 9.62
9/19/2021 12:30:00 PM 17.23 63.014 0.577 7.88 49.95 9.64
9/19/2021 12:45:00 PM 17.34 63.212 0.579 7.87 36.35 9.77
9/19/2021 1:00:00 PM 17.49 63.482 0.579 7.96 37.79 10
9/19/2021 1:15:00 PM 17.61 63.698 0.58 7.95 12.11 10.05
9/19/2021 1:30:00 PM 17.83 64.094 0.58 7.95 37.02 10.38
9/19/2021 1:45:00 PM 17.98 64.364 0.581 8 35.77 10.49
9/19/2021 2:00:00 PM 18.14 64.652 0.582 8 37.15 10.63
9/19/2021 2:15:00 PM 18.28 64.904 0.583 8.01 38.09 10.69
9/19/2021 2:30:00 PM 18.43 65.174 0.582 8.05 37.03 10.97
9/19/2021 2:45:00 PM 18.54 65.372 0.584 7.99 36.43 11.1
9/19/2021 3:00:00 PM 18.68 65.624 0.584 8.05 41.4 11.2
9/19/2021 3:15:00 PM 18.74 65.732 0.585 8.03 74.84 10.8
9/19/2021 3:30:00 PM 18.8 65.84 0.585 8.05 36.94 11.28
9/19/2021 3:45:00 PM 18.83 65.894 0.586 8.03 95.29 11.05
9/19/2021 4:00:00 PM 18.84 65.912 0.586 8.05 11.13 11.04
9/19/2021 4:15:00 PM 18.87 65.966 0.586 8.08 40.18 11.15
9/19/2021 4:30:00 PM 18.9 66.02 0.587 8.09 36.92 11.18
9/19/2021 4:45:00 PM 18.94 66.092 0.587 8.09 36.89 11.18
9/19/2021 5:00:00 PM 18.95 66.11 0.588 8.09 39.47 11.13
9/19/2021 5:15:00 PM 18.97 66.146 0.588 8.07 37.64 11.12
9/19/2021 5:30:00 PM 18.99 66.182 0.588 8.04 36.78 11
9/19/2021 5:45:00 PM 19 66.2 0.587 8.09 39.8 10.82
9/19/2021 6:00:00 PM 18.98 66.164 0.587 8.1 38.22 10.97
9/19/2021 6:15:00 PM 18.95 66.11 0.588 8.09 34.81 10.77
9/19/2021 6:30:00 PM 18.91 66.038 0.588 8.05 37.68 10.63
9/19/2021 6:45:00 PM 18.85 65.93 0.588 8.08 37.1 10.62
9/19/2021 7:00:00 PM 18.79 65.82201 0.588 8.08 36.41 10.48
9/19/2021 7:15:00 PM 18.74 65.732 0.588 8.06 35.87 10.35
9/19/2021 7:30:00 PM 18.66 65.588 0.588 8.05 35.5 10.09
9/19/2021 7:45:00 PM 18.59 65.462 0.589 8.04 36.92 10.08
9/19/2021 8:00:00 PM 18.51 65.318 0.589 8 35.67 9.95
9/19/2021 8:15:00 PM 18.44 65.192 0.589 8.03 37.44 9.74
9/19/2021 8:30:00 PM 18.36 65.048 0.59 8.01 38.6 9.63
9/19/2021 8:45:00 PM 18.29 64.922 0.59 8.01 37 9.42
9/19/2021 9:00:00 PM 18.22 64.796 0.59 8.02 37.05 9.36
9/19/2021 9:15:00 PM 18.13 64.634 0.59 7.98 488.33 9.27
9/19/2021 9:30:00 PM 18.08 64.544 0.59 7.98 39.01 9.15
9/19/2021 9:45:00 PM 18 64.4 0.591 7.98 38.37 8.92
9/19/2021 10:00:00 PM 17.93 64.274 0.591 7.97 36.91 8.91
9/19/2021 10:15:00 PM 17.87 64.166 0.591 7.95 37.85 8.74
9/19/2021 10:30:00 PM 17.79 64.022 0.59 7.95 36.88 8.72
9/19/2021 10:45:00 PM 17.7 63.86 0.591 7.95 37.66 8.58
9/19/2021 11:00:00 PM 17.63 63.734 0.591 7.95 37.56 8.66
9/19/2021 11:15:00 PM 17.55 63.59 0.591 7.92 38.06 8.58
9/19/2021 11:30:00 PM 17.45 63.41 0.592 7.94 37.29 8.6
9/19/2021 11:45:00 PM 17.37 63.266 0.479 7.89 2946.45 8.41
9/20/2021 12:00:00 AM 17.3 63.14 0.591 7.84 89.99 8.37
9/20/2021 12:15:00 AM 17.23 63.014 0.592 7.89 50.11 8.32
9/20/2021 12:30:00 AM 17.15 62.87 0.592 7.86 44.44 8.34
9/20/2021 12:45:00 AM 17.07 62.726 0.593 7.87 44.19 8.22
9/20/2021 1:00:00 AM 17 62.6 0.593 7.89 42.73 8.25
9/20/2021 1:15:00 AM 16.93 62.474 0.593 7.87 45.44 8.14
9/20/2021 1:30:00 AM 16.88 62.384 0.593 7.85 42.23 8.09
9/20/2021 1:45:00 AM 16.82 62.276 0.594 7.87 40.43 8.12
9/20/2021 2:00:00 AM 16.75 62.15 0.595 7.86 41.28 8.05
9/20/2021 2:15:00 AM 16.69 62.042 0.595 7.87 41.43 8.06
9/20/2021 2:30:00 AM 16.63 61.934 0.595 7.86 40.09 7.89
9/20/2021 2:45:00 AM 16.56 61.808 0.596 7.85 40.76 7.98
9/20/2021 3:00:00 AM 16.51 61.718 0.596 7.85 40.1 7.92
9/20/2021 3:15:00 AM 16.45 61.61 0.597 7.85 40.82 7.85
9/20/2021 3:30:00 AM 16.39 61.502 0.597 7.82 40.39 7.8
9/20/2021 3:45:00 AM 16.33 61.394 0.598 7.84 46.05 7.78
9/20/2021 4:00:00 AM 16.29 61.322 0.597 7.83 37.11 7.72
9/20/2021 4:15:00 AM 16.22 61.196 0.598 7.81 38.62 7.65
9/20/2021 4:30:00 AM 16.16 61.088 0.599 7.82 40.05 7.7
9/20/2021 4:45:00 AM 16.11 60.998 0.599 7.82 38.86 7.72
9/20/2021 5:00:00 AM 16.05 60.89 0.599 7.76 38.18 7.61
9/20/2021 5:15:00 AM 15.98 60.764 0.599 7.78 40.26 7.6
9/20/2021 5:30:00 AM 15.92 60.656 0.6 7.76 38 7.66
9/20/2021 5:45:00 AM 15.85 60.53 0.601 7.79 38.17 7.72
9/20/2021 6:00:00 AM 15.79 60.422 0.601 7.77 37.33 7.77
9/20/2021 6:15:00 AM 15.74 60.332 0.602 7.79 36.52 7.73
9/20/2021 6:30:00 AM 15.69 60.242 0.602 7.73 37.92 7.69
9/20/2021 6:45:00 AM 15.6 60.08 0.603 7.74 38.41 7.7
9/20/2021 7:00:00 AM 15.54 59.972 0.603 7.78 59.97 7.62
9/20/2021 7:15:00 AM 15.49 59.882 0.602 7.78 44.92 7.53
9/20/2021 7:30:00 AM 15.43 59.774 0.603 7.77 39.64 7.78
9/20/2021 7:45:00 AM 15.38 59.684 0.604 7.74 51.66 7.65
9/20/2021 8:00:00 AM 15.33 59.594 0.604 7.78 39.64 7.92
9/20/2021 8:15:00 AM 15.31 59.558 0.604 7.77 120.74 7.4
9/20/2021 8:30:00 AM 15.24 59.432 0.603 7.8 38.65 7.75
9/20/2021 8:45:00 AM 15.23 59.414 0.604 7.79 38.46 8.07
9/20/2021 9:00:00 AM 15.21 59.378 0.604 7.81 37.2 8.19
9/20/2021 9:15:00 AM 15.2 59.36 0.604 7.81 39.15 8.34
9/20/2021 9:30:00 AM 15.2 59.36 0.604 7.81 42.77 8.18
9/20/2021 9:45:00 AM 15.19 59.342 0.604 7.8 85.71 7.54
9/20/2021 10:00:00 AM 15.17 59.306 0.604 7.82 40.4 8.73
9/20/2021 10:15:00 AM 15.19 59.342 0.604 7.79 46.64 7.67
9/20/2021 10:30:00 AM 15.23 59.414 0.604 7.86 41.1 8.93
9/20/2021 10:45:00 AM 15.28 59.504 0.604 7.86 39.43 8.98
9/20/2021 11:00:00 AM 15.33 59.594 0.604 7.84 39.32 9.26
9/20/2021 11:15:00 AM 15.42 59.756 0.604 7.91 36.81 9.46
9/20/2021 11:30:00 AM 15.49 59.882 0.604 7.91 38.3 9.56
9/20/2021 11:45:00 AM 15.58 60.044 0.604 7.91 39.23 9.54
9/20/2021 12:00:00 PM 15.69 60.242 0.604 7.92 38.94 9.94
9/20/2021 12:15:00 PM 15.81 60.458 0.604 7.94 37.03 9.97
9/20/2021 12:30:00 PM 15.93 60.674 0.604 7.96 37.5 10.03
9/20/2021 12:45:00 PM 16.06 60.908 0.604 7.96 41.26 10.4
9/20/2021 1:00:00 PM 16.18 61.124 0.604 7.94 36.35 10.58
9/20/2021 1:15:00 PM 16.32 61.376 0.605 7.93 78.75 10.61
9/20/2021 1:30:00 PM 16.5 61.7 0.604 7.95 33.91 10.94
9/20/2021 1:45:00 PM 16.67 62.006 0.604 8.01 34.23 11.1
9/20/2021 2:00:00 PM 16.85 62.33 0.603 8.01 36.3 11.23
9/20/2021 2:15:00 PM 16.98 62.564 0.604 8.04 35.57 11.3
9/20/2021 2:30:00 PM 17.2 62.96 0.603 8.07 35.7 11.62
9/20/2021 2:45:00 PM 17.28 63.104 0.603 8.02 35.75 11.5
9/20/2021 3:00:00 PM 17.4 63.32 0.602 8.09 36.17 11.38
9/20/2021 3:15:00 PM 17.46 63.428 0.602 8.05 35.8 11.55
9/20/2021 3:30:00 PM 17.58 63.644 0.602 8.08 37.56 11.69
9/20/2021 3:45:00 PM 17.63 63.734 0.602 8.12 36.17 11.91
9/20/2021 4:00:00 PM 17.65 63.77 0.602 8.12 34.81 11.94
9/20/2021 4:15:00 PM 17.72 63.896 0.602 8.13 34.43 11.91
9/20/2021 4:30:00 PM 17.73 63.914 0.602 8.1 34.44 11.42
9/20/2021 4:45:00 PM 17.78 64.004 0.601 8.11 35.36 11.66
9/20/2021 5:00:00 PM 17.8 64.04 0.602 8.1 9.4 11.67
9/20/2021 5:15:00 PM 17.84 64.112 0.6 8.11 35.05 11.72
9/20/2021 5:30:00 PM 17.85 64.13 0.601 8.09 35.38 11.38
9/20/2021 5:45:00 PM 17.92 64.256 0.602 8.14 37.34 11.84
9/20/2021 6:00:00 PM 17.91 64.238 0.601 8.09 34.35 11.53
9/20/2021 6:15:00 PM 17.92 64.256 0.602 8.12 35.47 11.22
9/20/2021 6:30:00 PM 17.91 64.238 0.603 8.11 35.72 11.12
9/20/2021 6:45:00 PM 17.89 64.202 0.603 8.11 38.21 11.01
9/20/2021 7:00:00 PM 17.87 64.166 0.603 8.09 33.83 10.88
9/20/2021 7:15:00 PM 17.84 64.112 0.603 8.11 34.77 10.86
9/20/2021 7:30:00 PM 17.8 64.04 0.604 8.12 35.58 10.63
9/20/2021 7:45:00 PM 17.76 63.968 0.605 8.08 36 10.49
9/20/2021 8:00:00 PM 17.73 63.914 0.604 8.06 33.94 10.42
9/20/2021 8:15:00 PM 17.69 63.842 0.606 8.1 35.23 10.31
9/20/2021 8:30:00 PM 17.66 63.788 0.606 8.05 35.33 10.31
9/20/2021 8:45:00 PM 17.63 63.734 0.606 8.06 33.48 10.09
9/20/2021 9:00:00 PM 17.6 63.68 0.607 8.06 35.44 9.95
9/20/2021 9:15:00 PM 17.56 63.608 0.607 8.01 34.61 9.86
9/20/2021 9:30:00 PM 17.53 63.554 0.608 8.05 34.45 9.76
9/20/2021 9:45:00 PM 17.5 63.5 0.608 8.01 34.71 9.52
9/20/2021 10:00:00 PM 17.47 63.446 0.608 8.04 34.5 9.46
9/20/2021 10:15:00 PM 17.43 63.374 0.609 8 37.41 9.27
9/20/2021 10:30:00 PM 17.4 63.32 0.609 8.02 35.56 9.19
9/20/2021 10:45:00 PM 17.35 63.23 0.61 8 38.42 9.16
9/20/2021 11:00:00 PM 17.3 63.14 0.61 8 35.31 9.1
9/20/2021 11:15:00 PM 17.26 63.068 0.61 7.97 36.98 9
9/20/2021 11:30:00 PM 17.22 62.996 0.61 7.99 34.55 8.85
9/20/2021 11:45:00 PM 17.17 62.906 0.611 7.98 35.24 8.65
9/21/2021 12:00:00 AM 17.13 62.834 0.611 7.93 35.4 8.69
9/21/2021 12:15:00 AM 17.08 62.744 0.611 7.97 35.8 8.69
9/21/2021 12:30:00 AM 17.03 62.654 0.612 7.94 37.23 8.57
9/21/2021 12:45:00 AM 16.99 62.582 0.612 7.95 11.64 8.58
9/21/2021 1:00:00 AM 16.95 62.51 0.612 7.92 10.12 8.5
9/21/2021 1:15:00 AM 16.89 62.402 0.613 7.9 34.64 8.48
9/21/2021 1:30:00 AM 16.85 62.33 0.612 7.93 35.11 8.46
9/21/2021 1:45:00 AM 16.8 62.24 0.613 7.94 35.34 8.32
9/21/2021 2:00:00 AM 16.78 62.204 0.612 7.92 35.99 8.3
9/21/2021 2:15:00 AM 16.72 62.096 0.613 7.92 35.52 8.2
9/21/2021 2:30:00 AM 16.69 62.042 0.613 7.9 34.82 8.18
9/21/2021 2:45:00 AM 16.65 61.97 0.613 7.89 35.2 7.97
9/21/2021 3:00:00 AM 16.62 61.916 0.614 7.87 35.44 8.08
9/21/2021 3:15:00 AM 16.58 61.844 0.614 7.9 35.19 7.93
9/21/2021 3:30:00 AM 16.54 61.772 0.614 7.89 36.41 8.04
9/21/2021 3:45:00 AM 16.52 61.736 0.615 7.89 35.56 7.82
9/21/2021 4:00:00 AM 16.49 61.682 0.615 7.87 34.83 7.87
9/21/2021 4:15:00 AM 16.46 61.628 0.615 7.87 35.81 7.78
9/21/2021 4:30:00 AM 16.42 61.556 0.615 7.87 36.18 7.73
9/21/2021 4:45:00 AM 16.39 61.502 0.616 7.86 36.65 7.75
9/21/2021 5:00:00 AM 16.35 61.43 0.616 7.81 36.2 7.76
9/21/2021 5:15:00 AM 16.31 61.358 0.616 7.85 36.85 7.74
9/21/2021 5:30:00 AM 16.27 61.286 0.616 7.84 35.5 7.74
9/21/2021 5:45:00 AM 16.22 61.196 0.617 7.83 36.18 7.71
9/21/2021 6:00:00 AM 16.19 61.142 0.616 7.81 38.7 7.62
9/21/2021 6:15:00 AM 16.14 61.052 0.617 7.8 35.7 7.64
9/21/2021 6:30:00 AM 16.1 60.98 0.617 7.82 36.67 7.58
9/21/2021 6:45:00 AM 16.08 60.944 0.618 7.81 36.56 7.59
9/21/2021 7:00:00 AM 16.02 60.836 0.618 7.79 39.28 7.5
9/21/2021 7:15:00 AM 16 60.8 0.618 7.82 35.68 7.6
9/21/2021 7:30:00 AM 15.98 60.764 0.619 7.82 37.99 7.61
9/21/2021 7:45:00 AM 15.98 60.764 0.619 7.81 43.38 7.5
9/21/2021 8:00:00 AM 15.96 60.728 0.618 7.78 37.52 7.63
9/21/2021 8:15:00 AM 15.96 60.728 0.619 7.82 36.61 7.63
9/21/2021 8:30:00 AM 15.94 60.692 0.619 7.81 36.18 7.45
9/21/2021 8:45:00 AM 15.92 60.656 0.619 7.83 36.97 7.71
9/21/2021 9:00:00 AM 15.91 60.638 0.619 7.81 36.37 7.68
9/21/2021 9:15:00 AM 15.91 60.638 0.619 7.79 35.82 7.87
9/21/2021 9:30:00 AM 15.93 60.674 0.619 7.82 36.02 8.18
9/21/2021 9:45:00 AM 15.94 60.692 0.619 7.82 37.15 8.06
9/21/2021 10:00:00 AM 15.94 60.692 0.619 7.83 35.23 8.14
9/21/2021 10:15:00 AM 15.94 60.692 0.619 7.85 40.07 8.3
9/21/2021 10:30:00 AM 15.97 60.746 0.619 7.81 34.76 8.74
9/21/2021 10:45:00 AM 16.02 60.836 0.619 7.89 35.34 8.73
9/21/2021 11:00:00 AM 16.08 60.944 0.619 7.9 38.25 8.97
9/21/2021 11:15:00 AM 16.16 61.088 0.62 7.89 34.99 9.24
9/21/2021 11:30:00 AM 16.29 61.322 0.619 7.9 51.24 9.33
9/21/2021 11:45:00 AM 16.36 61.448 0.619 7.92 34.88 9.56
9/21/2021 12:00:00 PM 16.52 61.736 0.619 7.93 36.23 9.97
9/21/2021 12:15:00 PM 16.61 61.898 0.619 7.92 34.72 9.85
9/21/2021 12:30:00 PM 16.77 62.186 0.618 7.97 35.11 10.19
9/21/2021 12:45:00 PM 16.87 62.366 0.619 7.97 35.39 10.11
9/21/2021 1:00:00 PM 16.9 62.42 0.618 7.98 34.76 10.19
9/21/2021 1:15:00 PM 16.93 62.474 0.617 7.93 35.18 10.41
9/21/2021 1:30:00 PM 16.98 62.564 0.617 8.05 34.57 10.88
9/21/2021 1:45:00 PM 17.04 62.672 0.617 8.07 36.13 11.12
9/21/2021 2:00:00 PM 17.08 62.744 0.617 8.08 34.86 10.99
9/21/2021 2:15:00 PM 17.15 62.87 0.617 8.05 35.96 10.82
9/21/2021 2:30:00 PM 17.25 63.05 0.615 8.06 35.04 11.19
9/21/2021 2:45:00 PM 17.31 63.158 0.617 8.08 36.46 11.57
9/21/2021 3:00:00 PM 17.38 63.284 0.616 8.1 33.9 11.54
9/21/2021 3:15:00 PM 17.44 63.392 0.615 8.09 35.68 11.4
9/21/2021 3:30:00 PM 17.48 63.464 0.615 8.09 35.21 11.38
9/21/2021 3:45:00 PM 17.53 63.554 0.615 8.07 35.08 11.51
9/21/2021 4:00:00 PM 17.56 63.608 0.615 8.02 36.77 11.69
9/21/2021 4:15:00 PM 17.62 63.716 0.615 8.09 44.33 11.64
9/21/2021 4:30:00 PM 17.66 63.788 0.614 8.09 38.26 11.93
9/21/2021 4:45:00 PM 17.7 63.86 0.614 8.12 37.57 11.78
9/21/2021 5:00:00 PM 17.72 63.896 0.614 8.13 9.95 11.53
9/21/2021 5:15:00 PM 17.73 63.914 0.5 8.09 33.16 11.51
9/21/2021 5:30:00 PM 17.74 63.932 0.613 8.09 11.33 11.49
9/21/2021 5:45:00 PM 17.74 63.932 0.613 8.12 35.95 11.45
9/21/2021 6:00:00 PM 17.74 63.932 0.613 8.16 36.41 11.44
9/21/2021 6:15:00 PM 17.72 63.896 0.613 8.14 36.37 11.33
9/21/2021 6:30:00 PM 17.69 63.842 0.614 8.14 36.18 11.23
9/21/2021 6:45:00 PM 17.66 63.788 0.614 8.14 38.18 11.31
9/21/2021 7:00:00 PM 17.64 63.752 0.614 8.14 36.01 11.11
9/21/2021 7:15:00 PM 17.62 63.716 0.614 8.1 41.62 10.95
9/21/2021 7:30:00 PM 17.59 63.662 0.615 8.12 35.31 10.85
9/21/2021 7:45:00 PM 17.58 63.644 0.615 8.11 35.85 10.33
9/21/2021 8:00:00 PM 17.56 63.608 0.615 8.11 39.46 10.19
9/21/2021 8:15:00 PM 17.54 63.572 0.615 8.1 36.4 10.34
9/21/2021 8:30:00 PM 17.53 63.554 0.615 8.07 37.27 9.97
9/21/2021 8:45:00 PM 17.52 63.536 0.616 8.08 36.43 9.84
9/21/2021 9:00:00 PM 17.51 63.518 0.617 8.04 37.15 9.69
9/21/2021 9:15:00 PM 17.5 63.5 0.617 8.01 37.94 9.61
9/21/2021 9:30:00 PM 17.48 63.464 0.618 8 41.57 9.16
9/21/2021 9:45:00 PM 17.47 63.446 0.618 8.02 35.76 9.01
9/21/2021 10:00:00 PM 17.45 63.41 0.618 7.98 35.62 8.84
9/21/2021 10:15:00 PM 17.43 63.374 0.619 7.99 37.71 8.91
9/21/2021 10:30:00 PM 17.41 63.338 0.619 7.97 35.05 8.84
9/21/2021 10:45:00 PM 17.39 63.302 0.619 7.97 35.93 8.86
9/21/2021 11:00:00 PM 17.37 63.266 0.619 7.98 35.83 8.74
9/21/2021 11:15:00 PM 17.35 63.23 0.619 7.97 38.07 8.67
9/21/2021 11:30:00 PM 17.33 63.194 0.62 7.94 36.65 8.7
9/21/2021 11:45:00 PM 17.31 63.158 0.62 7.96 35.89 8.89
9/22/2021 12:00:00 AM 17.3 63.14 0.62 7.96 35.37 8.61
9/22/2021 12:15:00 AM 17.28 63.104 0.62 7.96 37.54 8.51
9/22/2021 12:30:00 AM 17.28 63.104 0.62 7.93 35.48 8.41
9/22/2021 12:45:00 AM 17.26 63.068 0.62 7.91 10.2 8.57
9/22/2021 1:00:00 AM 17.25 63.05 0.621 7.94 35.32 8.43
9/22/2021 1:15:00 AM 17.24 63.032 0.621 7.93 37.2 8.39
9/22/2021 1:30:00 AM 17.23 63.014 0.621 7.89 37.89 8.25
9/22/2021 1:45:00 AM 17.22 62.996 0.621 7.9 35.96 8.21
9/22/2021 2:00:00 AM 17.22 62.996 0.621 7.92 36.05 8.03
9/22/2021 2:15:00 AM 17.21 62.978 0.622 7.88 36.43 7.7
9/22/2021 2:30:00 AM 17.2 62.96 0.622 7.88 35.92 7.69
9/22/2021 2:45:00 AM 17.18 62.924 0.623 7.89 35.97 7.95
9/22/2021 3:00:00 AM 17.16 62.888 0.623 7.89 35.82 7.86
9/22/2021 3:15:00 AM 17.15 62.87 0.623 7.83 36.21 7.71
9/22/2021 3:30:00 AM 17.13 62.834 0.624 7.89 39.22 7.85
9/22/2021 3:45:00 AM 17.11 62.798 0.624 7.87 36.05 7.95
9/22/2021 4:00:00 AM 17.09 62.762 0.625 7.86 36.07 7.73
9/22/2021 4:15:00 AM 17.07 62.726 0.625 7.86 35.37 7.61
9/22/2021 4:30:00 AM 17.04 62.672 0.625 7.84 35.36 7.76
9/22/2021 4:45:00 AM 17.02 62.636 0.625 7.82 37.54 7.64
9/22/2021 5:00:00 AM 17 62.6 0.626 7.84 35.88 7.68
9/22/2021 5:15:00 AM 16.97 62.546 0.626 7.84 36.68 7.69
9/22/2021 5:30:00 AM 16.95 62.51 0.626 7.83 35.44 7.57
9/22/2021 5:45:00 AM 16.93 62.474 0.627 7.8 37.17 7.65
9/22/2021 6:00:00 AM 16.91 62.438 0.627 7.82 35.65 7.29
9/22/2021 6:15:00 AM 16.9 62.42 0.627 7.81 35.3 7.15
9/22/2021 6:30:00 AM 16.86 62.348 0.628 7.81 35.56 7.49
9/22/2021 6:45:00 AM 16.84 62.312 0.628 7.76 35.27 7.27
9/22/2021 7:00:00 AM 16.83 62.294 0.628 7.79 35.12 7.37
9/22/2021 7:15:00 AM 16.82 62.276 0.628 7.79 35.61 6.98
9/22/2021 7:30:00 AM 16.8 62.24 0.628 7.79 37.14 7.18
9/22/2021 7:45:00 AM 16.79 62.222 0.629 7.78 35.97 7.15
9/22/2021 8:00:00 AM 16.78 62.204 0.629 7.79 42.25 7.29
9/22/2021 8:15:00 AM 16.77 62.186 0.629 7.8 39.58 7.38
9/22/2021 8:30:00 AM 16.77 62.186 0.629 7.79 36.2 7.45
9/22/2021 8:45:00 AM 16.77 62.186 0.629 7.75 39.88 7.23
9/22/2021 9:00:00 AM 16.77 62.186 0.629 7.8 38.27 7.4
9/22/2021 9:15:00 AM 16.77 62.186 0.629 7.77 36.3 7.34
9/22/2021 9:30:00 AM 16.78 62.204 0.629 7.78 37.55 7.13
9/22/2021 9:45:00 AM 16.78 62.204 0.629 7.79 38.2 7.23
9/22/2021 10:00:00 AM 16.79 62.222 0.629 7.8 39.3 7.39
9/22/2021 10:15:00 AM 16.81 62.258 0.628 7.8 40.37 7.63
9/22/2021 10:30:00 AM 16.82 62.276 0.628 7.8 39.53 7.75
9/22/2021 10:45:00 AM 16.84 62.312 0.628 7.8 41.75 7.49
9/22/2021 11:00:00 AM 16.86 62.348 0.628 7.82 41.09 7.51
9/22/2021 11:15:00 AM 16.88 62.384 0.628 7.79 39.1 7.63
9/22/2021 11:30:00 AM 16.91 62.438 0.628 7.8 37.85 7.78
9/22/2021 11:45:00 AM 16.96 62.528 0.627 7.82 40.49 7.9
9/22/2021 12:00:00 PM 17 62.6 0.627 7.8 39.32 8.12
9/22/2021 12:15:00 PM 17.03 62.654 0.627 7.85 39.98 7.98
9/22/2021 12:30:00 PM 17.08 62.744 0.626 7.86 41.98 8.55
9/22/2021 12:45:00 PM 17.13 62.834 0.626 7.86 38.92 8.71
9/22/2021 1:00:00 PM 17.2 62.96 0.626 7.88 39.05 9.03
9/22/2021 1:15:00 PM 17.27 63.086 0.625 7.92 38.63 9.23
9/22/2021 1:30:00 PM 17.33 63.194 0.625 7.89 12.17 9.24
9/22/2021 1:45:00 PM 17.38 63.284 0.625 7.93 39.14 9.38
9/22/2021 2:00:00 PM 17.44 63.392 0.624 7.93 38.03 9.66
9/22/2021 2:15:00 PM 17.45 63.41 0.624 7.89 93.77 9.47
9/22/2021 2:30:00 PM 17.48 63.464 0.623 7.94 38.16 9.55
9/22/2021 2:45:00 PM 17.51 63.518 0.623 7.96 95.34 9.72
9/22/2021 3:00:00 PM 17.53 63.554 0.622 7.97 38.81 9.36
9/22/2021 3:15:00 PM 17.57 63.626 0.623 7.98 39.83 9.95
9/22/2021 3:30:00 PM 17.59 63.662 0.623 7.98 38.14 9.54
9/22/2021 3:45:00 PM 17.6 63.68 0.623 7.98 38.65 9.47
9/22/2021 4:00:00 PM 17.61 63.698 0.623 7.96 38.59 9.33
9/22/2021 4:15:00 PM 17.61 63.698 0.622 7.89 38.52 9.13
9/22/2021 4:30:00 PM 17.63 63.734 0.622 7.98 37.7 9.46
9/22/2021 4:45:00 PM 17.65 63.77 0.622 7.93 38.3 9.28
9/22/2021 5:00:00 PM 17.67 63.806 0.622 7.97 9.75 9.33
9/22/2021 5:15:00 PM 17.67 63.806 0.622 7.96 38.89 9.23
9/22/2021 5:30:00 PM 17.68 63.824 0.622 7.96 37.15 9.16
9/22/2021 5:45:00 PM 17.68 63.824 0.621 7.94 37.86 9.17
9/22/2021 6:00:00 PM 17.68 63.824 0.621 7.94 37.06 9.27
9/22/2021 6:15:00 PM 17.68 63.824 0.621 7.94 37.55 9.13
9/22/2021 6:30:00 PM 17.67 63.806 0.621 7.93 3.08 8.8
9/22/2021 6:45:00 PM 17.66 63.788 0.621 7.98 36.63 9.15
9/22/2021 7:00:00 PM 17.65 63.77 0.621 7.96 36.93 8.93
9/22/2021 7:15:00 PM 17.64 63.752 0.622 7.98 37.39 9.16
9/22/2021 7:30:00 PM 17.63 63.734 0.622 7.94 36.74 8.8
9/22/2021 7:45:00 PM 17.62 63.716 0.622 7.94 36.54 8.95
9/22/2021 8:00:00 PM 17.6 63.68 0.622 7.94 7.99 8.8
9/22/2021 8:15:00 PM 17.59 63.662 0.622 7.95 36.04 8.83
9/22/2021 8:30:00 PM 17.58 63.644 0.623 7.96 36.8 8.86
9/22/2021 8:45:00 PM 17.57 63.626 0.622 7.91 38.16 8.86
9/22/2021 9:00:00 PM 17.57 63.626 0.622 7.94 37.75 8.9
9/22/2021 9:15:00 PM 17.57 63.626 0.622 7.94 37.72 8.89
9/22/2021 9:30:00 PM 17.57 63.626 0.622 7.95 37.86 8.47
9/22/2021 9:45:00 PM 17.58 63.644 0.622 7.89 27.68 8.7
9/22/2021 10:00:00 PM 17.58 63.644 0.623 7.87 37.83 7.93
9/22/2021 10:15:00 PM 17.58 63.644 0.622 7.86 36.62 8.02
9/22/2021 10:30:00 PM 17.58 63.644 0.622 7.92 37.26 7.98
9/22/2021 10:45:00 PM 17.58 63.644 0.622 7.92 36.61 8.2
9/22/2021 11:00:00 PM 17.58 63.644 0.622 7.91 36.65 8.01
9/22/2021 11:15:00 PM 17.57 63.626 0.623 7.88 37.39 7.94
9/22/2021 11:30:00 PM 17.57 63.626 0.623 7.91 36.06 8.01
9/22/2021 11:45:00 PM 17.57 63.626 0.367 7.9 35.11 8
9/23/2021 12:00:00 AM 17.57 63.626 0.624 7.91 36.95 7.76
9/23/2021 12:15:00 AM 17.57 63.626 0.624 7.89 37.56 7.54
9/23/2021 12:30:00 AM 17.58 63.644 0.624 7.9 36.62 7.59
9/23/2021 12:45:00 AM 17.58 63.644 0.625 7.88 36.54 7.39
9/23/2021 1:00:00 AM 17.58 63.644 0.625 7.85 35.7 7.38
9/23/2021 1:15:00 AM 17.58 63.644 0.626 7.85 36.23 7.2
9/23/2021 1:30:00 AM 17.58 63.644 0.626 7.86 36.76 7.22
9/23/2021 1:45:00 AM 17.57 63.626 0.627 7.89 36.82 7.12
9/23/2021 2:00:00 AM 17.57 63.626 0.627 7.89 38.11 7.28
9/23/2021 2:15:00 AM 17.56 63.608 0.628 7.89 36.23 7.37
9/23/2021 2:30:00 AM 17.55 63.59 0.628 7.86 38.25 7.26
9/23/2021 2:45:00 AM 17.54 63.572 0.629 7.82 36.58 7.13
9/23/2021 3:00:00 AM 17.53 63.554 0.629 7.86 36.96 7.37
9/23/2021 3:15:00 AM 17.52 63.536 0.629 7.85 37.25 7.13
9/23/2021 3:30:00 AM 17.5 63.5 0.63 7.86 37.65 7.39
9/23/2021 3:45:00 AM 17.47 63.446 0.63 7.85 36.51 7.07
9/23/2021 4:00:00 AM 17.46 63.428 0.63 7.8 36.44 7.2
9/23/2021 4:15:00 AM 17.44 63.392 0.632 7.85 36.75 7.21
9/23/2021 4:30:00 AM 17.41 63.338 0.632 7.84 36.98 7.16
9/23/2021 4:45:00 AM 17.39 63.302 0.632 7.83 37.94 7.12
9/23/2021 5:00:00 AM 17.38 63.284 0.632 7.82 37.19 7.1
9/23/2021 5:15:00 AM 17.36 63.248 0.633 7.83 38.36 6.95
9/23/2021 5:30:00 AM 17.35 63.23 0.632 7.82 88.4 6.98
9/23/2021 5:45:00 AM 17.33 63.194 0.632 7.82 37.14 7.07
9/23/2021 6:00:00 AM 17.32 63.176 0.633 7.78 39.6 6.96
9/23/2021 6:15:00 AM 17.3 63.14 0.632 7.79 36.24 6.81
9/23/2021 6:30:00 AM 17.29 63.122 0.631 7.8 38.02 7.17
9/23/2021 6:45:00 AM 17.27 63.086 0.631 7.81 36.22 7.13
9/23/2021 7:00:00 AM 17.26 63.068 0.63 7.8 35.47 7.26
9/23/2021 7:15:00 AM 17.24 63.032 0.629 7.8 36.75 7.18
9/23/2021 7:30:00 AM 17.22 62.996 0.627 7.79 43.77 7.22
9/23/2021 7:45:00 AM 17.21 62.978 0.625 7.79 7.41 7.4
9/23/2021 8:00:00 AM 17.18 62.924 0.624 7.81 39.27 7.38
9/23/2021 8:15:00 AM 17.16 62.888 0.621 7.78 39.98 7.24
9/23/2021 8:30:00 AM 17.14 62.852 0.617 7.81 41.08 7.43
9/23/2021 8:45:00 AM 17.12 62.816 0.613 7.78 42.04 7.62
9/23/2021 9:00:00 AM 17.09 62.762 0.609 7.83 44.28 7.8
9/23/2021 9:15:00 AM 17.07 62.726 0.607 7.81 42.39 7.89
9/23/2021 9:30:00 AM 17.04 62.672 0.6 7.85 45.17 7.97
9/23/2021 9:45:00 AM 17.02 62.636 0.596 7.86 45.53 8.04
9/23/2021 10:00:00 AM 17 62.6 0.591 7.84 47.46 8.07
9/23/2021 10:15:00 AM 16.99 62.582 0.589 7.84 45.64 7.9
9/23/2021 10:30:00 AM 16.96 62.528 0.586 7.83 46.77 8.02
9/23/2021 10:45:00 AM 16.94 62.492 0.576 7.8 54.23 7.82
9/23/2021 11:00:00 AM 16.93 62.474 0.57 7.85 52.92 7.97
9/23/2021 11:15:00 AM 16.9 62.42 0.564 7.85 51.76 8.18
9/23/2021 11:30:00 AM 16.89 62.402 0.554 7.86 50.62 8.19
9/23/2021 11:45:00 AM 16.89 62.402 0.546 7.87 60.19 8.4
9/23/2021 12:00:00 PM 16.91 62.438 0.54 7.86 67.89 8.44
9/23/2021 12:15:00 PM 16.92 62.456 0.533 7.87 60.42 8.46
9/23/2021 12:30:00 PM 16.9 62.42 0.525 7.86 60.7 8.48
9/23/2021 12:45:00 PM 16.85 62.33 0.516 7.83 63.86 8.59
9/23/2021 1:00:00 PM 16.83 62.294 0.51 7.83 61.55 8.65
9/23/2021 1:15:00 PM 16.84 62.312 0.502 7.8 61.42 8.73
9/23/2021 1:30:00 PM 16.83 62.294 0.493 7.83 60.55 8.77
9/23/2021 1:45:00 PM 16.89 62.402 0.477 7.79 77.22 8.76
9/23/2021 2:00:00 PM 16.98 62.564 0.45 7.76 96.01 8.61
9/23/2021 2:15:00 PM 17.09 62.762 0.42 7.72 158.69 8.61
9/23/2021 2:30:00 PM 17.29 63.122 0.376 7.69 1169.92 8.49
9/23/2021 2:45:00 PM 17.5 63.5 0.331 7.68 138.62 8.52
9/23/2021 3:00:00 PM 17.59 63.662 0.325 7.61 148.27 8.41
9/23/2021 3:15:00 PM 17.65 63.77 0.273 7.59 425.36 8.5
9/23/2021 3:30:00 PM 17.68 63.824 0.234 7.56 252.31 8.67
9/23/2021 3:45:00 PM 17.68 63.824 0.224 7.59 309.35 8.69
9/23/2021 4:00:00 PM 17.73 63.914 0.204 7.6 281.82 8.75
9/23/2021 4:15:00 PM 17.73 63.914 0.194 7.61 370.37 8.82
9/23/2021 4:30:00 PM 17.66 63.788 0.192 7.56 465.93 8.87
9/23/2021 4:45:00 PM 17.63 63.734 0.184 7.51 6228.13 8.88
9/23/2021 5:00:00 PM 17.64 63.752 0.174 7.45 2834.33 8.88
9/23/2021 5:15:00 PM 17.65 63.77 0.166 7.55 658.63 8.88
9/23/2021 5:30:00 PM 17.64 63.752 0.161 7.49 1762.71 8.88
9/23/2021 5:45:00 PM 17.65 63.77 0.158 7.47 1760.25 8.85
9/23/2021 6:00:00 PM 17.66 63.788 0.157 7.58 1193.65 8.86
9/23/2021 6:15:00 PM 17.68 63.824 0.158 7.56 7074.99 8.84
9/23/2021 6:30:00 PM 17.7 63.86 0.157 7.48 1019.21 8.82
9/23/2021 6:45:00 PM 17.72 63.896 0.16 7.46 1393.57 8.83
9/23/2021 7:00:00 PM 17.73 63.914 0.162 7.42 2767.89 8.76
9/23/2021 7:15:00 PM 17.74 63.932 0.165 7.5 857.76 8.77
9/23/2021 7:30:00 PM 17.74 63.932 0.167 7.53 1738.95 8.76
9/23/2021 7:45:00 PM 17.73 63.914 0.171 7.45 2357.2 8.75
9/23/2021 8:00:00 PM 17.72 63.896 0.174 7.43 2233.19 8.75
9/23/2021 8:15:00 PM 17.7 63.86 0.176 7.52 2767.34 8.71
9/23/2021 8:30:00 PM 17.69 63.842 0.177 7.37 309.16 8.72
9/23/2021 8:45:00 PM 17.67 63.806 0.179 7.43 1219 8.69
9/23/2021 9:00:00 PM 17.65 63.77 0.181 7.43 1118.3 8.59
9/23/2021 9:15:00 PM 17.64 63.752 0.182 7.33 2443.14 8.63
9/23/2021 9:30:00 PM 17.62 63.716 0.183 7.36 1433.07 8.66
9/23/2021 9:45:00 PM 17.59 63.662 0.184 7.39 404.6 8.68
9/23/2021 10:00:00 PM 17.57 63.626 0.185 7.42 582.95 8.65
9/23/2021 10:15:00 PM 17.54 63.572 0.187 7.43 786.83 8.64
9/23/2021 10:30:00 PM 17.5 63.5 0.187 7.4 192.61 8.64
9/23/2021 10:45:00 PM 17.46 63.428 0.19 7.35 174.01 8.66
9/23/2021 11:00:00 PM 17.42 63.356 0.19 7.43 387.37 8.65
9/23/2021 11:15:00 PM 17.37 63.266 0.19 7.38 192.95 8.67
9/23/2021 11:30:00 PM 17.33 63.194 0.191 7.39 170.23 8.65
9/23/2021 11:45:00 PM 17.29 63.122 0.194 7.39 138.2 8.64
9/24/2021 12:00:00 AM 17.24 63.032 0.198 7.4 134.3 8.66
9/24/2021 12:15:00 AM 17.18 62.924 0.2 7.4 116.72 8.65
9/24/2021 12:30:00 AM 17.13 62.834 0.199 7.39 117.51 8.64
9/24/2021 12:45:00 AM 17.07 62.726 0.204 7.4 135.28 8.65
9/24/2021 1:00:00 AM 17.01 62.618 0.206 7.44 107.1 8.66
9/24/2021 1:15:00 AM 16.96 62.528 0.21 7.43 116.69 8.66
9/24/2021 1:30:00 AM 16.89 62.402 0.21 7.46 104.72 8.67
9/24/2021 1:45:00 AM 16.83 62.294 0.21 7.43 104.41 8.67
9/24/2021 2:00:00 AM 16.77 62.186 0.212 7.44 105.67 8.68
9/24/2021 2:15:00 AM 16.71 62.078 0.215 7.43 75.19 8.68
9/24/2021 2:30:00 AM 16.65 61.97 0.22 7.42 84.81 8.65
9/24/2021 2:45:00 AM 16.6 61.88 0.222 7.38 191.32 8.68
9/24/2021 3:00:00 AM 16.53 61.754 0.224 7.47 85.01 8.7
9/24/2021 3:15:00 AM 16.47 61.646 0.228 7.45 85.74 8.71
9/24/2021 3:30:00 AM 16.41 61.538 0.231 7.42 80.31 8.7
9/24/2021 3:45:00 AM 16.34 61.412 0.234 7.48 78.73 8.73
9/24/2021 4:00:00 AM 16.28 61.304 0.236 7.45 88.01 8.68
9/24/2021 4:15:00 AM 16.21 61.178 0.238 7.46 81.26 8.72
9/24/2021 4:30:00 AM 16.13 61.034 0.24 7.49 69.98 8.74
9/24/2021 4:45:00 AM 16.06 60.908 0.243 7.42 88.11 8.73
9/24/2021 5:00:00 AM 15.99 60.782 0.244 7.43 85.79 8.76
9/24/2021 5:15:00 AM 15.92 60.656 0.248 7.48 67.22 8.78
9/24/2021 5:30:00 AM 15.84 60.512 0.25 7.48 71.57 8.78
9/24/2021 5:45:00 AM 15.77 60.386 0.251 7.47 72.35 8.81
9/24/2021 6:00:00 AM 15.7 60.26 0.256 7.5 80.33 8.83
9/24/2021 6:15:00 AM 15.63 60.134 0.259 7.48 80.39 8.85
9/24/2021 6:30:00 AM 15.55 59.99 0.261 7.5 65.51 8.85
9/24/2021 6:45:00 AM 15.49 59.882 0.262 7.51 61.82 8.88
9/24/2021 7:00:00 AM 15.41 59.738 0.261 7.5 69.1 8.9
9/24/2021 7:15:00 AM 15.33 59.594 0.261 7.48 67.71 8.91
9/24/2021 7:30:00 AM 15.25 59.45 0.267 7.52 57.29 8.94
9/24/2021 7:45:00 AM 15.18 59.324 0.266 7.5 63.97 8.96
9/24/2021 8:00:00 AM 15.11 59.198 0.272 7.51 58.5 8.98
9/24/2021 8:15:00 AM 15.04 59.072 0.273 7.5 58.42 9
9/24/2021 8:30:00 AM 14.97 58.946 0.273 7.48 57.59 9.01
9/24/2021 8:45:00 AM 14.91 58.838 0.279 7.49 55.75 9.02
9/24/2021 9:00:00 AM 14.85 58.73 0.277 7.45 71.3 9.05
9/24/2021 9:15:00 AM 14.78 58.604 0.279 7.48 54.42 9.07
9/24/2021 9:30:00 AM 14.73 58.514 0.281 7.53 53.39 9.09
9/24/2021 9:45:00 AM 14.68 58.424 0.283 7.45 53.2 9.12
9/24/2021 10:00:00 AM 14.63 58.334 0.285 7.47 51.85 9.16
9/24/2021 10:15:00 AM 14.61 58.298 0.286 7.54 52.8 9.19
9/24/2021 10:30:00 AM 14.59 58.262 0.286 7.52 53.54 9.23
9/24/2021 10:45:00 AM 14.56 58.208 0.29 7.56 17.1 9.27
9/24/2021 11:00:00 AM 14.52 58.136 0.292 7.55 50.27 9.29
9/24/2021 11:15:00 AM 14.51 58.118 0.31 7.54 49.15 9.33
9/24/2021 11:30:00 AM 14.54 58.172 0.293 7.54 50.19 9.38
9/24/2021 11:45:00 AM 14.56 58.208 0.297 7.54 50.03 9.44
9/24/2021 12:00:00 PM 14.59 58.262 0.296 7.53 50.01 9.48
9/24/2021 12:15:00 PM 14.64 58.352 0.298 7.57 47.75 9.54
9/24/2021 12:30:00 PM 14.72 58.496 0.299 7.53 20.5 9.64
9/24/2021 12:45:00 PM 14.79 58.622 0.301 7.59 48.21 9.75
9/24/2021 1:00:00 PM 14.85 58.73 0.302 7.63 16.4 9.82
9/24/2021 1:15:00 PM 14.91 58.838 0.304 7.63 46.44 9.87
9/24/2021 1:30:00 PM 15.03 59.054 0.305 7.63 48.78 9.95
9/24/2021 1:45:00 PM 15.13 59.234 0.305 7.61 51.19 10.02
9/24/2021 2:00:00 PM 15.23 59.414 0.308 7.59 50.1 10.1
9/24/2021 2:15:00 PM 15.33 59.594 0.309 7.6 16.94 10.19
9/24/2021 2:30:00 PM 15.46 59.828 0.309 7.63 52.46 10.26
9/24/2021 2:45:00 PM 15.58 60.044 0.311 7.68 46.21 10.3
9/24/2021 3:00:00 PM 15.69 60.242 0.313 7.74 47.68 10.4
9/24/2021 3:15:00 PM 15.83 60.494 0.313 7.72 45.77 10.47
9/24/2021 3:30:00 PM 15.94 60.692 0.315 7.74 46.31 10.48
9/24/2021 3:45:00 PM 16.03 60.854 0.317 7.71 46.22 10.54
9/24/2021 4:00:00 PM 16.11 60.998 0.317 7.72 39.56 10.53
9/24/2021 4:15:00 PM 16.16 61.088 0.319 7.76 47.65 10.55
9/24/2021 4:30:00 PM 16.2 61.16 0.321 7.8 47.67 10.57
9/24/2021 4:45:00 PM 16.19 61.142 0.321 7.8 44.16 10.55
9/24/2021 5:00:00 PM 16.19 61.142 0.323 7.81 10.18 10.52
9/24/2021 5:15:00 PM 16.17 61.106 0.325 7.83 44.93 10.48
9/24/2021 5:30:00 PM 16.16 61.088 0.326 7.78 44.97 10.44
9/24/2021 5:45:00 PM 16.16 61.088 0.327 7.8 44.27 10.4
9/24/2021 6:00:00 PM 16.15 61.07 0.178 7.82 56 10.36
9/24/2021 6:15:00 PM 16.14 61.052 0.329 7.76 9.89 10.31
9/24/2021 6:30:00 PM 16.11 60.998 0.331 7.82 44.59 10.25
9/24/2021 6:45:00 PM 16.09 60.962 0.331 7.75 44.99 10.19
9/24/2021 7:00:00 PM 16.07 60.926 0.333 7.8 44.37 10.11
9/24/2021 7:15:00 PM 16.05 60.89 0.333 7.77 45.81 10.03
9/24/2021 7:30:00 PM 16.03 60.854 0.335 7.81 47.01 9.97
9/24/2021 7:45:00 PM 16.02 60.836 0.335 7.77 46.36 9.9
9/24/2021 8:00:00 PM 16 60.8 0.336 7.71 46.09 9.82
9/24/2021 8:15:00 PM 15.99 60.782 0.338 7.75 44.92 9.74
9/24/2021 8:30:00 PM 15.97 60.746 0.339 7.73 45.38 9.66
9/24/2021 8:45:00 PM 15.95 60.71 0.339 7.76 46.16 9.58
9/24/2021 9:00:00 PM 15.92 60.656 0.341 7.73 44.35 9.52
9/24/2021 9:15:00 PM 15.89 60.602 0.342 7.72 45.95 9.45
9/24/2021 9:30:00 PM 15.87 60.566 0.343 7.71 46.39 9.38
9/24/2021 9:45:00 PM 15.84 60.512 0.344 7.66 47.15 9.33
9/24/2021 10:00:00 PM 15.82 60.476 0.345 7.64 123.79 9.28
9/24/2021 10:15:00 PM 15.79 60.422 0.346 7.68 47.05 9.22
9/24/2021 10:30:00 PM 15.76 60.368 0.347 7.69 48.86 9.18
9/24/2021 10:45:00 PM 15.73 60.314 0.348 7.62 16.45 9.14
9/24/2021 11:00:00 PM 15.7 60.26 0.35 7.67 49.01 9.09
9/24/2021 11:15:00 PM 15.66 60.188 0.351 7.64 48.23 9.06
9/24/2021 11:30:00 PM 15.62 60.116 0.352 7.67 49.23 9.04
9/24/2021 11:45:00 PM 15.58 60.044 0.353 7.61 46.62 9.01
9/25/2021 12:00:00 AM 15.54 59.972 0.353 7.64 49.11 9
9/25/2021 12:15:00 AM 15.51 59.918 0.355 7.59 46.11 8.97
9/25/2021 12:30:00 AM 15.47 59.846 0.356 7.65 46.28 8.97
9/25/2021 12:45:00 AM 15.44 59.792 0.357 7.59 46.75 8.96
9/25/2021 1:00:00 AM 15.4 59.72 0.357 7.6 45 8.95
9/25/2021 1:15:00 AM 15.37 59.666 0.359 7.59 45.86 8.95
9/25/2021 1:30:00 AM 15.33 59.594 0.36 7.63 47.3 8.94
9/25/2021 1:45:00 AM 15.29 59.522 0.361 7.64 45.65 8.93
9/25/2021 2:00:00 AM 15.25 59.45 0.362 7.6 47.3 8.94
9/25/2021 2:15:00 AM 15.21 59.378 0.363 7.65 46.56 8.92
9/25/2021 2:30:00 AM 15.17 59.306 0.364 7.64 51.35 8.93
9/25/2021 2:45:00 AM 15.13 59.234 0.365 7.58 47.11 8.95
9/25/2021 3:00:00 AM 15.09 59.162 0.366 7.61 45.88 8.96
9/25/2021 3:15:00 AM 15.05 59.09 0.367 7.63 44.28 8.97
9/25/2021 3:30:00 AM 15.01 59.018 0.368 7.62 105.95 8.96
9/25/2021 3:45:00 AM 14.97 58.946 0.368 7.62 48.57 8.97
9/25/2021 4:00:00 AM 14.93 58.874 0.369 7.64 46.23 8.97
9/25/2021 4:15:00 AM 14.88 58.784 0.37 7.65 47.93 8.99
9/25/2021 4:30:00 AM 14.84 58.712 0.372 7.61 48.43 9
9/25/2021 4:45:00 AM 14.81 58.658 0.372 7.65 48.33 9.01
9/25/2021 5:00:00 AM 14.77 58.586 0.372 7.63 19.72 9.02
9/25/2021 5:15:00 AM 14.73 58.514 0.374 7.61 45.21 9.02
9/25/2021 5:30:00 AM 14.7 58.46 0.374 7.63 49.98 9.03
9/25/2021 5:45:00 AM 14.67 58.406 0.384 7.64 47.81 9.03
9/25/2021 6:00:00 AM 14.63 58.334 0.382 7.65 50.96 9.05
9/25/2021 6:15:00 AM 14.6 58.28 0.382 7.65 49.27 9.05
9/25/2021 6:30:00 AM 14.57 58.226 0.384 7.64 47.97 9.06
9/25/2021 6:45:00 AM 14.53 58.154 0.385 7.65 46.81 9.07
9/25/2021 7:00:00 AM 14.5 58.1 0.385 7.63 47.72 9.08
9/25/2021 7:15:00 AM 14.46 58.028 0.386 7.65 48.63 9.09
9/25/2021 7:30:00 AM 14.42 57.956 0.387 7.65 51.67 9.1
9/25/2021 7:45:00 AM 14.39 57.902 0.388 7.62 58.74 9.12
9/25/2021 8:00:00 AM 14.37 57.866 0.389 7.66 50.16 9.14
9/25/2021 8:15:00 AM 14.35 57.83 0.39 7.61 52.15 9.17
9/25/2021 8:30:00 AM 14.34 57.812 0.392 7.62 54.42 9.2
9/25/2021 8:45:00 AM 14.32 57.776 0.392 7.65 30.73 9.22
9/25/2021 9:00:00 AM 14.3 57.74 0.393 7.61 51.21 9.26
9/25/2021 9:15:00 AM 14.29 57.722 0.393 7.61 52.83 9.28
9/25/2021 9:30:00 AM 14.29 57.722 0.395 7.69 92.86 9.38
9/25/2021 9:45:00 AM 14.3 57.74 0.396 7.66 72.56 9.47
9/25/2021 10:00:00 AM 14.31 57.758 0.396 7.7 176.21 9.56
9/25/2021 10:15:00 AM 14.32 57.776 0.396 7.67 79.08 9.66
9/25/2021 10:30:00 AM 14.35 57.83 0.397 7.68 67.74 9.77
9/25/2021 10:45:00 AM 14.38 57.884 0.397 7.71 62.86 9.86
9/25/2021 11:00:00 AM 14.43 57.974 0.398 7.69 63.07 9.94
9/25/2021 11:15:00 AM 14.5 58.1 0.398 7.73 62.3 10.03
9/25/2021 11:30:00 AM 14.58 58.244 0.398 7.7 57.79 10.12
9/25/2021 11:45:00 AM 14.67 58.406 0.398 7.77 53.66 10.22
9/25/2021 12:00:00 PM 14.76 58.568 0.398 7.75 58.81 10.29
9/25/2021 12:15:00 PM 14.84 58.712 0.399 7.77 57.86 10.39
9/25/2021 12:30:00 PM 14.96 58.928 0.4 7.8 59.5 10.47
9/25/2021 12:45:00 PM 15.09 59.162 0.401 7.78 53.69 10.58
9/25/2021 1:00:00 PM 15.24 59.432 0.401 7.83 50.05 10.66
9/25/2021 1:15:00 PM 15.4 59.72 0.401 7.83 64.16 10.75
9/25/2021 1:30:00 PM 15.56 60.008 0.402 7.86 72.71 10.76
9/25/2021 1:45:00 PM 15.72 60.296 0.403 7.83 65.3 10.93
9/25/2021 2:00:00 PM 15.86 60.548 0.404 7.85 62.8 11.01
9/25/2021 2:15:00 PM 15.99 60.782 0.404 7.89 121.77 11.08
9/25/2021 2:30:00 PM 16.1 60.98 0.405 7.9 65.41 11.14
9/25/2021 2:45:00 PM 16.18 61.124 0.406 7.91 58.7 11.21
9/25/2021 3:00:00 PM 16.3 61.34 0.407 7.9 138.56 11.26
9/25/2021 3:15:00 PM 16.43 61.574 0.407 7.89 60.31 11.31
9/25/2021 3:30:00 PM 16.52 61.736 0.408 7.98 82.64 11.31
9/25/2021 3:45:00 PM 16.61 61.898 0.408 7.98 57.21 11.29
9/25/2021 4:00:00 PM 16.67 62.006 0.41 8.01 62.34 11.29
9/25/2021 4:15:00 PM 16.72 62.096 0.41 7.99 54.62 11.26
9/25/2021 4:30:00 PM 16.77 62.186 0.411 7.99 69.97 11.22
9/25/2021 4:45:00 PM 16.78 62.204 0.411 8.02 76.69 11.19
9/25/2021 5:00:00 PM 16.79 62.222 0.412 7.97 77.67 11.14
9/25/2021 5:15:00 PM 16.77 62.186 0.413 8.01 61.94 11.07
9/25/2021 5:30:00 PM 16.75 62.15 0.413 8 60.2 11
9/25/2021 5:45:00 PM 16.72 62.096 0.413 8 63.06 10.9
9/25/2021 6:00:00 PM 16.69 62.042 0.414 7.95 59.34 10.81
9/25/2021 6:15:00 PM 16.65 61.97 0.415 7.95 61.63 10.72
9/25/2021 6:30:00 PM 16.61 61.898 0.416 7.98 58.34 10.61
9/25/2021 6:45:00 PM 16.56 61.808 0.416 7.96 63.37 10.52
9/25/2021 7:00:00 PM 16.52 61.736 0.416 7.95 62.14 10.41
9/25/2021 7:15:00 PM 16.47 61.646 0.417 7.94 58.23 10.29
9/25/2021 7:30:00 PM 16.43 61.574 0.417 7.9 52.94 10.19
9/25/2021 7:45:00 PM 16.38 61.484 0.419 7.91 55.83 10.08
9/25/2021 8:00:00 PM 16.33 61.394 0.418 7.85 57.49 9.98
9/25/2021 8:15:00 PM 16.28 61.304 0.42 7.87 54.08 9.88
9/25/2021 8:30:00 PM 16.23 61.214 0.42 7.84 59.13 9.79
9/25/2021 8:45:00 PM 16.18 61.124 0.42 7.86 65.3 9.7
9/25/2021 9:00:00 PM 16.13 61.034 0.421 7.83 52.82 9.61
9/25/2021 9:15:00 PM 16.09 60.962 0.421 7.81 58.92 9.55
9/25/2021 9:30:00 PM 16.05 60.89 0.422 7.83 57.4 9.47
9/25/2021 9:45:00 PM 16.02 60.836 0.422 7.81 67.54 9.4
9/25/2021 10:00:00 PM 15.99 60.782 0.423 7.8 60.06 9.35
9/25/2021 10:15:00 PM 15.96 60.728 0.422 7.77 36.25 9.29
9/25/2021 10:30:00 PM 15.93 60.674 0.423 7.79 52.66 9.22
9/25/2021 10:45:00 PM 15.9 60.62 0.423 7.78 48.56 9.17
9/25/2021 11:00:00 PM 15.88 60.584 0.424 7.78 59.21 9.11
9/25/2021 11:15:00 PM 15.85 60.53 0.424 7.76 51.9 9.07
9/25/2021 11:30:00 PM 15.83 60.494 0.425 7.75 51.58 9.02
9/25/2021 11:45:00 PM 15.8 60.44 0.425 7.74 51.39 8.97
9/26/2021 12:00:00 AM 15.77 60.386 0.426 7.73 55.29 8.93
9/26/2021 12:15:00 AM 15.75 60.35 0.425 7.73 49.39 8.9
9/26/2021 12:30:00 AM 15.72 60.296 0.426 7.71 51.49 8.87
9/26/2021 12:45:00 AM 15.7 60.26 0.426 7.68 172.92 8.83
9/26/2021 1:00:00 AM 15.67 60.206 0.426 7.71 90.63 8.82
9/26/2021 1:15:00 AM 15.65 60.17 0.427 7.71 74.2 8.79
9/26/2021 1:30:00 AM 15.63 60.134 0.427 7.71 80.25 8.77
9/26/2021 1:45:00 AM 15.6 60.08 0.428 7.69 62.32 8.76
9/26/2021 2:00:00 AM 15.58 60.044 0.429 7.67 57.79 8.76
9/26/2021 2:15:00 AM 15.57 60.026 0.429 7.7 54.29 8.75
9/26/2021 2:30:00 AM 15.55 59.99 0.429 7.68 56.04 8.73
9/26/2021 2:45:00 AM 15.53 59.954 0.43 7.63 58.59 8.73
9/26/2021 3:00:00 AM 15.52 59.936 0.431 7.67 56.24 8.72
9/26/2021 3:15:00 AM 15.5 59.9 0.431 7.67 66.98 8.71
9/26/2021 3:30:00 AM 15.48 59.864 0.431 7.69 51 8.67
9/26/2021 3:45:00 AM 15.45 59.81 0.432 7.65 50.48 8.68
9/26/2021 4:00:00 AM 15.42 59.756 0.432 7.68 49.49 8.7
9/26/2021 4:15:00 AM 15.39 59.702 0.433 7.64 52.46 8.69
9/26/2021 4:30:00 AM 15.36 59.648 0.433 7.67 49.54 8.69
9/26/2021 4:45:00 AM 15.33 59.594 0.434 7.67 48.95 8.68
9/26/2021 5:00:00 AM 15.3 59.54 0.435 7.69 47.06 8.69
9/26/2021 5:15:00 AM 15.26 59.468 0.435 7.68 51.77 8.68
9/26/2021 5:30:00 AM 15.22 59.396 0.436 7.69 47.07 8.7
9/26/2021 5:45:00 AM 15.2 59.36 0.436 7.67 49.55 8.67
9/26/2021 6:00:00 AM 15.17 59.306 0.437 7.68 48.39 8.68
9/26/2021 6:15:00 AM 15.13 59.234 0.31 7.63 66.84 8.69
9/26/2021 6:30:00 AM 15.1 59.18 0.439 7.65 46.02 8.65
9/26/2021 6:45:00 AM 15.06 59.108 0.439 7.63 45.66 8.64
9/26/2021 7:00:00 AM 15.02 59.036 0.44 7.65 49.12 8.62
9/26/2021 7:15:00 AM 14.97 58.946 0.44 7.63 45.26 8.67
9/26/2021 7:30:00 AM 14.94 58.892 0.441 7.59 54.91 8.66
9/26/2021 7:45:00 AM 14.9 58.82 0.441 7.6 54.57 8.64
9/26/2021 8:00:00 AM 14.86 58.748 0.442 7.59 56.96 8.68
9/26/2021 8:15:00 AM 14.82 58.676 0.443 7.66 68.2 8.67
9/26/2021 8:30:00 AM 14.78 58.604 0.444 7.59 64.39 8.7
9/26/2021 8:45:00 AM 14.75 58.55 0.445 7.65 58.85 8.72
9/26/2021 9:00:00 AM 14.71 58.478 0.447 7.66 91.28 8.79
9/26/2021 9:15:00 AM 14.67 58.406 0.448 7.67 67.16 8.81
9/26/2021 9:30:00 AM 14.64 58.352 0.45 7.65 62.63 8.86
9/26/2021 9:45:00 AM 14.62 58.316 0.452 7.66 186.14 8.9
9/26/2021 10:00:00 AM 14.61 58.298 0.454 7.66 137.15 8.97
9/26/2021 10:15:00 AM 14.62 58.316 0.456 7.66 182.22 9.06
9/26/2021 10:30:00 AM 14.65 58.37 0.458 7.65 101.12 9.15
9/26/2021 10:45:00 AM 14.67 58.406 0.46 7.62 126.03 9.23
9/26/2021 11:00:00 AM 14.68 58.424 0.461 7.66 86.05 9.32
9/26/2021 11:15:00 AM 14.73 58.514 0.462 7.7 83.78 9.45
9/26/2021 11:30:00 AM 14.79 58.622 0.463 7.69 92.31 9.51
9/26/2021 11:45:00 AM 14.87 58.766 0.462 7.67 75.14 9.66
9/26/2021 12:00:00 PM 14.95 58.91 0.463 7.73 65.51 9.84
9/26/2021 12:15:00 PM 15.04 59.072 0.463 7.74 64.13 9.95
9/26/2021 12:30:00 PM 15.12 59.216 0.462 7.75 64.85 10.08
9/26/2021 12:45:00 PM 15.2 59.36 0.461 7.77 66.32 10.23
9/26/2021 1:00:00 PM 15.3 59.54 0.459 7.77 57.92 10.34
9/26/2021 1:15:00 PM 15.44 59.792 0.458 7.82 67.92 10.49
9/26/2021 1:30:00 PM 15.59 60.062 0.457 7.82 60.39 10.66
9/26/2021 1:45:00 PM 15.64 60.152 0.455 7.81 143.99 10.7
9/26/2021 2:00:00 PM 15.84 60.512 0.454 7.84 67.2 10.87
9/26/2021 2:15:00 PM 15.89 60.602 0.452 7.83 56.9 10.9
9/26/2021 2:30:00 PM 16.03 60.854 0.451 7.87 59.91 11.08
9/26/2021 2:45:00 PM 16.11 60.998 0.451 7.92 51.16 11.16
9/26/2021 3:00:00 PM 16.19 61.142 0.45 7.94 36.88 11.24
9/26/2021 3:15:00 PM 16.32 61.376 0.45 7.92 59.79 11.38
9/26/2021 3:30:00 PM 16.38 61.484 0.449 7.95 56.75 11.34
9/26/2021 3:45:00 PM 16.45 61.61 0.45 7.95 58.64 11.41
9/26/2021 4:00:00 PM 16.53 61.754 0.449 7.94 63.68 11.45
9/26/2021 4:15:00 PM 16.6 61.88 0.45 7.99 53.64 11.42
9/26/2021 4:30:00 PM 16.65 61.97 0.45 8 52.88 11.37
9/26/2021 4:45:00 PM 16.68 62.024 0.45 8 53.62 11.34
9/26/2021 5:00:00 PM 16.69 62.042 0.45 8.02 24.68 11.27
9/26/2021 5:15:00 PM 16.69 62.042 0.45 7.97 49.46 11.19
9/26/2021 5:30:00 PM 16.68 62.024 0.451 7.98 20.59 11.12
9/26/2021 5:45:00 PM 16.64 61.952 0.452 7.94 49.07 11.01
9/26/2021 6:00:00 PM 16.62 61.916 0.452 7.96 49.29 10.95
9/26/2021 6:15:00 PM 16.58 61.844 0.452 7.99 47.44 10.86
9/26/2021 6:30:00 PM 16.54 61.772 0.454 7.97 52.26 10.73
9/26/2021 6:45:00 PM 16.49 61.682 0.454 7.98 48.06 10.61
9/26/2021 7:00:00 PM 16.43 61.574 0.455 7.95 49.32 10.5
9/26/2021 7:15:00 PM 16.36 61.448 0.455 7.9 22.34 10.38
9/26/2021 7:30:00 PM 16.29 61.322 0.456 7.87 50.66 10.27
9/26/2021 7:45:00 PM 16.22 61.196 0.456 7.86 46.88 10.17
9/26/2021 8:00:00 PM 16.17 61.106 0.34 7.94 47.12 10.08
9/26/2021 8:15:00 PM 16.1 60.98 0.458 7.85 48.12 9.97
9/26/2021 8:30:00 PM 16.05 60.89 0.458 7.86 46.93 9.87
9/26/2021 8:45:00 PM 15.98 60.764 0.459 7.9 48.27 9.78
9/26/2021 9:00:00 PM 15.91 60.638 0.459 7.84 47.11 9.71
9/26/2021 9:15:00 PM 15.84 60.512 0.46 7.85 47.59 9.62
9/26/2021 9:30:00 PM 15.78 60.404 0.461 7.78 47.23 9.52
9/26/2021 9:45:00 PM 15.71 60.278 0.461 7.83 46.69 9.47
9/26/2021 10:00:00 PM 15.64 60.152 0.462 7.82 47.78 9.39
9/26/2021 10:15:00 PM 15.59 60.062 0.462 7.79 46.68 9.33
9/26/2021 10:30:00 PM 15.53 59.954 0.462 7.77 46.58 9.22
9/26/2021 10:45:00 PM 15.47 59.846 0.463 7.77 48 9.2
9/26/2021 11:00:00 PM 15.42 59.756 0.463 7.79 45.67 9.19
9/26/2021 11:15:00 PM 15.37 59.666 0.464 7.76 46.95 9.1
9/26/2021 11:30:00 PM 15.32 59.576 0.464 7.75 47.09 9.06
9/26/2021 11:45:00 PM 15.28 59.504 0.464 7.76 46.55 8.98
9/27/2021 12:00:00 AM 15.23 59.414 0.465 7.75 47.73 8.96
9/27/2021 12:15:00 AM 15.19 59.342 0.465 7.73 48.13 8.91
9/27/2021 12:30:00 AM 15.15 59.27 0.465 7.7 46.4 8.87
9/27/2021 12:45:00 AM 15.11 59.198 0.466 7.7 49.4 8.86
9/27/2021 1:00:00 AM 15.08 59.144 0.466 7.71 48.95 8.81
9/27/2021 1:15:00 AM 15.03 59.054 0.466 7.7 48.54 8.81
9/27/2021 1:30:00 AM 14.99 58.982 0.466 7.69 46.73 8.79
9/27/2021 1:45:00 AM 14.95 58.91 0.468 7.69 47.43 8.77
9/27/2021 2:00:00 AM 14.92 58.856 0.467 7.61 45.81 8.78
9/27/2021 2:15:00 AM 14.89 58.802 0.468 7.7 47.25 8.75
9/27/2021 2:30:00 AM 14.87 58.766 0.468 7.66 45.94 8.72
9/27/2021 2:45:00 AM 14.84 58.712 0.468 7.69 46.84 8.74
9/27/2021 3:00:00 AM 14.81 58.658 0.469 7.67 47.4 8.73
9/27/2021 3:15:00 AM 14.78 58.604 0.469 7.66 47.93 8.73
9/27/2021 3:30:00 AM 14.76 58.568 0.469 7.68 47.41 8.72
9/27/2021 3:45:00 AM 14.74 58.532 0.47 7.68 44.99 8.72
9/27/2021 4:00:00 AM 14.72 58.496 0.47 7.64 46.67 8.74
9/27/2021 4:15:00 AM 14.69 58.442 0.471 7.66 45.61 8.74
9/27/2021 4:30:00 AM 14.68 58.424 0.471 7.64 46.45 8.73
9/27/2021 4:45:00 AM 14.66 58.388 0.472 7.67 46.59 8.73
9/27/2021 5:00:00 AM 14.65 58.37 0.472 7.66 47.17 8.73
9/27/2021 5:15:00 AM 14.63 58.334 0.473 7.65 46.94 8.74
9/27/2021 5:30:00 AM 14.63 58.334 0.473 7.64 47.67 8.74
9/27/2021 5:45:00 AM 14.62 58.316 0.473 7.63 46.87 8.74
9/27/2021 6:00:00 AM 14.61 58.298 0.474 7.66 46.82 8.71
9/27/2021 6:15:00 AM 14.6 58.28 0.474 7.68 46.96 8.74
9/27/2021 6:30:00 AM 14.59 58.262 0.475 7.55 46.29 8.7
9/27/2021 6:45:00 AM 14.57 58.226 0.475 7.67 47.22 8.74
9/27/2021 7:00:00 AM 14.56 58.208 0.476 7.52 46.59 8.74
9/27/2021 7:15:00 AM 14.55 58.19 0.476 7.65 45.1 8.75
9/27/2021 7:30:00 AM 14.54 58.172 0.476 7.6 14.82 8.74
9/27/2021 7:45:00 AM 14.52 58.136 0.477 7.62 51.86 8.74
9/27/2021 8:00:00 AM 14.51 58.118 0.477 7.67 80.4 8.8
9/27/2021 8:15:00 AM 14.51 58.118 0.477 7.67 70.24 8.82
9/27/2021 8:30:00 AM 14.5 58.1 0.477 7.64 79.32 8.83
9/27/2021 8:45:00 AM 14.51 58.118 0.478 7.65 77.37 8.92
9/27/2021 9:00:00 AM 14.5 58.1 0.478 7.67 56.7 8.95
9/27/2021 9:15:00 AM 14.51 58.118 0.478 7.68 56.67 9.03
9/27/2021 9:30:00 AM 14.52 58.136 0.479 7.66 60.25 9.11
9/27/2021 9:45:00 AM 14.53 58.154 0.479 7.69 68.68 9.21
9/27/2021 10:00:00 AM 14.55 58.19 0.48 7.64 55.61 9.29
9/27/2021 10:15:00 AM 14.6 58.28 0.48 7.72 56.1 9.41
9/27/2021 10:30:00 AM 14.65 58.37 0.481 7.69 51.48 9.54
9/27/2021 10:45:00 AM 14.72 58.496 0.481 7.74 49.49 9.72
9/27/2021 11:00:00 AM 14.76 58.568 0.481 7.75 52.11 9.83
9/27/2021 11:15:00 AM 14.84 58.712 0.482 7.73 58.27 9.96
9/27/2021 11:30:00 AM 14.94 58.892 0.483 7.77 53.79 10.11
9/27/2021 11:45:00 AM 15.03 59.054 0.483 7.8 49.82 10.23
9/27/2021 12:00:00 PM 15.13 59.234 0.483 7.74 86.76 10.36
9/27/2021 12:15:00 PM 15.18 59.324 0.483 7.7 51.03 10.51
9/27/2021 12:30:00 PM 15.21 59.378 0.484 7.82 50.43 10.58
9/27/2021 12:45:00 PM 15.32 59.576 0.484 7.83 47.64 10.78
9/27/2021 1:00:00 PM 15.49 59.882 0.484 7.84 48.21 10.94
9/27/2021 1:15:00 PM 15.65 60.17 0.484 7.88 57.15 11.11
9/27/2021 1:30:00 PM 15.81 60.458 0.485 7.9 51.21 11.28
9/27/2021 1:45:00 PM 15.96 60.728 0.485 7.92 49.84 11.4
9/27/2021 2:00:00 PM 16.11 60.998 0.485 7.94 17.99 11.56
9/27/2021 2:15:00 PM 16.26 61.268 0.485 7.95 57.36 11.7
9/27/2021 2:30:00 PM 16.35 61.43 0.485 7.93 60.71 11.78
9/27/2021 2:45:00 PM 16.46 61.628 0.485 7.99 53.08 11.9
9/27/2021 3:00:00 PM 16.57 61.826 0.485 8.01 59.05 12
9/27/2021 3:15:00 PM 16.68 62.024 0.486 8.01 59.2 12.09
9/27/2021 3:30:00 PM 16.77 62.186 0.487 7.98 52.56 12.13
9/27/2021 3:45:00 PM 16.87 62.366 0.487 8.04 55.13 12.15
9/27/2021 4:00:00 PM 16.96 62.528 0.487 8.09 54.44 12.22
9/27/2021 4:15:00 PM 17.05 62.69 0.488 8.08 54.13 12.23
9/27/2021 4:30:00 PM 17.12 62.816 0.488 8.12 51.39 12.2
9/27/2021 4:45:00 PM 17.19 62.942 0.489 8.09 49.91 12.18
9/27/2021 5:00:00 PM 17.25 63.05 0.488 8.12 50.75 12.14
9/27/2021 5:15:00 PM 17.28 63.104 0.489 8.13 47.85 12.07
9/27/2021 5:30:00 PM 17.31 63.158 0.49 8.12 49.98 11.98
9/27/2021 5:45:00 PM 17.33 63.194 0.49 8.08 56.46 11.86
9/27/2021 6:00:00 PM 17.33 63.194 0.491 8.1 51.12 11.75
9/27/2021 6:15:00 PM 17.33 63.194 0.49 8.09 51.53 11.59
9/27/2021 6:30:00 PM 17.32 63.176 0.491 8.1 50 11.45
9/27/2021 6:45:00 PM 17.3 63.14 0.491 8.07 49.62 11.28
9/27/2021 7:00:00 PM 17.27 63.086 0.492 8.09 31.07 11.1
9/27/2021 7:15:00 PM 17.25 63.05 0.492 8.04 48.1 10.94
9/27/2021 7:30:00 PM 17.22 62.996 0.493 8.07 46.93 10.8
9/27/2021 7:45:00 PM 17.19 62.942 0.493 8.04 50.69 10.64
9/27/2021 8:00:00 PM 17.16 62.888 0.494 8.03 47.43 10.49
9/27/2021 8:15:00 PM 17.13 62.834 0.494 7.99 51.7 10.34
9/27/2021 8:30:00 PM 17.1 62.78 0.495 7.95 132.85 10.18
9/27/2021 8:45:00 PM 17.07 62.726 0.495 7.97 49.56 10.05
9/27/2021 9:00:00 PM 17.03 62.654 0.495 7.92 17.61 9.93
9/27/2021 9:15:00 PM 16.99 62.582 0.495 7.95 50.52 9.79
9/27/2021 9:30:00 PM 16.95 62.51 0.496 7.91 20.16 9.66
9/27/2021 9:45:00 PM 16.91 62.438 0.496 7.93 47.96 9.55
9/27/2021 10:00:00 PM 16.87 62.366 0.497 7.92 47.98 9.44
9/27/2021 10:15:00 PM 16.84 62.312 0.497 7.89 47.91 9.35
9/27/2021 10:30:00 PM 16.79 62.222 0.498 7.85 19.2 9.24
9/27/2021 10:45:00 PM 16.76 62.168 0.498 7.78 47.49 9.15
9/27/2021 11:00:00 PM 16.71 62.078 0.499 7.88 47.03 9.07
9/27/2021 11:15:00 PM 16.67 62.006 0.499 7.76 47.54 8.99
9/27/2021 11:30:00 PM 16.62 61.916 0.5 7.82 44.87 8.92
9/27/2021 11:45:00 PM 16.58 61.844 0.5 7.77 44.92 8.84
9/28/2021 12:00:00 AM 16.53 61.754 0.501 7.83 46.39 8.76
9/28/2021 12:15:00 AM 16.48 61.664 0.501 7.81 49.91 8.69
9/28/2021 12:30:00 AM 16.43 61.574 0.501 7.8 44.94 8.6
9/28/2021 12:45:00 AM 16.37 61.466 0.502 7.72 47.2 8.55
9/28/2021 1:00:00 AM 16.32 61.376 0.502 7.76 11.41 8.48
9/28/2021 1:15:00 AM 16.27 61.286 0.503 7.76 44.67 8.44
9/28/2021 1:30:00 AM 16.21 61.178 0.503 7.73 48.15 8.39
9/28/2021 1:45:00 AM 16.16 61.088 0.503 7.67 45.93 8.35
9/28/2021 2:00:00 AM 16.11 60.998 0.503 7.73 45.02 8.31
9/28/2021 2:15:00 AM 16.06 60.908 0.504 7.73 44.99 8.28
9/28/2021 2:30:00 AM 16.03 60.854 0.504 7.71 45.71 8.24
9/28/2021 2:45:00 AM 15.99 60.782 0.504 7.71 45.1 8.22
9/28/2021 3:00:00 AM 15.95 60.71 0.504 7.71 45.84 8.22
9/28/2021 3:15:00 AM 15.92 60.656 0.504 7.68 48.93 8.14
9/28/2021 3:30:00 AM 15.88 60.584 0.504 7.64 48.6 8.22
9/28/2021 3:45:00 AM 15.85 60.53 0.505 7.65 47.18 8.2
9/28/2021 4:00:00 AM 15.81 60.458 0.505 7.65 48.93 8.2
9/28/2021 4:15:00 AM 15.77 60.386 0.287 7.69 63 8.24
9/28/2021 4:30:00 AM 15.74 60.332 0.504 7.66 48.57 8.18
9/28/2021 4:45:00 AM 15.69 60.242 0.298 7.67 52.21 8.22
9/28/2021 5:00:00 AM 15.66 60.188 0.505 7.66 134 8.2
9/28/2021 5:15:00 AM 15.62 60.116 0.505 7.64 49.48 8.21
9/28/2021 5:30:00 AM 15.59 60.062 0.505 7.64 49.92 8.22
9/28/2021 5:45:00 AM 15.56 60.008 0.506 7.67 48.52 8.19
9/28/2021 6:00:00 AM 15.52 59.936 0.506 7.65 48.67 8.21
9/28/2021 6:15:00 AM 15.48 59.864 0.507 7.66 46.81 8.23
9/28/2021 6:30:00 AM 15.44 59.792 0.507 7.65 45.4 8.23
9/28/2021 6:45:00 AM 15.41 59.738 0.507 7.53 45.71 8.25
9/28/2021 7:00:00 AM 15.37 59.666 0.508 7.65 50.73 8.24
9/28/2021 7:15:00 AM 15.35 59.63 0.509 7.65 48.53 8.22
9/28/2021 7:30:00 AM 15.33 59.594 0.509 7.66 50.39 8.27
9/28/2021 7:45:00 AM 15.31 59.558 0.509 7.66 47.39 8.28
9/28/2021 8:00:00 AM 15.28 59.504 0.509 7.65 45.74 8.29
9/28/2021 8:15:00 AM 15.27 59.486 0.509 7.66 45.75 8.28
9/28/2021 8:30:00 AM 15.25 59.45 0.51 7.65 46.45 8.31
9/28/2021 8:45:00 AM 15.24 59.432 0.51 7.65 43.63 8.29
9/28/2021 9:00:00 AM 15.22 59.396 0.51 7.53 44.87 8.28
9/28/2021 9:15:00 AM 15.21 59.378 0.509 7.52 45.44 8.3
9/28/2021 9:30:00 AM 15.21 59.378 0.509 7.65 46.36 8.38
9/28/2021 9:45:00 AM 15.2 59.36 0.509 7.67 44.73 8.42
9/28/2021 10:00:00 AM 15.19 59.342 0.51 7.66 45.45 8.42
9/28/2021 10:15:00 AM 15.19 59.342 0.509 7.6 118.62 8.42
9/28/2021 10:30:00 AM 15.19 59.342 0.509 7.67 44.95 8.46
9/28/2021 10:45:00 AM 15.19 59.342 0.509 7.65 131.44 8.49
9/28/2021 11:00:00 AM 15.2 59.36 0.509 7.66 47.17 8.54
9/28/2021 11:15:00 AM 15.2 59.36 0.509 7.65 42.57 8.57
9/28/2021 11:30:00 AM 15.19 59.342 0.509 7.69 42.84 8.61
9/28/2021 11:45:00 AM 15.21 59.378 0.509 7.69 43.88 8.67
9/28/2021 12:00:00 PM 15.23 59.414 0.509 7.69 44.84 8.87
9/28/2021 12:15:00 PM 15.26 59.468 0.51 7.71 42.96 8.99
9/28/2021 12:30:00 PM 15.32 59.576 0.51 7.74 43.85 9.21
9/28/2021 12:45:00 PM 15.38 59.684 0.51 7.74 43.73 9.27
9/28/2021 1:00:00 PM 15.43 59.774 0.511 7.75 44.3 9.52
9/28/2021 1:15:00 PM 15.49 59.882 0.511 7.79 42.95 9.63
9/28/2021 1:30:00 PM 15.53 59.954 0.511 7.79 42.47 9.86
9/28/2021 1:45:00 PM 15.53 59.954 0.512 7.81 41.23 9.84
9/28/2021 2:00:00 PM 15.55 59.99 0.511 7.81 45.39 10.04
9/28/2021 2:15:00 PM 15.58 60.044 0.512 7.83 42.95 10.16
9/28/2021 2:30:00 PM 15.61 60.098 0.511 7.85 41.9 10.24
9/28/2021 2:45:00 PM 15.65 60.17 0.51 7.86 42.76 10.38
9/28/2021 3:00:00 PM 15.69 60.242 0.51 7.89 41.62 10.54
9/28/2021 3:15:00 PM 15.74 60.332 0.51 7.79 40.95 10.69
9/28/2021 3:30:00 PM 15.79 60.422 0.51 7.92 41.84 10.86
9/28/2021 3:45:00 PM 15.85 60.53 0.51 7.95 40.87 10.96
9/28/2021 4:00:00 PM 15.9 60.62 0.51 7.94 40.71 10.95
9/28/2021 4:15:00 PM 15.92 60.656 0.51 7.97 40.07 11.05
9/28/2021 4:30:00 PM 15.96 60.728 0.511 7.94 41.15 11.08
9/28/2021 4:45:00 PM 15.93 60.674 0.511 7.93 43.24 11.02
9/28/2021 5:00:00 PM 15.93 60.674 0.512 7.84 44.08 10.98
9/28/2021 5:15:00 PM 15.94 60.692 0.512 7.96 43.97 11.03
9/28/2021 5:30:00 PM 15.96 60.728 0.513 7.97 42.4 11.11
9/28/2021 5:45:00 PM 15.96 60.728 0.513 7.93 38.64 11.11
9/28/2021 6:00:00 PM 15.95 60.71 0.513 7.99 41.93 11.07
9/28/2021 6:15:00 PM 15.92 60.656 0.344 7.95 49.61 10.95
9/28/2021 6:30:00 PM 15.88 60.584 0.513 8 42.28 11.02
9/28/2021 6:45:00 PM 15.84 60.512 0.512 7.98 43.16 10.9
9/28/2021 7:00:00 PM 15.8 60.44 0.512 7.99 43.03 10.82
9/28/2021 7:15:00 PM 15.75 60.35 0.51 7.98 42.94 10.73
9/28/2021 7:30:00 PM 15.69 60.242 0.51 8 44.11 10.59
9/28/2021 7:45:00 PM 15.65 60.17 0.51 7.97 44.29 10.53
9/28/2021 8:00:00 PM 15.61 60.098 0.509 7.99 49.5 10.45
9/28/2021 8:15:00 PM 15.57 60.026 0.509 8.01 46.71 10.39
9/28/2021 8:30:00 PM 15.53 59.954 0.509 8.01 47.32 10.29
9/28/2021 8:45:00 PM 15.48 59.864 0.509 7.98 44.44 10.2
9/28/2021 9:00:00 PM 15.44 59.792 0.51 7.99 46.23 10.11
9/28/2021 9:15:00 PM 15.4 59.72 0.51 7.99 47.62 10.01
9/28/2021 9:30:00 PM 15.35 59.63 0.51 7.94 4.48 9.9
9/28/2021 9:45:00 PM 15.3 59.54 0.51 7.96 43.86 9.79
9/28/2021 10:00:00 PM 15.25 59.45 0.508 7.94 43.4 9.68
9/28/2021 10:15:00 PM 15.2 59.36 0.507 7.9 45.09 9.57
9/28/2021 10:30:00 PM 15.15 59.27 0.505 7.91 45.53 9.53
9/28/2021 10:45:00 PM 15.1 59.18 0.504 7.89 44.65 9.45
9/28/2021 11:00:00 PM 15.04 59.072 0.503 7.86 46.55 9.31
9/28/2021 11:15:00 PM 14.99 58.982 0.502 7.82 46.08 9.24
9/28/2021 11:30:00 PM 14.94 58.892 0.501 7.84 43.48 9.23
9/28/2021 11:45:00 PM 14.88 58.784 0.501 7.83 46.35 9.16
9/29/2021 12:00:00 AM 14.82 58.676 0.501 7.82 48.29 9.11
9/29/2021 12:15:00 AM 14.76 58.568 0.502 7.81 89.62 9.07
9/29/2021 12:30:00 AM 14.7 58.46 0.501 7.81 46.04 9.03
9/29/2021 12:45:00 AM 14.63 58.334 0.5 7.79 46.09 9.01
9/29/2021 1:00:00 AM 14.57 58.226 0.499 7.79 47.96 8.97
9/29/2021 1:15:00 AM 14.5 58.1 0.497 7.79 49.48 8.97
9/29/2021 1:30:00 AM 14.43 57.974 0.495 7.76 44.53 8.95
9/29/2021 1:45:00 AM 14.37 57.866 0.492 7.76 14.75 8.93
9/29/2021 2:00:00 AM 14.31 57.758 0.487 7.75 43.41 8.93
9/29/2021 2:15:00 AM 14.25 57.65 0.483 7.73 43.8 8.92
9/29/2021 2:30:00 AM 14.19 57.542 0.478 7.74 44.58 8.9
9/29/2021 2:45:00 AM 14.14 57.452 0.474 7.73 46.27 8.89
9/29/2021 3:00:00 AM 14.08 57.344 0.469 7.7 45.19 8.86
9/29/2021 3:15:00 AM 14.03 57.254 0.465 7.7 43.53 8.87
9/29/2021 3:30:00 AM 13.98 57.164 0.46 7.69 44.73 8.86
9/29/2021 3:45:00 AM 13.93 57.074 0.457 7.64 43.78 8.87
9/29/2021 4:00:00 AM 13.87 56.966 0.454 7.67 45.55 8.83
9/29/2021 4:15:00 AM 13.82 56.876 0.451 7.66 44.93 8.81
9/29/2021 4:30:00 AM 13.76 56.768 0.449 7.67 44.29 8.82
9/29/2021 4:45:00 AM 13.71 56.678 0.446 7.68 52.59 8.84
9/29/2021 5:00:00 AM 13.66 56.588 0.446 7.67 11.43 8.86
9/29/2021 5:15:00 AM 13.62 56.516 0.445 7.67 41.64 8.89
9/29/2021 5:30:00 AM 13.57 56.426 0.444 7.65 42.14 8.89
9/29/2021 5:45:00 AM 13.53 56.354 0.444 7.64 44.95 8.86
9/29/2021 6:00:00 AM 13.49 56.282 0.444 7.66 42.14 8.9
9/29/2021 6:15:00 AM 13.45 56.21 0.444 7.66 43.9 8.91
9/29/2021 6:30:00 AM 13.4 56.12 0.445 7.65 44.75 8.95
9/29/2021 6:45:00 AM 13.36 56.048 0.445 7.65 41.89 8.89
9/29/2021 7:00:00 AM 13.33 55.994 0.446 7.66 43.53 8.94
9/29/2021 7:15:00 AM 13.28 55.904 0.447 7.66 105.57 8.91
9/29/2021 7:30:00 AM 13.24 55.832 0.448 7.66 44.3 8.88
9/29/2021 7:45:00 AM 13.2 55.76 0.448 7.67 43.63 8.85
9/29/2021 8:00:00 AM 13.15 55.67 0.449 7.65 48.91 8.98
9/29/2021 8:15:00 AM 13.12 55.616 0.45 7.66 45.76 9.06
9/29/2021 8:30:00 AM 13.08 55.544 0.451 7.65 43.73 9.08
9/29/2021 8:45:00 AM 13.04 55.472 0.452 7.67 50.04 9.12
9/29/2021 9:00:00 AM 13.01 55.418 0.452 7.63 51.5 9.19
9/29/2021 9:15:00 AM 12.98 55.364 0.454 7.66 59.86 9.25
9/29/2021 9:30:00 AM 12.96 55.328 0.455 7.7 59.48 9.31
9/29/2021 9:45:00 AM 12.94 55.292 0.455 7.68 52.6 9.35
9/29/2021 10:00:00 AM 12.94 55.292 0.457 7.69 46.37 9.44
9/29/2021 10:15:00 AM 12.97 55.346 0.457 7.69 50.42 9.58
9/29/2021 10:30:00 AM 13.01 55.418 0.458 7.64 45.65 9.72
9/29/2021 10:45:00 AM 13.05 55.49 0.459 7.71 45.97 9.83
9/29/2021 11:00:00 AM 13.1 55.58 0.461 7.73 47.68 9.82
9/29/2021 11:15:00 AM 13.16 55.688 0.461 7.75 48.63 10.03
9/29/2021 11:30:00 AM 13.25 55.85 0.462 7.78 46.38 10.15
9/29/2021 11:45:00 AM 13.34 56.012 0.463 7.78 48.14 10.24
9/29/2021 12:00:00 PM 13.42 56.156 0.464 7.8 44.64 10.29
9/29/2021 12:15:00 PM 13.45 56.21 0.465 7.77 48.46 10.43
9/29/2021 12:30:00 PM 13.55 56.39 0.466 7.81 44.92 10.54
9/29/2021 12:45:00 PM 13.62 56.516 0.467 7.77 52.61 10.81
9/29/2021 1:00:00 PM 13.84 56.912 0.467 7.83 46.57 11.01
9/29/2021 1:15:00 PM 13.93 57.074 0.468 7.85 43.39 10.91
9/29/2021 1:30:00 PM 14.14 57.452 0.469 7.91 42.53 11.09
9/29/2021 1:45:00 PM 14.31 57.758 0.47 7.9 44.56 11.56
9/29/2021 2:00:00 PM 14.36 57.848 0.47 7.92 44.43 11.58
9/29/2021 2:15:00 PM 14.38 57.884 0.47 7.93 44.43 11.47
9/29/2021 2:30:00 PM 14.41 57.938 0.472 7.94 75.06 11.56
9/29/2021 2:45:00 PM 14.45 58.01 0.473 7.97 66.58 11.65
9/29/2021 3:00:00 PM 14.49 58.082 0.473 7.98 55.99 11.74
9/29/2021 3:15:00 PM 14.56 58.208 0.33 7.96 229.66 11.87
9/29/2021 3:30:00 PM 14.61 58.298 0.475 7.97 59.24 11.88
9/29/2021 3:45:00 PM 14.69 58.442 0.476 8.01 56.52 12.04
9/29/2021 4:00:00 PM 14.78 58.604 0.476 8 54.41 12.18
9/29/2021 4:15:00 PM 14.86 58.748 0.477 8.04 58.63 12.13
9/29/2021 4:30:00 PM 14.94 58.892 0.477 8.05 52.45 12.19
9/29/2021 4:45:00 PM 15 59 0.478 8.05 50.98 12.28
9/29/2021 5:00:00 PM 15.03 59.054 0.478 8.08 50.07 12.22
9/29/2021 5:15:00 PM 15.06 59.108 0.479 8.06 56.56 12.15
9/29/2021 5:30:00 PM 15.06 59.108 0.479 8.06 46.09 12.01
9/29/2021 5:45:00 PM 15.07 59.126 0.48 8.1 49.47 11.96
9/29/2021 6:00:00 PM 15.06 59.108 0.481 8.09 53.93 11.86
9/29/2021 6:15:00 PM 15.07 59.126 0.481 8.08 50.06 11.77
9/29/2021 6:30:00 PM 15.06 59.108 0.482 8.09 49.79 11.65
9/29/2021 6:45:00 PM 15.06 59.108 0.483 8.07 48.17 11.53
9/29/2021 7:00:00 PM 15.05 59.09 0.484 8.07 58.75 11.42
9/29/2021 7:15:00 PM 15.04 59.072 0.485 8.04 59.84 11.27
9/29/2021 7:30:00 PM 15.02 59.036 0.486 8.04 57.8 11.11
9/29/2021 7:45:00 PM 14.99 58.982 0.486 8.06 60.72 10.96
9/29/2021 8:00:00 PM 14.97 58.946 0.487 8.03 61.45 10.87
9/29/2021 8:15:00 PM 14.94 58.892 0.488 7.99 57.74 10.71
9/29/2021 8:30:00 PM 14.91 58.838 0.489 8.01 59.45 10.58
9/29/2021 8:45:00 PM 14.87 58.766 0.49 7.98 58.14 10.47
9/29/2021 9:00:00 PM 14.84 58.712 0.49 7.98 56.92 10.35
9/29/2021 9:15:00 PM 14.81 58.658 0.491 7.96 54.49 10.23
9/29/2021 9:30:00 PM 14.77 58.586 0.491 7.94 56.57 10.16
9/29/2021 9:45:00 PM 14.73 58.514 0.492 7.89 50.19 10.02
9/29/2021 10:00:00 PM 14.69 58.442 0.493 7.91 53.45 9.95
9/29/2021 10:15:00 PM 14.65 58.37 0.494 7.9 55.51 9.87
9/29/2021 10:30:00 PM 14.62 58.316 0.494 7.89 53.14 9.77
9/29/2021 10:45:00 PM 14.58 58.244 0.495 7.9 52.37 9.69
9/29/2021 11:00:00 PM 14.54 58.172 0.496 7.88 51.67 9.63
9/29/2021 11:15:00 PM 14.49 58.082 0.497 7.89 51.97 9.55
9/29/2021 11:30:00 PM 14.46 58.028 0.498 7.85 50.06 9.5
9/29/2021 11:45:00 PM 14.41 57.938 0.498 7.86 49.7 9.45
9/30/2021 12:00:00 AM 14.36 57.848 0.499 7.85 48.82 9.37
9/30/2021 12:15:00 AM 14.31 57.758 0.5 7.83 47.76 9.29
9/30/2021 12:30:00 AM 14.26 57.668 0.5 7.83 50.48 9.22
9/30/2021 12:45:00 AM 14.21 57.578 0.501 7.78 50.85 9.15
9/30/2021 1:00:00 AM 14.16 57.488 0.501 7.78 49.58 9.1
9/30/2021 1:15:00 AM 14.11 57.398 0.503 7.73 49.33 9.04
9/30/2021 1:30:00 AM 14.06 57.308 0.503 7.79 47.57 8.99
9/30/2021 1:45:00 AM 14.01 57.218 0.503 7.75 46.85 8.94
9/30/2021 2:00:00 AM 13.96 57.128 0.504 7.75 27.98 8.91
9/30/2021 2:15:00 AM 13.91 57.038 0.505 7.71 47.16 8.89
9/30/2021 2:30:00 AM 13.86 56.948 0.506 7.77 47 8.82
9/30/2021 2:45:00 AM 13.81 56.858 0.506 7.76 48.37 8.83
9/30/2021 3:00:00 AM 13.76 56.768 0.506 7.75 49.04 8.82
9/30/2021 3:15:00 AM 13.73 56.714 0.507 7.74 131.46 8.76
9/30/2021 3:30:00 AM 13.69 56.642 0.508 7.68 46.61 8.79
9/30/2021 3:45:00 AM 13.65 56.57 0.508 7.73 46.94 8.75
9/30/2021 4:00:00 AM 13.62 56.516 0.509 7.72 44.52 8.76
9/30/2021 4:15:00 AM 13.58 56.444 0.363 7.66 54.21 8.68
9/30/2021 4:30:00 AM 13.55 56.39 0.51 7.68 43.65 8.73
9/30/2021 4:45:00 AM 13.52 56.336 0.51 7.72 45.39 8.81
9/30/2021 5:00:00 AM 13.49 56.282 0.51 7.72 44.86 8.83
9/30/2021 5:15:00 AM 13.47 56.246 0.511 7.71 45.29 8.76
9/30/2021 5:30:00 AM 13.45 56.21 0.511 7.72 45.72 8.78
9/30/2021 5:45:00 AM 13.43 56.174 0.512 7.72 45.56 8.78
9/30/2021 6:00:00 AM 13.41 56.138 0.512 7.72 43.31 8.79
9/30/2021 6:15:00 AM 13.38 56.084 0.513 7.71 44.2 8.78
9/30/2021 6:30:00 AM 13.36 56.048 0.513 7.68 44.67 8.77
9/30/2021 6:45:00 AM 13.34 56.012 0.513 7.69 47.1 8.78
9/30/2021 7:00:00 AM 13.33 55.994 0.514 7.7 44.05 8.78
9/30/2021 7:15:00 AM 13.31 55.958 0.514 7.69 45.45 8.79
9/30/2021 7:30:00 AM 13.3 55.94 0.515 7.7 45.64 8.78
9/30/2021 7:45:00 AM 13.28 55.904 0.515 7.7 44.27 8.84
9/30/2021 8:00:00 AM 13.27 55.886 0.516 7.71 46.06 8.84
9/30/2021 8:15:00 AM 13.26 55.868 0.517 7.71 48.72 8.89
9/30/2021 8:30:00 AM 13.27 55.886 0.517 7.72 51.45 9
9/30/2021 8:45:00 AM 13.27 55.886 0.518 7.68 54.66 9.09
9/30/2021 9:00:00 AM 13.28 55.904